PWSweather.com
Personal Weather Stations
Station Observations
KCOFALCO8
Falcon Hills, Falcon, CO 80831

Falcon HillsFalcon, CO 80831

Lat: 38.979792, Lon: -104.61195

Elevation: 7170

Station Type: AcuRite Pro 5-in-1

http://wx.frazierhome.net/

High Low Average
Temperature 75.1°F23.9°C 45.9°F7.7°C 61.3°F16.3°C
Dew Point 42.6°F5.9°C 23.8°F-4.6°C 34.8°F1.6°C
Winds 18.0 mph 29.0 kmh 2.0 mph 3.2 kmh 8.0 mph S12.9 kmh S
Wind Gusts -- -- --
Humidity 83% 20% 41%
Pressure 30.32 in1026.8 mb 30.17 in1021.7 mb -
Precipitation 0.00 in0.0 mm - -
Hour Temp Dew Point Humidity Winds Wind Gusts Pressure Precip Precip Rate Daily Precip Total
12:00 AM 51.4°F10.8°C 38.3°F3.5°C 61% 4.0 mph SW6.4 kmh SW -- 30.23 in1023.7 mb 0.00 in0.0 mm 0.00 in0.0 mm 0.00 in0.0 mm
12:01 AM 51.4°F10.8°C 38.3°F3.5°C 61% 4.0 mph WNW6.4 kmh WNW -- 30.23 in1023.7 mb 0.00 in0.0 mm 0.00 in0.0 mm 0.00 in0.0 mm
12:02 AM 51.5°F10.8°C 38.3°F3.5°C 61% 4.0 mph NW6.4 kmh NW -- 30.23 in1023.7 mb 0.00 in0.0 mm 0.00 in0.0 mm 0.00 in0.0 mm
12:03 AM 51.5°F10.8°C 38.3°F3.5°C 61% 5.0 mph WNW8.0 kmh WNW -- 30.23 in1023.7 mb 0.00 in0.0 mm 0.00 in0.0 mm 0.00 in0.0 mm
12:04 AM 51.8°F11.0°C 38.7°F3.7°C 61% 5.0 mph WNW8.0 kmh WNW -- 30.23 in1023.7 mb 0.00 in0.0 mm 0.00 in0.0 mm 0.00 in0.0 mm
12:05 AM 51.9°F11.1°C 38.8°F3.8°C 61% 5.0 mph WNW8.0 kmh WNW -- 30.23 in1023.7 mb 0.00 in0.0 mm 0.00 in0.0 mm 0.00 in0.0 mm
12:06 AM 51.9°F11.1°C 38.8°F3.8°C 61% 5.0 mph W8.0 kmh W -- 30.23 in1023.7 mb 0.00 in0.0 mm 0.00 in0.0 mm 0.00 in0.0 mm
12:07 AM 51.9°F11.1°C 38.8°F3.8°C 61% 4.0 mph NNW6.4 kmh NNW -- 30.23 in1023.7 mb 0.00 in0.0 mm 0.00 in0.0 mm 0.00 in0.0 mm
12:08 AM 52.2°F11.2°C 39.0°F3.9°C 61% 5.0 mph WNW8.0 kmh WNW -- 30.23 in1023.7 mb 0.00 in0.0 mm 0.00 in0.0 mm 0.00 in0.0 mm
12:09 AM 52.3°F11.3°C 39.2°F4.0°C 61% 5.0 mph W8.0 kmh W -- 30.23 in1023.7 mb 0.00 in0.0 mm 0.00 in0.0 mm 0.00 in0.0 mm
12:11 AM 52.5°F11.4°C 38.9°F3.8°C 60% 5.0 mph NW8.0 kmh NW -- 30.22 in1023.4 mb 0.00 in0.0 mm 0.00 in0.0 mm 0.00 in0.0 mm
12:12 AM 52.5°F11.4°C 38.9°F3.8°C 60% 6.0 mph W9.7 kmh W -- 30.22 in1023.4 mb 0.00 in0.0 mm 0.00 in0.0 mm 0.00 in0.0 mm
12:13 AM 52.6°F11.4°C 38.9°F3.8°C 60% 5.0 mph NW8.0 kmh NW -- 30.23 in1023.7 mb 0.00 in0.0 mm 0.00 in0.0 mm 0.00 in0.0 mm
12:14 AM 52.6°F11.4°C 38.9°F3.8°C 60% 5.0 mph NNW8.0 kmh NNW -- 30.23 in1023.7 mb 0.00 in0.0 mm 0.00 in0.0 mm 0.00 in0.0 mm
12:15 AM 52.6°F11.4°C 38.9°F3.8°C 60% 4.0 mph WNW6.4 kmh WNW -- 30.23 in1023.7 mb 0.00 in0.0 mm 0.00 in0.0 mm 0.00 in0.0 mm
12:16 AM 52.6°F11.4°C 38.9°F3.8°C 60% 4.0 mph WNW6.4 kmh WNW -- 30.22 in1023.4 mb 0.00 in0.0 mm 0.00 in0.0 mm 0.00 in0.0 mm
12:17 AM 52.6°F11.4°C 38.9°F3.8°C 60% 4.0 mph W6.4 kmh W -- 30.23 in1023.7 mb 0.00 in0.0 mm 0.00 in0.0 mm 0.00 in0.0 mm
12:18 AM 52.6°F11.4°C 38.5°F3.6°C 59% 5.0 mph WNW8.0 kmh WNW -- 30.23 in1023.7 mb 0.00 in0.0 mm 0.00 in0.0 mm 0.00 in0.0 mm
12:19 AM 52.8°F11.6°C 38.8°F3.8°C 59% 6.0 mph W9.7 kmh W -- 30.23 in1023.7 mb 0.00 in0.0 mm 0.00 in0.0 mm 0.00 in0.0 mm
12:20 AM 53.1°F11.7°C 39.0°F3.9°C 59% 5.0 mph WNW8.0 kmh WNW -- 30.23 in1023.7 mb 0.00 in0.0 mm 0.00 in0.0 mm 0.00 in0.0 mm
12:22 AM 53.1°F11.7°C 39.0°F3.9°C 59% 4.0 mph W6.4 kmh W -- 30.22 in1023.4 mb 0.00 in0.0 mm 0.00 in0.0 mm 0.00 in0.0 mm
12:23 AM 53.1°F11.7°C 39.0°F3.9°C 59% 5.0 mph WNW8.0 kmh WNW -- 30.22 in1023.4 mb 0.00 in0.0 mm 0.00 in0.0 mm 0.00 in0.0 mm
12:25 AM 53.1°F11.7°C 39.0°F3.9°C 59% 5.0 mph NW8.0 kmh NW -- 30.22 in1023.4 mb 0.00 in0.0 mm 0.00 in0.0 mm 0.00 in0.0 mm
12:26 AM 53.1°F11.7°C 39.0°F3.9°C 59% 4.0 mph W6.4 kmh W -- 30.22 in1023.4 mb 0.00 in0.0 mm 0.00 in0.0 mm 0.00 in0.0 mm
12:27 AM 53.1°F11.7°C 39.0°F3.9°C 59% 4.0 mph NW6.4 kmh NW -- 30.22 in1023.4 mb 0.00 in0.0 mm 0.00 in0.0 mm 0.00 in0.0 mm
12:28 AM 52.8°F11.6°C 38.8°F3.8°C 59% 5.0 mph W8.0 kmh W -- 30.22 in1023.4 mb 0.00 in0.0 mm 0.00 in0.0 mm 0.00 in0.0 mm
12:29 AM 52.8°F11.6°C 38.8°F3.8°C 59% 4.0 mph WNW6.4 kmh WNW -- 30.22 in1023.4 mb 0.00 in0.0 mm 0.00 in0.0 mm 0.00 in0.0 mm
12:30 AM 52.8°F11.6°C 38.8°F3.8°C 59% 4.0 mph W6.4 kmh W -- 30.22 in1023.4 mb 0.00 in0.0 mm 0.00 in0.0 mm 0.00 in0.0 mm
12:31 AM 52.8°F11.6°C 38.8°F3.8°C 59% 4.0 mph NW6.4 kmh NW -- 30.22 in1023.4 mb 0.00 in0.0 mm 0.00 in0.0 mm 0.00 in0.0 mm
12:32 AM 52.6°F11.4°C 38.5°F3.6°C 59% 5.0 mph NW8.0 kmh NW -- 30.22 in1023.4 mb 0.00 in0.0 mm 0.00 in0.0 mm 0.00 in0.0 mm
12:33 AM 52.6°F11.4°C 38.5°F3.6°C 59% 5.0 mph W8.0 kmh W -- 30.22 in1023.4 mb 0.00 in0.0 mm 0.00 in0.0 mm 0.00 in0.0 mm
12:35 AM 52.6°F11.4°C 38.5°F3.6°C 59% 5.0 mph WNW8.0 kmh WNW -- 30.22 in1023.4 mb 0.00 in0.0 mm 0.00 in0.0 mm 0.00 in0.0 mm
12:36 AM 52.6°F11.4°C 38.0°F3.3°C 58% 7.0 mph W11.3 kmh W -- 30.22 in1023.4 mb 0.00 in0.0 mm 0.00 in0.0 mm 0.00 in0.0 mm
12:37 AM 52.6°F11.4°C 38.0°F3.3°C 58% 5.0 mph NNW8.0 kmh NNW -- 30.22 in1023.4 mb 0.00 in0.0 mm 0.00 in0.0 mm 0.00 in0.0 mm
12:38 AM 52.6°F11.4°C 38.0°F3.3°C 58% 4.0 mph NW6.4 kmh NW -- 30.22 in1023.4 mb 0.00 in0.0 mm 0.00 in0.0 mm 0.00 in0.0 mm
12:39 AM 52.8°F11.6°C 38.4°F3.6°C 58% 6.0 mph NW9.7 kmh NW -- 30.22 in1023.4 mb 0.00 in0.0 mm 0.00 in0.0 mm 0.00 in0.0 mm
12:40 AM 52.8°F11.6°C 38.4°F3.6°C 58% 5.0 mph NW8.0 kmh NW -- 30.22 in1023.4 mb 0.00 in0.0 mm 0.00 in0.0 mm 0.00 in0.0 mm
12:41 AM 52.8°F11.6°C 37.5°F3.1°C 56% 6.0 mph NW9.7 kmh NW -- 30.22 in1023.4 mb 0.00 in0.0 mm 0.00 in0.0 mm 0.00 in0.0 mm
12:42 AM 52.8°F11.6°C 37.5°F3.1°C 56% 4.0 mph WNW6.4 kmh WNW -- 30.22 in1023.4 mb 0.00 in0.0 mm 0.00 in0.0 mm 0.00 in0.0 mm
12:43 AM 52.8°F11.6°C 37.5°F3.1°C 56% 5.0 mph WSW8.0 kmh WSW -- 30.22 in1023.4 mb 0.00 in0.0 mm 0.00 in0.0 mm 0.00 in0.0 mm
12:44 AM 52.8°F11.6°C 37.5°F3.1°C 56% 5.0 mph WNW8.0 kmh WNW -- 30.22 in1023.4 mb 0.00 in0.0 mm 0.00 in0.0 mm 0.00 in0.0 mm
12:45 AM 53.1°F11.7°C 37.6°F3.1°C 56% 5.0 mph WNW8.0 kmh WNW -- 30.22 in1023.4 mb 0.00 in0.0 mm 0.00 in0.0 mm 0.00 in0.0 mm
12:47 AM 53.1°F11.7°C 37.6°F3.1°C 56% 4.0 mph NNW6.4 kmh NNW -- 30.22 in1023.4 mb 0.00 in0.0 mm 0.00 in0.0 mm 0.00 in0.0 mm
12:48 AM 53.1°F11.7°C 37.6°F3.1°C 56% 4.0 mph WNW6.4 kmh WNW -- 30.22 in1023.4 mb 0.00 in0.0 mm 0.00 in0.0 mm 0.00 in0.0 mm
12:49 AM 53.1°F11.7°C 37.6°F3.1°C 56% 5.0 mph WNW8.0 kmh WNW -- 30.22 in1023.4 mb 0.00 in0.0 mm 0.00 in0.0 mm 0.00 in0.0 mm
12:50 AM 53.1°F11.7°C 37.2°F2.9°C 55% 6.0 mph NW9.7 kmh NW -- 30.22 in1023.4 mb 0.00 in0.0 mm 0.00 in0.0 mm 0.00 in0.0 mm
12:51 AM 53.2°F11.8°C 37.3°F2.9°C 55% 5.0 mph NW8.0 kmh NW -- 30.22 in1023.4 mb 0.00 in0.0 mm 0.00 in0.0 mm 0.00 in0.0 mm
12:53 AM 53.2°F11.8°C 37.3°F2.9°C 55% 5.0 mph WNW8.0 kmh WNW -- 30.22 in1023.4 mb 0.00 in0.0 mm 0.00 in0.0 mm 0.00 in0.0 mm
12:54 AM 53.2°F11.8°C 37.3°F2.9°C 55% 7.0 mph NW11.3 kmh NW -- 30.22 in1023.4 mb 0.00 in0.0 mm 0.00 in0.0 mm 0.00 in0.0 mm
12:55 AM 53.4°F11.9°C 37.5°F3.1°C 55% 5.0 mph NW8.0 kmh NW -- 30.22 in1023.4 mb 0.00 in0.0 mm 0.00 in0.0 mm 0.00 in0.0 mm
12:56 AM 53.4°F11.9°C 37.5°F3.1°C 55% 5.0 mph WNW8.0 kmh WNW -- 30.22 in1023.4 mb 0.00 in0.0 mm 0.00 in0.0 mm 0.00 in0.0 mm
12:58 AM 53.4°F11.9°C 37.5°F3.1°C 55% 4.0 mph WNW6.4 kmh WNW -- 30.22 in1023.4 mb 0.00 in0.0 mm 0.00 in0.0 mm 0.00 in0.0 mm
12:59 AM 53.4°F11.9°C 37.5°F3.1°C 55% 5.0 mph WNW8.0 kmh WNW -- 30.22 in1023.4 mb 0.00 in0.0 mm 0.00 in0.0 mm 0.00 in0.0 mm
01:00 AM 53.4°F11.9°C 37.0°F2.8°C 54% 4.0 mph NW6.4 kmh NW -- 30.22 in1023.4 mb 0.00 in0.0 mm 0.00 in0.0 mm 0.00 in0.0 mm
01:01 AM 53.4°F11.9°C 37.0°F2.8°C 54% 6.0 mph NW9.7 kmh NW -- 30.22 in1023.4 mb 0.00 in0.0 mm 0.00 in0.0 mm 0.00 in0.0 mm
01:02 AM 53.5°F11.9°C 37.0°F2.8°C 54% 5.0 mph WNW8.0 kmh WNW -- 30.22 in1023.4 mb 0.00 in0.0 mm 0.00 in0.0 mm 0.00 in0.0 mm
01:04 AM 53.5°F11.9°C 37.0°F2.8°C 54% 6.0 mph NW9.7 kmh NW -- 30.22 in1023.4 mb 0.00 in0.0 mm 0.00 in0.0 mm 0.00 in0.0 mm
01:05 AM 53.5°F11.9°C 37.0°F2.8°C 54% 7.0 mph NW11.3 kmh NW -- 30.22 in1023.4 mb 0.00 in0.0 mm 0.00 in0.0 mm 0.00 in0.0 mm
01:06 AM 53.5°F11.9°C 37.0°F2.8°C 54% 5.0 mph W8.0 kmh W -- 30.22 in1023.4 mb 0.00 in0.0 mm 0.00 in0.0 mm 0.00 in0.0 mm
01:07 AM 53.5°F11.9°C 37.0°F2.8°C 54% 5.0 mph WNW8.0 kmh WNW -- 30.22 in1023.4 mb 0.00 in0.0 mm 0.00 in0.0 mm 0.00 in0.0 mm
01:09 AM 53.5°F11.9°C 37.0°F2.8°C 54% 6.0 mph W9.7 kmh W -- 30.22 in1023.4 mb 0.00 in0.0 mm 0.00 in0.0 mm 0.00 in0.0 mm
01:11 AM 53.5°F11.9°C 37.0°F2.8°C 54% 5.0 mph NW8.0 kmh NW -- 30.22 in1023.4 mb 0.00 in0.0 mm 0.00 in0.0 mm 0.00 in0.0 mm
01:12 AM 53.5°F11.9°C 37.0°F2.8°C 54% 4.0 mph NW6.4 kmh NW -- 30.22 in1023.4 mb 0.00 in0.0 mm 0.00 in0.0 mm 0.00 in0.0 mm
01:13 AM 53.4°F11.9°C 37.0°F2.8°C 54% 5.0 mph NW8.0 kmh NW -- 30.22 in1023.4 mb 0.00 in0.0 mm 0.00 in0.0 mm 0.00 in0.0 mm
01:14 AM 53.4°F11.9°C 37.0°F2.8°C 54% 4.0 mph W6.4 kmh W -- 30.22 in1023.4 mb 0.00 in0.0 mm 0.00 in0.0 mm 0.00 in0.0 mm
01:15 AM 53.2°F11.8°C 36.9°F2.7°C 54% 6.0 mph W9.7 kmh W -- 30.22 in1023.4 mb 0.00 in0.0 mm 0.00 in0.0 mm 0.00 in0.0 mm
01:16 AM 53.2°F11.8°C 36.9°F2.7°C 54% 4.0 mph WNW6.4 kmh WNW -- 30.22 in1023.4 mb 0.00 in0.0 mm 0.00 in0.0 mm 0.00 in0.0 mm
01:17 AM 53.2°F11.8°C 36.9°F2.7°C 54% 6.0 mph NW9.7 kmh NW -- 30.22 in1023.4 mb 0.00 in0.0 mm 0.00 in0.0 mm 0.00 in0.0 mm
01:18 AM 53.1°F11.7°C 36.7°F2.6°C 54% 6.0 mph W9.7 kmh W -- 30.22 in1023.4 mb 0.00 in0.0 mm 0.00 in0.0 mm 0.00 in0.0 mm
01:19 AM 53.1°F11.7°C 36.7°F2.6°C 54% 4.0 mph NW6.4 kmh NW -- 30.22 in1023.4 mb 0.00 in0.0 mm 0.00 in0.0 mm 0.00 in0.0 mm
01:20 AM 53.1°F11.7°C 36.7°F2.6°C 54% 5.0 mph WNW8.0 kmh WNW -- 30.22 in1023.4 mb 0.00 in0.0 mm 0.00 in0.0 mm 0.00 in0.0 mm
01:21 AM 53.1°F11.7°C 36.7°F2.6°C 54% 4.0 mph NNW6.4 kmh NNW -- 30.22 in1023.4 mb 0.00 in0.0 mm 0.00 in0.0 mm 0.00 in0.0 mm
01:22 AM 53.1°F11.7°C 36.7°F2.6°C 54% 4.0 mph WNW6.4 kmh WNW -- 30.22 in1023.4 mb 0.00 in0.0 mm 0.00 in0.0 mm 0.00 in0.0 mm
01:23 AM 53.1°F11.7°C 36.7°F2.6°C 54% 5.0 mph WNW8.0 kmh WNW -- 30.22 in1023.4 mb 0.00 in0.0 mm 0.00 in0.0 mm 0.00 in0.0 mm
01:24 AM 53.1°F11.7°C 36.7°F2.6°C 54% 4.0 mph WNW6.4 kmh WNW -- 30.22 in1023.4 mb 0.00 in0.0 mm 0.00 in0.0 mm 0.00 in0.0 mm
01:25 AM 53.1°F11.7°C 36.7°F2.6°C 54% 5.0 mph W8.0 kmh W -- 30.22 in1023.4 mb 0.00 in0.0 mm 0.00 in0.0 mm 0.00 in0.0 mm
01:26 AM 53.1°F11.7°C 36.7°F2.6°C 54% 4.0 mph NW6.4 kmh NW -- 30.21 in1023.0 mb 0.00 in0.0 mm 0.00 in0.0 mm 0.00 in0.0 mm
01:27 AM 53.1°F11.7°C 36.7°F2.6°C 54% 5.0 mph W8.0 kmh W -- 30.21 in1023.0 mb 0.00 in0.0 mm 0.00 in0.0 mm 0.00 in0.0 mm
01:28 AM 53.1°F11.7°C 36.7°F2.6°C 54% 5.0 mph WNW8.0 kmh WNW -- 30.22 in1023.4 mb 0.00 in0.0 mm 0.00 in0.0 mm 0.00 in0.0 mm
01:29 AM 53.1°F11.7°C 36.7°F2.6°C 54% 5.0 mph W8.0 kmh W -- 30.22 in1023.4 mb 0.00 in0.0 mm 0.00 in0.0 mm 0.00 in0.0 mm
01:30 AM 53.1°F11.7°C 36.7°F2.6°C 54% 6.0 mph WNW9.7 kmh WNW -- 30.22 in1023.4 mb 0.00 in0.0 mm 0.00 in0.0 mm 0.00 in0.0 mm
01:31 AM 53.2°F11.8°C 36.9°F2.7°C 54% 5.0 mph WNW8.0 kmh WNW -- 30.22 in1023.4 mb 0.00 in0.0 mm 0.00 in0.0 mm 0.00 in0.0 mm
01:32 AM 53.2°F11.8°C 36.9°F2.7°C 54% 6.0 mph WNW9.7 kmh WNW -- 30.22 in1023.4 mb 0.00 in0.0 mm 0.00 in0.0 mm 0.00 in0.0 mm
01:34 AM 53.2°F11.8°C 36.9°F2.7°C 54% 5.0 mph WNW8.0 kmh WNW -- 30.22 in1023.4 mb 0.00 in0.0 mm 0.00 in0.0 mm 0.00 in0.0 mm
01:35 AM 53.2°F11.8°C 36.9°F2.7°C 54% 5.0 mph NW8.0 kmh NW -- 30.22 in1023.4 mb 0.00 in0.0 mm 0.00 in0.0 mm 0.00 in0.0 mm
01:36 AM 53.2°F11.8°C 36.9°F2.7°C 54% 6.0 mph NW9.7 kmh NW -- 30.22 in1023.4 mb 0.00 in0.0 mm 0.00 in0.0 mm 0.00 in0.0 mm
01:37 AM 53.1°F11.7°C 36.7°F2.6°C 54% 6.0 mph WNW9.7 kmh WNW -- 30.22 in1023.4 mb 0.00 in0.0 mm 0.00 in0.0 mm 0.00 in0.0 mm
01:39 AM 52.8°F11.6°C 36.5°F2.5°C 54% 6.0 mph W9.7 kmh W -- 30.22 in1023.4 mb 0.00 in0.0 mm 0.00 in0.0 mm 0.00 in0.0 mm
01:40 AM 52.8°F11.6°C 36.5°F2.5°C 54% 6.0 mph NW9.7 kmh NW -- 30.22 in1023.4 mb 0.00 in0.0 mm 0.00 in0.0 mm 0.00 in0.0 mm
01:41 AM 52.8°F11.6°C 36.5°F2.5°C 54% 5.0 mph WNW8.0 kmh WNW -- 30.22 in1023.4 mb 0.00 in0.0 mm 0.00 in0.0 mm 0.00 in0.0 mm
01:42 AM 52.8°F11.6°C 36.5°F2.5°C 54% 6.0 mph WNW9.7 kmh WNW -- 30.22 in1023.4 mb 0.00 in0.0 mm 0.00 in0.0 mm 0.00 in0.0 mm
01:43 AM 52.6°F11.4°C 36.2°F2.3°C 54% 5.0 mph WNW8.0 kmh WNW -- 30.21 in1023.0 mb 0.00 in0.0 mm 0.00 in0.0 mm 0.00 in0.0 mm
01:44 AM 52.6°F11.4°C 36.2°F2.3°C 54% 5.0 mph NW8.0 kmh NW -- 30.21 in1023.0 mb 0.00 in0.0 mm 0.00 in0.0 mm 0.00 in0.0 mm
01:45 AM 52.6°F11.4°C 36.2°F2.3°C 54% 4.0 mph W6.4 kmh W -- 30.22 in1023.4 mb 0.00 in0.0 mm 0.00 in0.0 mm 0.00 in0.0 mm
01:46 AM 52.5°F11.4°C 36.7°F2.6°C 55% 5.0 mph NNW8.0 kmh NNW -- 30.22 in1023.4 mb 0.00 in0.0 mm 0.00 in0.0 mm 0.00 in0.0 mm
01:47 AM 52.5°F11.4°C 36.7°F2.6°C 55% 5.0 mph WNW8.0 kmh WNW -- 30.22 in1023.4 mb 0.00 in0.0 mm 0.00 in0.0 mm 0.00 in0.0 mm
01:48 AM 52.5°F11.4°C 36.7°F2.6°C 55% 5.0 mph NW8.0 kmh NW -- 30.22 in1023.4 mb 0.00 in0.0 mm 0.00 in0.0 mm 0.00 in0.0 mm
01:49 AM 52.3°F11.3°C 36.5°F2.5°C 55% 4.0 mph NW6.4 kmh NW -- 30.22 in1023.4 mb 0.00 in0.0 mm 0.00 in0.0 mm 0.00 in0.0 mm
01:50 AM 52.3°F11.3°C 36.5°F2.5°C 55% 5.0 mph W8.0 kmh W -- 30.22 in1023.4 mb 0.00 in0.0 mm 0.00 in0.0 mm 0.00 in0.0 mm
01:51 AM 52.3°F11.3°C 36.5°F2.5°C 55% 4.0 mph NNW6.4 kmh NNW -- 30.22 in1023.4 mb 0.00 in0.0 mm 0.00 in0.0 mm 0.00 in0.0 mm
01:52 AM 52.2°F11.2°C 36.3°F2.4°C 55% 5.0 mph WNW8.0 kmh WNW -- 30.21 in1023.0 mb 0.00 in0.0 mm 0.00 in0.0 mm 0.00 in0.0 mm
01:53 AM 52.2°F11.2°C 36.3°F2.4°C 55% 5.0 mph NW8.0 kmh NW -- 30.22 in1023.4 mb 0.00 in0.0 mm 0.00 in0.0 mm 0.00 in0.0 mm
01:54 AM 52.2°F11.2°C 36.3°F2.4°C 55% 4.0 mph NW6.4 kmh NW -- 30.22 in1023.4 mb 0.00 in0.0 mm 0.00 in0.0 mm 0.00 in0.0 mm
01:55 AM 52.2°F11.2°C 36.3°F2.4°C 55% 6.0 mph WNW9.7 kmh WNW -- 30.22 in1023.4 mb 0.00 in0.0 mm 0.00 in0.0 mm 0.00 in0.0 mm
01:56 AM 52.2°F11.2°C 36.3°F2.4°C 55% 4.0 mph WNW6.4 kmh WNW -- 30.22 in1023.4 mb 0.00 in0.0 mm 0.00 in0.0 mm 0.00 in0.0 mm
01:57 AM 52.2°F11.2°C 36.3°F2.4°C 55% 6.0 mph WNW9.7 kmh WNW -- 30.22 in1023.4 mb 0.00 in0.0 mm 0.00 in0.0 mm 0.00 in0.0 mm
01:58 AM 52.2°F11.2°C 36.3°F2.4°C 55% 5.0 mph W8.0 kmh W -- 30.22 in1023.4 mb 0.00 in0.0 mm 0.00 in0.0 mm 0.00 in0.0 mm
01:59 AM 52.2°F11.2°C 35.9°F2.2°C 54% 6.0 mph WNW9.7 kmh WNW -- 30.22 in1023.4 mb 0.00 in0.0 mm 0.00 in0.0 mm 0.00 in0.0 mm
02:00 AM 52.3°F11.3°C 36.0°F2.2°C 54% 5.0 mph NW8.0 kmh NW -- 30.22 in1023.4 mb 0.00 in0.0 mm 0.00 in0.0 mm 0.00 in0.0 mm
02:01 AM 52.3°F11.3°C 36.0°F2.2°C 54% 5.0 mph WNW8.0 kmh WNW -- 30.22 in1023.4 mb 0.00 in0.0 mm 0.00 in0.0 mm 0.00 in0.0 mm
02:02 AM 52.5°F11.4°C 36.2°F2.3°C 54% 5.0 mph WNW8.0 kmh WNW -- 30.22 in1023.4 mb 0.00 in0.0 mm 0.00 in0.0 mm 0.00 in0.0 mm
02:03 AM 52.5°F11.4°C 36.2°F2.3°C 54% 5.0 mph NW8.0 kmh NW -- 30.22 in1023.4 mb 0.00 in0.0 mm 0.00 in0.0 mm 0.00 in0.0 mm
02:04 AM 52.5°F11.4°C 36.2°F2.3°C 54% 5.0 mph WNW8.0 kmh WNW -- 30.22 in1023.4 mb 0.00 in0.0 mm 0.00 in0.0 mm 0.00 in0.0 mm
02:06 AM 52.5°F11.4°C 36.2°F2.3°C 54% 3.0 mph WNW4.8 kmh WNW -- 30.22 in1023.4 mb 0.00 in0.0 mm 0.00 in0.0 mm 0.00 in0.0 mm
02:07 AM 52.5°F11.4°C 36.2°F2.3°C 54% 4.0 mph W6.4 kmh W -- 30.21 in1023.0 mb 0.00 in0.0 mm 0.00 in0.0 mm 0.00 in0.0 mm
02:08 AM 52.5°F11.4°C 36.2°F2.3°C 54% 4.0 mph NW6.4 kmh NW -- 30.21 in1023.0 mb 0.00 in0.0 mm 0.00 in0.0 mm 0.00 in0.0 mm
02:09 AM 52.5°F11.4°C 36.2°F2.3°C 54% 4.0 mph WNW6.4 kmh WNW -- 30.21 in1023.0 mb 0.00 in0.0 mm 0.00 in0.0 mm 0.00 in0.0 mm
02:11 AM 52.5°F11.4°C 36.2°F2.3°C 54% 4.0 mph NW6.4 kmh NW -- 30.21 in1023.0 mb 0.00 in0.0 mm 0.00 in0.0 mm 0.00 in0.0 mm
02:12 AM 52.5°F11.4°C 36.2°F2.3°C 54% 4.0 mph WNW6.4 kmh WNW -- 30.21 in1023.0 mb 0.00 in0.0 mm 0.00 in0.0 mm 0.00 in0.0 mm
02:14 AM 52.5°F11.4°C 35.7°F2.1°C 53% 4.0 mph W6.4 kmh W -- 30.21 in1023.0 mb 0.00 in0.0 mm 0.00 in0.0 mm 0.00 in0.0 mm
02:16 AM 52.6°F11.4°C 35.7°F2.1°C 53% 4.0 mph W6.4 kmh W -- 30.21 in1023.0 mb 0.00 in0.0 mm 0.00 in0.0 mm 0.00 in0.0 mm
02:18 AM 52.8°F11.6°C 36.1°F2.3°C 53% 4.0 mph WNW6.4 kmh WNW -- 30.21 in1023.0 mb 0.00 in0.0 mm 0.00 in0.0 mm 0.00 in0.0 mm
02:19 AM 52.8°F11.6°C 35.1°F1.7°C 51% 4.0 mph NW6.4 kmh NW -- 30.21 in1023.0 mb 0.00 in0.0 mm 0.00 in0.0 mm 0.00 in0.0 mm
02:20 AM 52.8°F11.6°C 35.1°F1.7°C 51% 4.0 mph WNW6.4 kmh WNW -- 30.21 in1023.0 mb 0.00 in0.0 mm 0.00 in0.0 mm 0.00 in0.0 mm
02:21 AM 52.8°F11.6°C 35.1°F1.7°C 51% 4.0 mph W6.4 kmh W -- 30.21 in1023.0 mb 0.00 in0.0 mm 0.00 in0.0 mm 0.00 in0.0 mm
02:22 AM 52.8°F11.6°C 35.1°F1.7°C 51% 3.0 mph W4.8 kmh W -- 30.21 in1023.0 mb 0.00 in0.0 mm 0.00 in0.0 mm 0.00 in0.0 mm
02:23 AM 52.8°F11.6°C 35.1°F1.7°C 51% 4.0 mph WNW6.4 kmh WNW -- 30.21 in1023.0 mb 0.00 in0.0 mm 0.00 in0.0 mm 0.00 in0.0 mm
02:24 AM 52.8°F11.6°C 35.1°F1.7°C 51% 4.0 mph NW6.4 kmh NW -- 30.21 in1023.0 mb 0.00 in0.0 mm 0.00 in0.0 mm 0.00 in0.0 mm
02:25 AM 52.8°F11.6°C 35.1°F1.7°C 51% 5.0 mph WNW8.0 kmh WNW -- 30.21 in1023.0 mb 0.00 in0.0 mm 0.00 in0.0 mm 0.00 in0.0 mm
02:26 AM 52.8°F11.6°C 35.1°F1.7°C 51% 4.0 mph W6.4 kmh W -- 30.21 in1023.0 mb 0.00 in0.0 mm 0.00 in0.0 mm 0.00 in0.0 mm
02:27 AM 52.8°F11.6°C 35.1°F1.7°C 51% 4.0 mph NW6.4 kmh NW -- 30.21 in1023.0 mb 0.00 in0.0 mm 0.00 in0.0 mm 0.00 in0.0 mm
02:28 AM 52.8°F11.6°C 35.1°F1.7°C 51% 4.0 mph WNW6.4 kmh WNW -- 30.21 in1023.0 mb 0.00 in0.0 mm 0.00 in0.0 mm 0.00 in0.0 mm
02:29 AM 52.6°F11.4°C 34.8°F1.6°C 51% 4.0 mph W6.4 kmh W -- 30.21 in1023.0 mb 0.00 in0.0 mm 0.00 in0.0 mm 0.00 in0.0 mm
02:30 AM 52.6°F11.4°C 35.7°F2.1°C 53% 4.0 mph W6.4 kmh W -- 30.21 in1023.0 mb 0.00 in0.0 mm 0.00 in0.0 mm 0.00 in0.0 mm
02:31 AM 52.6°F11.4°C 35.7°F2.1°C 53% 3.0 mph W4.8 kmh W -- 30.21 in1023.0 mb 0.00 in0.0 mm 0.00 in0.0 mm 0.00 in0.0 mm
02:32 AM 52.6°F11.4°C 35.7°F2.1°C 53% 4.0 mph NW6.4 kmh NW -- 30.21 in1023.0 mb 0.00 in0.0 mm 0.00 in0.0 mm 0.00 in0.0 mm
02:33 AM 52.5°F11.4°C 35.7°F2.1°C 53% 3.0 mph W4.8 kmh W -- 30.21 in1023.0 mb 0.00 in0.0 mm 0.00 in0.0 mm 0.00 in0.0 mm
02:36 AM 52.5°F11.4°C 35.7°F2.1°C 53% 4.0 mph W6.4 kmh W -- 30.21 in1023.0 mb 0.00 in0.0 mm 0.00 in0.0 mm 0.00 in0.0 mm
02:38 AM 52.5°F11.4°C 35.7°F2.1°C 53% 3.0 mph WNW4.8 kmh WNW -- 30.21 in1023.0 mb 0.00 in0.0 mm 0.00 in0.0 mm 0.00 in0.0 mm
02:39 AM 52.5°F11.4°C 35.7°F2.1°C 53% 3.0 mph W4.8 kmh W -- 30.21 in1023.0 mb 0.00 in0.0 mm 0.00 in0.0 mm 0.00 in0.0 mm
02:40 AM 52.5°F11.4°C 35.7°F2.1°C 53% 4.0 mph W6.4 kmh W -- 30.21 in1023.0 mb 0.00 in0.0 mm 0.00 in0.0 mm 0.00 in0.0 mm
02:41 AM 52.5°F11.4°C 35.7°F2.1°C 53% 3.0 mph WNW4.8 kmh WNW -- 30.21 in1023.0 mb 0.00 in0.0 mm 0.00 in0.0 mm 0.00 in0.0 mm
02:42 AM 52.5°F11.4°C 35.7°F2.1°C 53% 3.0 mph W4.8 kmh W -- 30.21 in1023.0 mb 0.00 in0.0 mm 0.00 in0.0 mm 0.00 in0.0 mm
02:44 AM 52.3°F11.3°C 35.6°F2.0°C 53% 2.0 mph WNW3.2 kmh WNW -- 30.21 in1023.0 mb 0.00 in0.0 mm 0.00 in0.0 mm 0.00 in0.0 mm
02:45 AM 52.3°F11.3°C 35.6°F2.0°C 53% 2.0 mph W3.2 kmh W -- 30.21 in1023.0 mb 0.00 in0.0 mm 0.00 in0.0 mm 0.00 in0.0 mm
02:46 AM 52.2°F11.2°C 35.4°F1.9°C 53% 3.0 mph W4.8 kmh W -- 30.21 in1023.0 mb 0.00 in0.0 mm 0.00 in0.0 mm 0.00 in0.0 mm
02:47 AM 52.2°F11.2°C 35.4°F1.9°C 53% 2.0 mph W3.2 kmh W -- 30.21 in1023.0 mb 0.00 in0.0 mm 0.00 in0.0 mm 0.00 in0.0 mm
02:48 AM 52.2°F11.2°C 35.4°F1.9°C 53% 2.0 mph WNW3.2 kmh WNW -- 30.21 in1023.0 mb 0.00 in0.0 mm 0.00 in0.0 mm 0.00 in0.0 mm
02:49 AM 51.9°F11.1°C 35.2°F1.8°C 53% 3.0 mph W4.8 kmh W -- 30.21 in1023.0 mb 0.00 in0.0 mm 0.00 in0.0 mm 0.00 in0.0 mm
02:52 AM 51.9°F11.1°C 35.2°F1.8°C 53% 2.0 mph WNW3.2 kmh WNW -- 30.21 in1023.0 mb 0.00 in0.0 mm 0.00 in0.0 mm 0.00 in0.0 mm
02:54 AM 51.8°F11.0°C 35.1°F1.7°C 53% 3.0 mph W4.8 kmh W -- 30.21 in1023.0 mb 0.00 in0.0 mm 0.00 in0.0 mm 0.00 in0.0 mm
02:55 AM 51.8°F11.0°C 34.1°F1.2°C 51% 3.0 mph W4.8 kmh W -- 30.21 in1023.0 mb 0.00 in0.0 mm 0.00 in0.0 mm 0.00 in0.0 mm
02:56 AM 51.8°F11.0°C 33.6°F0.9°C 50% 3.0 mph WNW4.8 kmh WNW -- 30.21 in1023.0 mb 0.00 in0.0 mm 0.00 in0.0 mm 0.00 in0.0 mm
02:58 AM 51.5°F10.8°C 33.3°F0.7°C 50% 3.0 mph WNW4.8 kmh WNW -- 30.21 in1023.0 mb 0.00 in0.0 mm 0.00 in0.0 mm 0.00 in0.0 mm
03:00 AM 51.5°F10.8°C 33.3°F0.7°C 50% 3.0 mph W4.8 kmh W -- 30.20 in1022.7 mb 0.00 in0.0 mm 0.00 in0.0 mm 0.00 in0.0 mm
03:01 AM 51.5°F10.8°C 32.7°F0.4°C 49% 4.0 mph NW6.4 kmh NW -- 30.21 in1023.0 mb 0.00 in0.0 mm 0.00 in0.0 mm 0.00 in0.0 mm
03:02 AM 51.5°F10.8°C 32.7°F0.4°C 49% 4.0 mph WNW6.4 kmh WNW -- 30.21 in1023.0 mb 0.00 in0.0 mm 0.00 in0.0 mm 0.00 in0.0 mm
03:03 AM 51.5°F10.8°C 32.2°F0.1°C 48% 4.0 mph WSW6.4 kmh WSW -- 30.21 in1023.0 mb 0.00 in0.0 mm 0.00 in0.0 mm 0.00 in0.0 mm
03:04 AM 51.8°F11.0°C 31.0°F-0.6°C 45% 4.0 mph W6.4 kmh W -- 30.21 in1023.0 mb 0.00 in0.0 mm 0.00 in0.0 mm 0.00 in0.0 mm
03:05 AM 51.9°F11.1°C 31.1°F-0.5°C 45% 4.0 mph NNW6.4 kmh NNW -- 30.21 in1023.0 mb 0.00 in0.0 mm 0.00 in0.0 mm 0.00 in0.0 mm
03:06 AM 52.2°F11.2°C 30.7°F-0.7°C 44% 3.0 mph WNW4.8 kmh WNW -- 30.21 in1023.0 mb 0.00 in0.0 mm 0.00 in0.0 mm 0.00 in0.0 mm
03:07 AM 52.3°F11.3°C 30.3°F-0.9°C 43% 4.0 mph WNW6.4 kmh WNW -- 30.21 in1023.0 mb 0.00 in0.0 mm 0.00 in0.0 mm 0.00 in0.0 mm
03:08 AM 52.3°F11.3°C 30.3°F-0.9°C 43% 3.0 mph W4.8 kmh W -- 30.21 in1023.0 mb 0.00 in0.0 mm 0.00 in0.0 mm 0.00 in0.0 mm
03:09 AM 52.3°F11.3°C 29.1°F-1.6°C 41% 4.0 mph WNW6.4 kmh WNW -- 30.21 in1023.0 mb 0.00 in0.0 mm 0.00 in0.0 mm 0.00 in0.0 mm
03:10 AM 52.3°F11.3°C 29.1°F-1.6°C 41% 3.0 mph W4.8 kmh W -- 30.21 in1023.0 mb 0.00 in0.0 mm 0.00 in0.0 mm 0.00 in0.0 mm
03:11 AM 52.3°F11.3°C 29.1°F-1.6°C 41% 3.0 mph NW4.8 kmh NW -- 30.21 in1023.0 mb 0.00 in0.0 mm 0.00 in0.0 mm 0.00 in0.0 mm
03:12 AM 52.5°F11.4°C 29.3°F-1.5°C 41% 3.0 mph W4.8 kmh W -- 30.20 in1022.7 mb 0.00 in0.0 mm 0.00 in0.0 mm 0.00 in0.0 mm
03:13 AM 52.5°F11.4°C 29.3°F-1.5°C 41% 3.0 mph NW4.8 kmh NW -- 30.20 in1022.7 mb 0.00 in0.0 mm 0.00 in0.0 mm 0.00 in0.0 mm
03:14 AM 52.5°F11.4°C 29.3°F-1.5°C 41% 3.0 mph W4.8 kmh W -- 30.20 in1022.7 mb 0.00 in0.0 mm 0.00 in0.0 mm 0.00 in0.0 mm
03:15 AM 52.5°F11.4°C 29.3°F-1.5°C 41% 3.0 mph NW4.8 kmh NW -- 30.21 in1023.0 mb 0.00 in0.0 mm 0.00 in0.0 mm 0.00 in0.0 mm
03:16 AM 52.3°F11.3°C 29.1°F-1.6°C 41% 4.0 mph WNW6.4 kmh WNW -- 30.21 in1023.0 mb 0.00 in0.0 mm 0.00 in0.0 mm 0.00 in0.0 mm
03:17 AM 52.3°F11.3°C 29.1°F-1.6°C 41% 3.0 mph NW4.8 kmh NW -- 30.21 in1023.0 mb 0.00 in0.0 mm 0.00 in0.0 mm 0.00 in0.0 mm
03:18 AM 52.3°F11.3°C 29.1°F-1.6°C 41% 3.0 mph W4.8 kmh W -- 30.21 in1023.0 mb 0.00 in0.0 mm 0.00 in0.0 mm 0.00 in0.0 mm
03:19 AM 52.3°F11.3°C 29.1°F-1.6°C 41% 3.0 mph WNW4.8 kmh WNW -- 30.21 in1023.0 mb 0.00 in0.0 mm 0.00 in0.0 mm 0.00 in0.0 mm
03:20 AM 52.3°F11.3°C 29.1°F-1.6°C 41% 4.0 mph W6.4 kmh W -- 30.20 in1022.7 mb 0.00 in0.0 mm 0.00 in0.0 mm 0.00 in0.0 mm
03:21 AM 52.3°F11.3°C 29.1°F-1.6°C 41% 3.0 mph W4.8 kmh W -- 30.20 in1022.7 mb 0.00 in0.0 mm 0.00 in0.0 mm 0.00 in0.0 mm
03:22 AM 52.2°F11.2°C 29.0°F-1.7°C 41% 4.0 mph W6.4 kmh W -- 30.20 in1022.7 mb 0.00 in0.0 mm 0.00 in0.0 mm 0.00 in0.0 mm
03:23 AM 52.2°F11.2°C 29.0°F-1.7°C 41% 3.0 mph WNW4.8 kmh WNW -- 30.20 in1022.7 mb 0.00 in0.0 mm 0.00 in0.0 mm 0.00 in0.0 mm
03:24 AM 52.2°F11.2°C 29.0°F-1.7°C 41% 4.0 mph WNW6.4 kmh WNW -- 30.20 in1022.7 mb 0.00 in0.0 mm 0.00 in0.0 mm 0.00 in0.0 mm
03:25 AM 52.2°F11.2°C 29.0°F-1.7°C 41% 3.0 mph WNW4.8 kmh WNW -- 30.21 in1023.0 mb 0.00 in0.0 mm 0.00 in0.0 mm 0.00 in0.0 mm
03:26 AM 52.2°F11.2°C 28.4°F-2.0°C 40% 4.0 mph WNW6.4 kmh WNW -- 30.20 in1022.7 mb 0.00 in0.0 mm 0.00 in0.0 mm 0.00 in0.0 mm
03:27 AM 51.9°F11.1°C 28.2°F-2.1°C 40% 4.0 mph NW6.4 kmh NW -- 30.20 in1022.7 mb 0.00 in0.0 mm 0.00 in0.0 mm 0.00 in0.0 mm
03:28 AM 51.9°F11.1°C 28.2°F-2.1°C 40% 4.0 mph WNW6.4 kmh WNW -- 30.20 in1022.7 mb 0.00 in0.0 mm 0.00 in0.0 mm 0.00 in0.0 mm
03:30 AM 52.2°F11.2°C 27.8°F-2.3°C 39% 4.0 mph NW6.4 kmh NW -- 30.20 in1022.7 mb 0.00 in0.0 mm 0.00 in0.0 mm 0.00 in0.0 mm
03:31 AM 52.3°F11.3°C 26.6°F-3.0°C 37% 5.0 mph WNW8.0 kmh WNW -- 30.21 in1023.0 mb 0.00 in0.0 mm 0.00 in0.0 mm 0.00 in0.0 mm
03:32 AM 52.3°F11.3°C 26.6°F-3.0°C 37% 4.0 mph WNW6.4 kmh WNW -- 30.20 in1022.7 mb 0.00 in0.0 mm 0.00 in0.0 mm 0.00 in0.0 mm
03:33 AM 52.6°F11.4°C 25.5°F-3.6°C 35% 7.0 mph W11.3 kmh W -- 30.20 in1022.7 mb 0.00 in0.0 mm 0.00 in0.0 mm 0.00 in0.0 mm
03:34 AM 53.1°F11.7°C 25.2°F-3.8°C 34% 6.0 mph WNW9.7 kmh WNW -- 30.20 in1022.7 mb 0.00 in0.0 mm 0.00 in0.0 mm 0.00 in0.0 mm
03:35 AM 53.2°F11.8°C 25.4°F-3.7°C 34% 4.0 mph W6.4 kmh W -- 30.20 in1022.7 mb 0.00 in0.0 mm 0.00 in0.0 mm 0.00 in0.0 mm
03:36 AM 53.4°F11.9°C 25.6°F-3.6°C 34% 5.0 mph WNW8.0 kmh WNW -- 30.20 in1022.7 mb 0.00 in0.0 mm 0.00 in0.0 mm 0.00 in0.0 mm
03:37 AM 53.8°F12.1°C 24.4°F-4.2°C 32% 4.0 mph W6.4 kmh W -- 30.20 in1022.7 mb 0.00 in0.0 mm 0.00 in0.0 mm 0.00 in0.0 mm
03:38 AM 54.0°F12.2°C 24.6°F-4.1°C 32% 6.0 mph NW9.7 kmh NW -- 30.20 in1022.7 mb 0.00 in0.0 mm 0.00 in0.0 mm 0.00 in0.0 mm
03:39 AM 54.2°F12.3°C 24.0°F-4.4°C 31% 7.0 mph WNW11.3 kmh WNW -- 30.21 in1023.0 mb 0.00 in0.0 mm 0.00 in0.0 mm 0.00 in0.0 mm
03:40 AM 54.7°F12.6°C 24.4°F-4.2°C 31% 6.0 mph W9.7 kmh W -- 30.21 in1023.0 mb 0.00 in0.0 mm 0.00 in0.0 mm 0.00 in0.0 mm
03:41 AM 54.9°F12.7°C 23.8°F-4.6°C 30% 6.0 mph W9.7 kmh W -- 30.21 in1023.0 mb 0.00 in0.0 mm 0.00 in0.0 mm 0.00 in0.0 mm
03:42 AM 55.0°F12.8°C 24.0°F-4.4°C 30% 4.0 mph WNW6.4 kmh WNW -- 30.21 in1023.0 mb 0.00 in0.0 mm 0.00 in0.0 mm 0.00 in0.0 mm
03:43 AM 55.3°F12.9°C 24.1°F-4.4°C 30% 6.0 mph W9.7 kmh W -- 30.20 in1022.7 mb 0.00 in0.0 mm 0.00 in0.0 mm 0.00 in0.0 mm
03:44 AM 55.7°F13.2°C 24.6°F-4.1°C 30% 5.0 mph W8.0 kmh W -- 30.20 in1022.7 mb 0.00 in0.0 mm 0.00 in0.0 mm 0.00 in0.0 mm
03:45 AM 55.9°F13.3°C 24.8°F-4.0°C 30% 7.0 mph W11.3 kmh W -- 30.20 in1022.7 mb 0.00 in0.0 mm 0.00 in0.0 mm 0.00 in0.0 mm
03:46 AM 56.0°F13.3°C 24.8°F-4.0°C 30% 8.0 mph NW12.9 kmh NW -- 30.20 in1022.7 mb 0.00 in0.0 mm 0.00 in0.0 mm 0.00 in0.0 mm
03:47 AM 56.5°F13.6°C 25.2°F-3.8°C 30% 8.0 mph W12.9 kmh W -- 30.20 in1022.7 mb 0.00 in0.0 mm 0.00 in0.0 mm 0.00 in0.0 mm
03:48 AM 56.5°F13.6°C 25.2°F-3.8°C 30% 7.0 mph WNW11.3 kmh WNW -- 30.20 in1022.7 mb 0.00 in0.0 mm 0.00 in0.0 mm 0.00 in0.0 mm
03:49 AM 56.5°F13.6°C 25.2°F-3.8°C 30% 4.0 mph W6.4 kmh W -- 30.20 in1022.7 mb 0.00 in0.0 mm 0.00 in0.0 mm 0.00 in0.0 mm
03:50 AM 56.5°F13.6°C 25.2°F-3.8°C 30% 5.0 mph W8.0 kmh W -- 30.20 in1022.7 mb 0.00 in0.0 mm 0.00 in0.0 mm 0.00 in0.0 mm
03:51 AM 56.5°F13.6°C 25.2°F-3.8°C 30% 5.0 mph WNW8.0 kmh WNW -- 30.20 in1022.7 mb 0.00 in0.0 mm 0.00 in0.0 mm 0.00 in0.0 mm
03:52 AM 56.5°F13.6°C 25.2°F-3.8°C 30% 6.0 mph W9.7 kmh W -- 30.20 in1022.7 mb 0.00 in0.0 mm 0.00 in0.0 mm 0.00 in0.0 mm
03:53 AM 56.5°F13.6°C 25.2°F-3.8°C 30% 6.0 mph W9.7 kmh W -- 30.21 in1023.0 mb 0.00 in0.0 mm 0.00 in0.0 mm 0.00 in0.0 mm
03:54 AM 56.5°F13.6°C 25.2°F-3.8°C 30% 7.0 mph W11.3 kmh W -- 30.21 in1023.0 mb 0.00 in0.0 mm 0.00 in0.0 mm 0.00 in0.0 mm
03:55 AM 56.5°F13.6°C 25.2°F-3.8°C 30% 6.0 mph NW9.7 kmh NW -- 30.20 in1022.7 mb 0.00 in0.0 mm 0.00 in0.0 mm 0.00 in0.0 mm
03:56 AM 56.5°F13.6°C 25.2°F-3.8°C 30% 8.0 mph W12.9 kmh W -- 30.20 in1022.7 mb 0.00 in0.0 mm 0.00 in0.0 mm 0.00 in0.0 mm
03:57 AM 56.5°F13.6°C 25.2°F-3.8°C 30% 5.0 mph WNW8.0 kmh WNW -- 30.20 in1022.7 mb 0.00 in0.0 mm 0.00 in0.0 mm 0.00 in0.0 mm
03:58 AM 56.5°F13.6°C 25.2°F-3.8°C 30% 6.0 mph WNW9.7 kmh WNW -- 30.20 in1022.7 mb 0.00 in0.0 mm 0.00 in0.0 mm 0.00 in0.0 mm
03:59 AM 56.5°F13.6°C 25.2°F-3.8°C 30% 6.0 mph W9.7 kmh W -- 30.21 in1023.0 mb 0.00 in0.0 mm 0.00 in0.0 mm 0.00 in0.0 mm
04:00 AM 56.3°F13.5°C 25.1°F-3.8°C 30% 4.0 mph WSW6.4 kmh WSW -- 30.21 in1023.0 mb 0.00 in0.0 mm 0.00 in0.0 mm 0.00 in0.0 mm
04:01 AM 56.0°F13.3°C 24.8°F-4.0°C 30% 6.0 mph W9.7 kmh W -- 30.21 in1023.0 mb 0.00 in0.0 mm 0.00 in0.0 mm 0.00 in0.0 mm
04:02 AM 56.0°F13.3°C 24.8°F-4.0°C 30% 4.0 mph W6.4 kmh W -- 30.21 in1023.0 mb 0.00 in0.0 mm 0.00 in0.0 mm 0.00 in0.0 mm
04:03 AM 55.9°F13.3°C 24.8°F-4.0°C 30% 3.0 mph W4.8 kmh W -- 30.21 in1023.0 mb 0.00 in0.0 mm 0.00 in0.0 mm 0.00 in0.0 mm
04:04 AM 55.9°F13.3°C 24.8°F-4.0°C 30% 7.0 mph W11.3 kmh W -- 30.21 in1023.0 mb 0.00 in0.0 mm 0.00 in0.0 mm 0.00 in0.0 mm
04:05 AM 55.7°F13.2°C 24.6°F-4.1°C 30% 5.0 mph WNW8.0 kmh WNW -- 30.21 in1023.0 mb 0.00 in0.0 mm 0.00 in0.0 mm 0.00 in0.0 mm
04:06 AM 55.5°F13.1°C 25.2°F-3.8°C 31% 5.0 mph W8.0 kmh W -- 30.21 in1023.0 mb 0.00 in0.0 mm 0.00 in0.0 mm 0.00 in0.0 mm
04:07 AM 55.3°F12.9°C 24.9°F-3.9°C 31% 4.0 mph W6.4 kmh W -- 30.21 in1023.0 mb 0.00 in0.0 mm 0.00 in0.0 mm 0.00 in0.0 mm
04:08 AM 55.3°F12.9°C 24.9°F-3.9°C 31% 5.0 mph NW8.0 kmh NW -- 30.20 in1022.7 mb 0.00 in0.0 mm 0.00 in0.0 mm 0.00 in0.0 mm
04:09 AM 55.3°F12.9°C 24.9°F-3.9°C 31% 5.0 mph W8.0 kmh W -- 30.21 in1023.0 mb 0.00 in0.0 mm 0.00 in0.0 mm 0.00 in0.0 mm
04:10 AM 55.1°F12.8°C 24.8°F-4.0°C 31% 6.0 mph W9.7 kmh W -- 30.20 in1022.7 mb 0.00 in0.0 mm 0.00 in0.0 mm 0.00 in0.0 mm
04:11 AM 55.1°F12.8°C 24.8°F-4.0°C 31% 5.0 mph W8.0 kmh W -- 30.21 in1023.0 mb 0.00 in0.0 mm 0.00 in0.0 mm 0.00 in0.0 mm
04:13 AM 55.1°F12.8°C 24.8°F-4.0°C 31% 5.0 mph NW8.0 kmh NW -- 30.21 in1023.0 mb 0.00 in0.0 mm 0.00 in0.0 mm 0.00 in0.0 mm
04:14 AM 55.1°F12.8°C 24.8°F-4.0°C 31% 5.0 mph W8.0 kmh W -- 30.21 in1023.0 mb 0.00 in0.0 mm 0.00 in0.0 mm 0.00 in0.0 mm
04:15 AM 55.1°F12.8°C 24.0°F-4.4°C 30% 5.0 mph W8.0 kmh W -- 30.21 in1023.0 mb 0.00 in0.0 mm 0.00 in0.0 mm 0.00 in0.0 mm
04:16 AM 55.1°F12.8°C 24.0°F-4.4°C 30% 5.0 mph NNW8.0 kmh NNW -- 30.21 in1023.0 mb 0.00 in0.0 mm 0.00 in0.0 mm 0.00 in0.0 mm
04:17 AM 55.1°F12.8°C 24.0°F-4.4°C 30% 4.0 mph WNW6.4 kmh WNW -- 30.21 in1023.0 mb 0.00 in0.0 mm 0.00 in0.0 mm 0.00 in0.0 mm
04:19 AM 55.1°F12.8°C 24.0°F-4.4°C 30% 4.0 mph NW6.4 kmh NW -- 30.21 in1023.0 mb 0.00 in0.0 mm 0.00 in0.0 mm 0.00 in0.0 mm
04:20 AM 55.1°F12.8°C 24.0°F-4.4°C 30% 5.0 mph WNW8.0 kmh WNW -- 30.21 in1023.0 mb 0.00 in0.0 mm 0.00 in0.0 mm 0.00 in0.0 mm
04:21 AM 55.1°F12.8°C 24.0°F-4.4°C 30% 4.0 mph WNW6.4 kmh WNW -- 30.21 in1023.0 mb 0.00 in0.0 mm 0.00 in0.0 mm 0.00 in0.0 mm
04:22 AM 55.1°F12.8°C 24.0°F-4.4°C 30% 4.0 mph NW6.4 kmh NW -- 30.21 in1023.0 mb 0.00 in0.0 mm 0.00 in0.0 mm 0.00 in0.0 mm
04:23 AM 55.1°F12.8°C 24.0°F-4.4°C 30% 5.0 mph WNW8.0 kmh WNW -- 30.21 in1023.0 mb 0.00 in0.0 mm 0.00 in0.0 mm 0.00 in0.0 mm
04:24 AM 55.1°F12.8°C 24.0°F-4.4°C 30% 4.0 mph NW6.4 kmh NW -- 30.21 in1023.0 mb 0.00 in0.0 mm 0.00 in0.0 mm 0.00 in0.0 mm
04:25 AM 55.1°F12.8°C 24.0°F-4.4°C 30% 4.0 mph WNW6.4 kmh WNW -- 30.21 in1023.0 mb 0.00 in0.0 mm 0.00 in0.0 mm 0.00 in0.0 mm
04:26 AM 55.1°F12.8°C 24.0°F-4.4°C 30% 5.0 mph W8.0 kmh W -- 30.21 in1023.0 mb 0.00 in0.0 mm 0.00 in0.0 mm 0.00 in0.0 mm
04:27 AM 55.1°F12.8°C 24.0°F-4.4°C 30% 4.0 mph W6.4 kmh W -- 30.21 in1023.0 mb 0.00 in0.0 mm 0.00 in0.0 mm 0.00 in0.0 mm
04:28 AM 55.1°F12.8°C 24.0°F-4.4°C 30% 5.0 mph WNW8.0 kmh WNW -- 30.21 in1023.0 mb 0.00 in0.0 mm 0.00 in0.0 mm 0.00 in0.0 mm
04:29 AM 55.1°F12.8°C 24.0°F-4.4°C 30% 5.0 mph W8.0 kmh W -- 30.21 in1023.0 mb 0.00 in0.0 mm 0.00 in0.0 mm 0.00 in0.0 mm
04:30 AM 55.1°F12.8°C 24.0°F-4.4°C 30% 3.0 mph WNW4.8 kmh WNW -- 30.21 in1023.0 mb 0.00 in0.0 mm 0.00 in0.0 mm 0.00 in0.0 mm
04:31 AM 55.1°F12.8°C 24.0°F-4.4°C 30% 4.0 mph W6.4 kmh W -- 30.21 in1023.0 mb 0.00 in0.0 mm 0.00 in0.0 mm 0.00 in0.0 mm
04:33 AM 55.1°F12.8°C 24.0°F-4.4°C 30% 5.0 mph WNW8.0 kmh WNW -- 30.21 in1023.0 mb 0.00 in0.0 mm 0.00 in0.0 mm 0.00 in0.0 mm
04:34 AM 55.1°F12.8°C 24.0°F-4.4°C 30% 4.0 mph NNW6.4 kmh NNW -- 30.21 in1023.0 mb 0.00 in0.0 mm 0.00 in0.0 mm 0.00 in0.0 mm
04:35 AM 55.1°F12.8°C 24.0°F-4.4°C 30% 5.0 mph W8.0 kmh W -- 30.21 in1023.0 mb 0.00 in0.0 mm 0.00 in0.0 mm 0.00 in0.0 mm
04:36 AM 55.1°F12.8°C 24.0°F-4.4°C 30% 6.0 mph W9.7 kmh W -- 30.21 in1023.0 mb 0.00 in0.0 mm 0.00 in0.0 mm 0.00 in0.0 mm
04:37 AM 55.3°F12.9°C 24.1°F-4.4°C 30% 5.0 mph W8.0 kmh W -- 30.21 in1023.0 mb 0.00 in0.0 mm 0.00 in0.0 mm 0.00 in0.0 mm
04:38 AM 55.3°F12.9°C 24.1°F-4.4°C 30% 6.0 mph W9.7 kmh W -- 30.21 in1023.0 mb 0.00 in0.0 mm 0.00 in0.0 mm 0.00 in0.0 mm
04:39 AM 55.3°F12.9°C 24.1°F-4.4°C 30% 5.0 mph W8.0 kmh W -- 30.21 in1023.0 mb 0.00 in0.0 mm 0.00 in0.0 mm 0.00 in0.0 mm
04:40 AM 55.3°F12.9°C 24.1°F-4.4°C 30% 4.0 mph W6.4 kmh W -- 30.21 in1023.0 mb 0.00 in0.0 mm 0.00 in0.0 mm 0.00 in0.0 mm
04:41 AM 55.3°F12.9°C 24.1°F-4.4°C 30% 5.0 mph W8.0 kmh W -- 30.21 in1023.0 mb 0.00 in0.0 mm 0.00 in0.0 mm 0.00 in0.0 mm
04:42 AM 55.3°F12.9°C 24.1°F-4.4°C 30% 5.0 mph NW8.0 kmh NW -- 30.21 in1023.0 mb 0.00 in0.0 mm 0.00 in0.0 mm 0.00 in0.0 mm
04:43 AM 55.3°F12.9°C 24.1°F-4.4°C 30% 5.0 mph W8.0 kmh W -- 30.20 in1022.7 mb 0.00 in0.0 mm 0.00 in0.0 mm 0.00 in0.0 mm
04:44 AM 55.3°F12.9°C 24.1°F-4.4°C 30% 6.0 mph WNW9.7 kmh WNW -- 30.20 in1022.7 mb 0.00 in0.0 mm 0.00 in0.0 mm 0.00 in0.0 mm
04:45 AM 55.3°F12.9°C 24.1°F-4.4°C 30% 5.0 mph W8.0 kmh W -- 30.21 in1023.0 mb 0.00 in0.0 mm 0.00 in0.0 mm 0.00 in0.0 mm
04:46 AM 55.3°F12.9°C 24.1°F-4.4°C 30% 5.0 mph WNW8.0 kmh WNW -- 30.21 in1023.0 mb 0.00 in0.0 mm 0.00 in0.0 mm 0.00 in0.0 mm
04:47 AM 55.5°F13.1°C 24.4°F-4.2°C 30% 6.0 mph NNW9.7 kmh NNW -- 30.21 in1023.0 mb 0.00 in0.0 mm 0.00 in0.0 mm 0.00 in0.0 mm
04:48 AM 55.7°F13.2°C 24.6°F-4.1°C 30% 8.0 mph NNW12.9 kmh NNW -- 30.21 in1023.0 mb 0.00 in0.0 mm 0.00 in0.0 mm 0.00 in0.0 mm
04:49 AM 55.7°F13.2°C 24.6°F-4.1°C 30% 6.0 mph W9.7 kmh W -- 30.21 in1023.0 mb 0.00 in0.0 mm 0.00 in0.0 mm 0.00 in0.0 mm
04:50 AM 55.7°F13.2°C 24.6°F-4.1°C 30% 5.0 mph W8.0 kmh W -- 30.21 in1023.0 mb 0.00 in0.0 mm 0.00 in0.0 mm 0.00 in0.0 mm
04:51 AM 55.7°F13.2°C 23.8°F-4.6°C 29% 6.0 mph NW9.7 kmh NW -- 30.21 in1023.0 mb 0.00 in0.0 mm 0.00 in0.0 mm 0.00 in0.0 mm
04:52 AM 55.7°F13.2°C 23.8°F-4.6°C 29% 4.0 mph W6.4 kmh W -- 30.21 in1023.0 mb 0.00 in0.0 mm 0.00 in0.0 mm 0.00 in0.0 mm
04:53 AM 55.9°F13.3°C 24.0°F-4.4°C 29% 5.0 mph WNW8.0 kmh WNW -- 30.21 in1023.0 mb 0.00 in0.0 mm 0.00 in0.0 mm 0.00 in0.0 mm
04:55 AM 56.0°F13.3°C 24.0°F-4.4°C 29% 8.0 mph WNW12.9 kmh WNW -- 30.21 in1023.0 mb 0.00 in0.0 mm 0.00 in0.0 mm 0.00 in0.0 mm
04:56 AM 56.0°F13.3°C 24.0°F-4.4°C 29% 7.0 mph W11.3 kmh W -- 30.21 in1023.0 mb 0.00 in0.0 mm 0.00 in0.0 mm 0.00 in0.0 mm
04:57 AM 56.0°F13.3°C 24.0°F-4.4°C 29% 7.0 mph NW11.3 kmh NW -- 30.21 in1023.0 mb 0.00 in0.0 mm 0.00 in0.0 mm 0.00 in0.0 mm
04:58 AM 56.0°F13.3°C 24.0°F-4.4°C 29% 4.0 mph WNW6.4 kmh WNW -- 30.21 in1023.0 mb 0.00 in0.0 mm 0.00 in0.0 mm 0.00 in0.0 mm
04:59 AM 56.0°F13.3°C 24.0°F-4.4°C 29% 5.0 mph 8.0 kmh -- 30.21 in1023.0 mb 0.00 in0.0 mm 0.00 in0.0 mm 0.00 in0.0 mm
05:00 AM 55.9°F13.3°C 24.0°F-4.4°C 29% 5.0 mph W8.0 kmh W -- 30.21 in1023.0 mb 0.00 in0.0 mm 0.00 in0.0 mm 0.00 in0.0 mm
05:01 AM 55.9°F13.3°C 24.0°F-4.4°C 29% 8.0 mph WNW12.9 kmh WNW -- 30.21 in1023.0 mb 0.00 in0.0 mm 0.00 in0.0 mm 0.00 in0.0 mm
05:02 AM 55.9°F13.3°C 24.0°F-4.4°C 29% 5.0 mph W8.0 kmh W -- 30.21 in1023.0 mb 0.00 in0.0 mm 0.00 in0.0 mm 0.00 in0.0 mm
05:03 AM 55.7°F13.2°C 24.6°F-4.1°C 30% 8.0 mph NW12.9 kmh NW -- 30.21 in1023.0 mb 0.00 in0.0 mm 0.00 in0.0 mm 0.00 in0.0 mm
05:04 AM 55.5°F13.1°C 24.4°F-4.2°C 30% 5.0 mph NW8.0 kmh NW -- 30.21 in1023.0 mb 0.00 in0.0 mm 0.00 in0.0 mm 0.00 in0.0 mm
05:05 AM 55.5°F13.1°C 24.4°F-4.2°C 30% 4.0 mph WNW6.4 kmh WNW -- 30.21 in1023.0 mb 0.00 in0.0 mm 0.00 in0.0 mm 0.00 in0.0 mm
05:06 AM 55.3°F12.9°C 24.1°F-4.4°C 30% 5.0 mph 8.0 kmh -- 30.21 in1023.0 mb 0.00 in0.0 mm 0.00 in0.0 mm 0.00 in0.0 mm
05:07 AM 55.1°F12.8°C 24.0°F-4.4°C 30% 4.0 mph NW6.4 kmh NW -- 30.21 in1023.0 mb 0.00 in0.0 mm 0.00 in0.0 mm 0.00 in0.0 mm
05:08 AM 55.1°F12.8°C 24.0°F-4.4°C 30% 6.0 mph NNW9.7 kmh NNW -- 30.21 in1023.0 mb 0.00 in0.0 mm 0.00 in0.0 mm 0.00 in0.0 mm
05:09 AM 55.0°F12.8°C 24.0°F-4.4°C 30% 4.0 mph NW6.4 kmh NW -- 30.21 in1023.0 mb 0.00 in0.0 mm 0.00 in0.0 mm 0.00 in0.0 mm
05:10 AM 54.9°F12.7°C 25.4°F-3.7°C 32% 4.0 mph NW6.4 kmh NW -- 30.21 in1023.0 mb 0.00 in0.0 mm 0.00 in0.0 mm 0.00 in0.0 mm
05:11 AM 54.7°F12.6°C 25.2°F-3.8°C 32% 3.0 mph NW4.8 kmh NW -- 30.21 in1023.0 mb 0.00 in0.0 mm 0.00 in0.0 mm 0.00 in0.0 mm
05:12 AM 54.2°F12.3°C 24.7°F-4.1°C 32% 5.0 mph NW8.0 kmh NW -- 30.21 in1023.0 mb 0.00 in0.0 mm 0.00 in0.0 mm 0.00 in0.0 mm
05:13 AM 54.0°F12.2°C 24.6°F-4.1°C 32% 4.0 mph NNW6.4 kmh NNW -- 30.20 in1022.7 mb 0.00 in0.0 mm 0.00 in0.0 mm 0.00 in0.0 mm
05:14 AM 54.0°F12.2°C 24.6°F-4.1°C 32% 3.0 mph WNW4.8 kmh WNW -- 30.20 in1022.7 mb 0.00 in0.0 mm 0.00 in0.0 mm 0.00 in0.0 mm
05:15 AM 54.0°F12.2°C 24.6°F-4.1°C 32% 3.0 mph NW4.8 kmh NW -- 30.21 in1023.0 mb 0.00 in0.0 mm 0.00 in0.0 mm 0.00 in0.0 mm
05:16 AM 53.8°F12.1°C 25.9°F-3.4°C 34% 3.0 mph NW4.8 kmh NW -- 30.21 in1023.0 mb 0.00 in0.0 mm 0.00 in0.0 mm 0.00 in0.0 mm
05:17 AM 53.5°F11.9°C 25.6°F-3.6°C 34% 4.0 mph WNW6.4 kmh WNW -- 30.21 in1023.0 mb 0.00 in0.0 mm 0.00 in0.0 mm 0.00 in0.0 mm
05:18 AM 53.4°F11.9°C 25.6°F-3.6°C 34% 5.0 mph NW8.0 kmh NW -- 30.21 in1023.0 mb 0.00 in0.0 mm 0.00 in0.0 mm 0.00 in0.0 mm
05:19 AM 53.4°F11.9°C 25.6°F-3.6°C 34% 3.0 mph NW4.8 kmh NW -- 30.21 in1023.0 mb 0.00 in0.0 mm 0.00 in0.0 mm 0.00 in0.0 mm
05:20 AM 53.2°F11.8°C 25.4°F-3.7°C 34% 4.0 mph WNW6.4 kmh WNW -- 30.21 in1023.0 mb 0.00 in0.0 mm 0.00 in0.0 mm 0.00 in0.0 mm
05:21 AM 53.1°F11.7°C 25.2°F-3.8°C 34% 3.0 mph 4.8 kmh -- 30.21 in1023.0 mb 0.00 in0.0 mm 0.00 in0.0 mm 0.00 in0.0 mm
05:22 AM 53.1°F11.7°C 25.2°F-3.8°C 34% 4.0 mph NNW6.4 kmh NNW -- 30.21 in1023.0 mb 0.00 in0.0 mm 0.00 in0.0 mm 0.00 in0.0 mm
05:23 AM 52.8°F11.6°C 25.1°F-3.8°C 34% 4.0 mph NW6.4 kmh NW -- 30.21 in1023.0 mb 0.00 in0.0 mm 0.00 in0.0 mm 0.00 in0.0 mm
05:25 AM 52.6°F11.4°C 25.5°F-3.6°C 35% 4.0 mph NNW6.4 kmh NNW -- 30.21 in1023.0 mb 0.00 in0.0 mm 0.00 in0.0 mm 0.00 in0.0 mm
05:26 AM 52.5°F11.4°C 25.5°F-3.6°C 35% 4.0 mph WNW6.4 kmh WNW -- 30.21 in1023.0 mb 0.00 in0.0 mm 0.00 in0.0 mm 0.00 in0.0 mm
05:27 AM 52.5°F11.4°C 25.5°F-3.6°C 35% 4.0 mph 6.4 kmh -- 30.21 in1023.0 mb 0.00 in0.0 mm 0.00 in0.0 mm 0.00 in0.0 mm
05:28 AM 52.2°F11.2°C 25.1°F-3.8°C 35% 5.0 mph 8.0 kmh -- 30.21 in1023.0 mb 0.00 in0.0 mm 0.00 in0.0 mm 0.00 in0.0 mm
05:29 AM 51.8°F11.0°C 26.2°F-3.2°C 37% 5.0 mph 8.0 kmh -- 30.21 in1023.0 mb 0.00 in0.0 mm 0.00 in0.0 mm 0.00 in0.0 mm
05:30 AM 51.8°F11.0°C 26.2°F-3.2°C 37% 4.0 mph NNW6.4 kmh NNW -- 30.21 in1023.0 mb 0.00 in0.0 mm 0.00 in0.0 mm 0.00 in0.0 mm
05:31 AM 51.5°F10.8°C 25.8°F-3.4°C 37% 4.0 mph NNW6.4 kmh NNW -- 30.21 in1023.0 mb 0.00 in0.0 mm 0.00 in0.0 mm 0.00 in0.0 mm
05:32 AM 51.4°F10.8°C 25.8°F-3.4°C 37% 4.0 mph 6.4 kmh -- 30.21 in1023.0 mb 0.00 in0.0 mm 0.00 in0.0 mm 0.00 in0.0 mm
05:33 AM 51.3°F10.7°C 25.7°F-3.5°C 37% 5.0 mph NNW8.0 kmh NNW -- 30.22 in1023.4 mb 0.00 in0.0 mm 0.00 in0.0 mm 0.00 in0.0 mm
05:34 AM 51.0°F10.6°C 25.5°F-3.6°C 37% 5.0 mph 8.0 kmh -- 30.22 in1023.4 mb 0.00 in0.0 mm 0.00 in0.0 mm 0.00 in0.0 mm
05:35 AM 50.9°F10.5°C 25.4°F-3.7°C 37% 5.0 mph NNW8.0 kmh NNW -- 30.22 in1023.4 mb 0.00 in0.0 mm 0.00 in0.0 mm 0.00 in0.0 mm
05:36 AM 50.7°F10.4°C 25.2°F-3.8°C 37% 3.0 mph NW4.8 kmh NW -- 30.22 in1023.4 mb 0.00 in0.0 mm 0.00 in0.0 mm 0.00 in0.0 mm
05:37 AM 50.7°F10.4°C 26.5°F-3.1°C 39% 3.0 mph NNW4.8 kmh NNW -- 30.22 in1023.4 mb 0.00 in0.0 mm 0.00 in0.0 mm 0.00 in0.0 mm
05:38 AM 50.5°F10.3°C 26.3°F-3.2°C 39% 4.0 mph NW6.4 kmh NW -- 30.22 in1023.4 mb 0.00 in0.0 mm 0.00 in0.0 mm 0.00 in0.0 mm
05:39 AM 50.3°F10.2°C 26.1°F-3.3°C 39% 4.0 mph NNW6.4 kmh NNW -- 30.22 in1023.4 mb 0.00 in0.0 mm 0.00 in0.0 mm 0.00 in0.0 mm
05:40 AM 50.3°F10.2°C 26.1°F-3.3°C 39% 3.0 mph NW4.8 kmh NW -- 30.21 in1023.0 mb 0.00 in0.0 mm 0.00 in0.0 mm 0.00 in0.0 mm
05:41 AM 50.3°F10.2°C 26.1°F-3.3°C 39% 4.0 mph WNW6.4 kmh WNW -- 30.21 in1023.0 mb 0.00 in0.0 mm 0.00 in0.0 mm 0.00 in0.0 mm
05:42 AM 50.1°F10.1°C 26.0°F-3.3°C 39% 5.0 mph NNW8.0 kmh NNW -- 30.21 in1023.0 mb 0.00 in0.0 mm 0.00 in0.0 mm 0.00 in0.0 mm
05:43 AM 50.1°F10.1°C 26.0°F-3.3°C 39% 4.0 mph NNW6.4 kmh NNW -- 30.22 in1023.4 mb 0.00 in0.0 mm 0.00 in0.0 mm 0.00 in0.0 mm
05:44 AM 50.1°F10.1°C 26.0°F-3.3°C 39% 4.0 mph NW6.4 kmh NW -- 30.22 in1023.4 mb 0.00 in0.0 mm 0.00 in0.0 mm 0.00 in0.0 mm
05:45 AM 50.3°F10.2°C 26.1°F-3.3°C 39% 6.0 mph NW9.7 kmh NW -- 30.22 in1023.4 mb 0.00 in0.0 mm 0.00 in0.0 mm 0.00 in0.0 mm
05:46 AM 50.3°F10.2°C 26.1°F-3.3°C 39% 5.0 mph WNW8.0 kmh WNW -- 30.22 in1023.4 mb 0.00 in0.0 mm 0.00 in0.0 mm 0.00 in0.0 mm
05:47 AM 50.3°F10.2°C 24.9°F-3.9°C 37% 5.0 mph NW8.0 kmh NW -- 30.22 in1023.4 mb 0.00 in0.0 mm 0.00 in0.0 mm 0.00 in0.0 mm
05:48 AM 50.5°F10.3°C 25.0°F-3.9°C 37% 6.0 mph WNW9.7 kmh WNW -- 30.22 in1023.4 mb 0.00 in0.0 mm 0.00 in0.0 mm 0.00 in0.0 mm
05:49 AM 50.9°F10.5°C 25.4°F-3.7°C 37% 5.0 mph WNW8.0 kmh WNW -- 30.22 in1023.4 mb 0.00 in0.0 mm 0.00 in0.0 mm 0.00 in0.0 mm
05:50 AM 51.0°F10.6°C 25.5°F-3.6°C 37% 6.0 mph NW9.7 kmh NW -- 30.22 in1023.4 mb 0.00 in0.0 mm 0.00 in0.0 mm 0.00 in0.0 mm
05:51 AM 51.4°F10.8°C 24.5°F-4.2°C 35% 6.0 mph NW9.7 kmh NW -- 30.22 in1023.4 mb 0.00 in0.0 mm 0.00 in0.0 mm 0.00 in0.0 mm
05:52 AM 51.4°F10.8°C 24.5°F-4.2°C 35% 4.0 mph W6.4 kmh W -- 30.22 in1023.4 mb 0.00 in0.0 mm 0.00 in0.0 mm 0.00 in0.0 mm
05:53 AM 51.5°F10.8°C 24.5°F-4.2°C 35% 4.0 mph W6.4 kmh W -- 30.22 in1023.4 mb 0.00 in0.0 mm 0.00 in0.0 mm 0.00 in0.0 mm
05:54 AM 51.8°F11.0°C 24.8°F-4.0°C 35% 7.0 mph NW11.3 kmh NW -- 30.22 in1023.4 mb 0.00 in0.0 mm 0.00 in0.0 mm 0.00 in0.0 mm
05:55 AM 51.9°F11.1°C 25.0°F-3.9°C 35% 4.0 mph W6.4 kmh W -- 30.22 in1023.4 mb 0.00 in0.0 mm 0.00 in0.0 mm 0.00 in0.0 mm
05:56 AM 52.3°F11.3°C 25.3°F-3.7°C 35% 4.0 mph WNW6.4 kmh WNW -- 30.22 in1023.4 mb 0.00 in0.0 mm 0.00 in0.0 mm 0.00 in0.0 mm
05:57 AM 52.3°F11.3°C 25.3°F-3.7°C 35% 6.0 mph NW9.7 kmh NW -- 30.22 in1023.4 mb 0.00 in0.0 mm 0.00 in0.0 mm 0.00 in0.0 mm
05:58 AM 52.5°F11.4°C 25.5°F-3.6°C 35% 6.0 mph NW9.7 kmh NW -- 30.22 in1023.4 mb 0.00 in0.0 mm 0.00 in0.0 mm 0.00 in0.0 mm
05:59 AM 52.5°F11.4°C 25.5°F-3.6°C 35% 5.0 mph W8.0 kmh W -- 30.22 in1023.4 mb 0.00 in0.0 mm 0.00 in0.0 mm 0.00 in0.0 mm
06:00 AM 52.5°F11.4°C 25.5°F-3.6°C 35% 4.0 mph WNW6.4 kmh WNW -- 30.22 in1023.4 mb 0.00 in0.0 mm 0.00 in0.0 mm 0.00 in0.0 mm
06:01 AM 52.6°F11.4°C 25.5°F-3.6°C 35% 4.0 mph W6.4 kmh W -- 30.22 in1023.4 mb 0.00 in0.0 mm 0.00 in0.0 mm 0.00 in0.0 mm
06:02 AM 52.6°F11.4°C 25.5°F-3.6°C 35% 4.0 mph WNW6.4 kmh WNW -- 30.22 in1023.4 mb 0.00 in0.0 mm 0.00 in0.0 mm 0.00 in0.0 mm
06:03 AM 52.6°F11.4°C 25.5°F-3.6°C 35% 4.0 mph W6.4 kmh W -- 30.22 in1023.4 mb 0.00 in0.0 mm 0.00 in0.0 mm 0.00 in0.0 mm
06:04 AM 52.8°F11.6°C 25.8°F-3.4°C 35% 5.0 mph NW8.0 kmh NW -- 30.22 in1023.4 mb 0.00 in0.0 mm 0.00 in0.0 mm 0.00 in0.0 mm
06:05 AM 52.8°F11.6°C 25.8°F-3.4°C 35% 4.0 mph NNW6.4 kmh NNW -- 30.22 in1023.4 mb 0.00 in0.0 mm 0.00 in0.0 mm 0.00 in0.0 mm
06:06 AM 52.8°F11.6°C 25.8°F-3.4°C 35% 4.0 mph WNW6.4 kmh WNW -- 30.22 in1023.4 mb 0.00 in0.0 mm 0.00 in0.0 mm 0.00 in0.0 mm
06:07 AM 52.8°F11.6°C 25.8°F-3.4°C 35% 5.0 mph NW8.0 kmh NW -- 30.22 in1023.4 mb 0.00 in0.0 mm 0.00 in0.0 mm 0.00 in0.0 mm
06:08 AM 52.8°F11.6°C 25.8°F-3.4°C 35% 4.0 mph NW6.4 kmh NW -- 30.22 in1023.4 mb 0.00 in0.0 mm 0.00 in0.0 mm 0.00 in0.0 mm
06:09 AM 53.1°F11.7°C 25.9°F-3.4°C 35% 5.0 mph W8.0 kmh W -- 30.22 in1023.4 mb 0.00 in0.0 mm 0.00 in0.0 mm 0.00 in0.0 mm
06:10 AM 53.2°F11.8°C 26.1°F-3.3°C 35% 5.0 mph NNW8.0 kmh NNW -- 30.22 in1023.4 mb 0.00 in0.0 mm 0.00 in0.0 mm 0.00 in0.0 mm
06:11 AM 53.2°F11.8°C 26.1°F-3.3°C 35% 4.0 mph WNW6.4 kmh WNW -- 30.22 in1023.4 mb 0.00 in0.0 mm 0.00 in0.0 mm 0.00 in0.0 mm
06:12 AM 53.2°F11.8°C 26.1°F-3.3°C 35% 4.0 mph NW6.4 kmh NW -- 30.22 in1023.4 mb 0.00 in0.0 mm 0.00 in0.0 mm 0.00 in0.0 mm
06:13 AM 53.4°F11.9°C 26.3°F-3.2°C 35% 4.0 mph WNW6.4 kmh WNW -- 30.22 in1023.4 mb 0.00 in0.0 mm 0.00 in0.0 mm 0.00 in0.0 mm
06:15 AM 53.4°F11.9°C 26.3°F-3.2°C 35% 4.0 mph W6.4 kmh W -- 30.22 in1023.4 mb 0.00 in0.0 mm 0.00 in0.0 mm 0.00 in0.0 mm
06:16 AM 53.4°F11.9°C 26.3°F-3.2°C 35% 4.0 mph NW6.4 kmh NW -- 30.22 in1023.4 mb 0.00 in0.0 mm 0.00 in0.0 mm 0.00 in0.0 mm
06:17 AM 53.4°F11.9°C 26.3°F-3.2°C 35% 4.0 mph W6.4 kmh W -- 30.22 in1023.4 mb 0.00 in0.0 mm 0.00 in0.0 mm 0.00 in0.0 mm
06:18 AM 53.5°F11.9°C 26.3°F-3.2°C 35% 4.0 mph NW6.4 kmh NW -- 30.22 in1023.4 mb 0.00 in0.0 mm 0.00 in0.0 mm 0.00 in0.0 mm
06:19 AM 53.5°F11.9°C 26.3°F-3.2°C 35% 4.0 mph WNW6.4 kmh WNW -- 30.22 in1023.4 mb 0.00 in0.0 mm 0.00 in0.0 mm 0.00 in0.0 mm
06:20 AM 53.5°F11.9°C 26.3°F-3.2°C 35% 4.0 mph NW6.4 kmh NW -- 30.22 in1023.4 mb 0.00 in0.0 mm 0.00 in0.0 mm 0.00 in0.0 mm
06:21 AM 53.5°F11.9°C 26.3°F-3.2°C 35% 5.0 mph WNW8.0 kmh WNW -- 30.22 in1023.4 mb 0.00 in0.0 mm 0.00 in0.0 mm 0.00 in0.0 mm
06:23 AM 53.8°F12.1°C 26.6°F-3.0°C 35% 3.0 mph NW4.8 kmh NW -- 30.22 in1023.4 mb 0.00 in0.0 mm 0.00 in0.0 mm 0.00 in0.0 mm
06:24 AM 54.0°F12.2°C 26.7°F-2.9°C 35% 6.0 mph NW9.7 kmh NW -- 30.22 in1023.4 mb 0.00 in0.0 mm 0.00 in0.0 mm 0.00 in0.0 mm
06:25 AM 54.0°F12.2°C 26.7°F-2.9°C 35% 5.0 mph NW8.0 kmh NW -- 30.22 in1023.4 mb 0.00 in0.0 mm 0.00 in0.0 mm 0.00 in0.0 mm
06:26 AM 54.0°F12.2°C 26.7°F-2.9°C 35% 5.0 mph W8.0 kmh W -- 30.22 in1023.4 mb 0.00 in0.0 mm 0.00 in0.0 mm 0.00 in0.0 mm
06:27 AM 54.0°F12.2°C 26.7°F-2.9°C 35% 4.0 mph NW6.4 kmh NW -- 30.22 in1023.4 mb 0.00 in0.0 mm 0.00 in0.0 mm 0.00 in0.0 mm
06:28 AM 54.0°F12.2°C 26.7°F-2.9°C 35% 3.0 mph NW4.8 kmh NW -- 30.22 in1023.4 mb 0.00 in0.0 mm 0.00 in0.0 mm 0.00 in0.0 mm
06:29 AM 54.0°F12.2°C 26.7°F-2.9°C 35% 4.0 mph NNW6.4 kmh NNW -- 30.22 in1023.4 mb 0.00 in0.0 mm 0.00 in0.0 mm 0.00 in0.0 mm
06:30 AM 54.0°F12.2°C 26.7°F-2.9°C 35% 3.0 mph WNW4.8 kmh WNW -- 30.22 in1023.4 mb 0.00 in0.0 mm 0.00 in0.0 mm 0.00 in0.0 mm
06:31 AM 54.0°F12.2°C 26.7°F-2.9°C 35% 3.0 mph NW4.8 kmh NW -- 30.22 in1023.4 mb 0.00 in0.0 mm 0.00 in0.0 mm 0.00 in0.0 mm
06:32 AM 54.0°F12.2°C 26.7°F-2.9°C 35% 4.0 mph NNW6.4 kmh NNW -- 30.22 in1023.4 mb 0.00 in0.0 mm 0.00 in0.0 mm 0.00 in0.0 mm
06:33 AM 54.2°F12.3°C 26.9°F-2.8°C 35% 6.0 mph WNW9.7 kmh WNW -- 30.23 in1023.7 mb 0.00 in0.0 mm 0.00 in0.0 mm 0.00 in0.0 mm
06:34 AM 54.2°F12.3°C 26.9°F-2.8°C 35% 4.0 mph NNW6.4 kmh NNW -- 30.23 in1023.7 mb 0.00 in0.0 mm 0.00 in0.0 mm 0.00 in0.0 mm
06:35 AM 54.2°F12.3°C 26.9°F-2.8°C 35% 4.0 mph NW6.4 kmh NW -- 30.23 in1023.7 mb 0.00 in0.0 mm 0.00 in0.0 mm 0.00 in0.0 mm
06:36 AM 54.4°F12.4°C 27.1°F-2.7°C 35% 5.0 mph NNW8.0 kmh NNW -- 30.23 in1023.7 mb 0.00 in0.0 mm 0.00 in0.0 mm 0.00 in0.0 mm
06:37 AM 54.4°F12.4°C 27.1°F-2.7°C 35% 4.0 mph NW6.4 kmh NW -- 30.22 in1023.4 mb 0.00 in0.0 mm 0.00 in0.0 mm 0.00 in0.0 mm
06:38 AM 54.7°F12.6°C 27.4°F-2.6°C 35% 4.0 mph NNW6.4 kmh NNW -- 30.22 in1023.4 mb 0.00 in0.0 mm 0.00 in0.0 mm 0.00 in0.0 mm
06:39 AM 54.7°F12.6°C 27.4°F-2.6°C 35% 4.0 mph WNW6.4 kmh WNW -- 30.22 in1023.4 mb 0.00 in0.0 mm 0.00 in0.0 mm 0.00 in0.0 mm
06:40 AM 54.7°F12.6°C 27.4°F-2.6°C 35% 4.0 mph W6.4 kmh W -- 30.22 in1023.4 mb 0.00 in0.0 mm 0.00 in0.0 mm 0.00 in0.0 mm
06:41 AM 54.7°F12.6°C 27.4°F-2.6°C 35% 3.0 mph NW4.8 kmh NW -- 30.22 in1023.4 mb 0.00 in0.0 mm 0.00 in0.0 mm 0.00 in0.0 mm
06:42 AM 54.7°F12.6°C 27.4°F-2.6°C 35% 4.0 mph WNW6.4 kmh WNW -- 30.22 in1023.4 mb 0.00 in0.0 mm 0.00 in0.0 mm 0.00 in0.0 mm
06:43 AM 54.9°F12.7°C 27.5°F-2.5°C 35% 4.0 mph NW6.4 kmh NW -- 30.22 in1023.4 mb 0.00 in0.0 mm 0.00 in0.0 mm 0.00 in0.0 mm
06:44 AM 54.9°F12.7°C 27.5°F-2.5°C 35% 3.0 mph W4.8 kmh W -- 30.22 in1023.4 mb 0.00 in0.0 mm 0.00 in0.0 mm 0.00 in0.0 mm
06:45 AM 55.0°F12.8°C 27.7°F-2.4°C 35% 4.0 mph NNW6.4 kmh NNW -- 30.22 in1023.4 mb 0.00 in0.0 mm 0.00 in0.0 mm 0.00 in0.0 mm
06:46 AM 55.0°F12.8°C 27.7°F-2.4°C 35% 4.0 mph WNW6.4 kmh WNW -- 30.22 in1023.4 mb 0.00 in0.0 mm 0.00 in0.0 mm 0.00 in0.0 mm
06:47 AM 55.0°F12.8°C 27.7°F-2.4°C 35% 4.0 mph NW6.4 kmh NW -- 30.23 in1023.7 mb 0.00 in0.0 mm 0.00 in0.0 mm 0.00 in0.0 mm
06:48 AM 55.0°F12.8°C 27.7°F-2.4°C 35% 4.0 mph NNE6.4 kmh NNE -- 30.23 in1023.7 mb 0.00 in0.0 mm 0.00 in0.0 mm 0.00 in0.0 mm
06:49 AM 55.1°F12.8°C 27.7°F-2.4°C 35% 4.0 mph WNW6.4 kmh WNW -- 30.22 in1023.4 mb 0.00 in0.0 mm 0.00 in0.0 mm 0.00 in0.0 mm
06:50 AM 55.3°F12.9°C 27.9°F-2.3°C 35% 3.0 mph WNW4.8 kmh WNW -- 30.22 in1023.4 mb 0.00 in0.0 mm 0.00 in0.0 mm 0.00 in0.0 mm
06:51 AM 55.5°F13.1°C 28.2°F-2.1°C 35% 4.0 mph NW6.4 kmh NW -- 30.22 in1023.4 mb 0.00 in0.0 mm 0.00 in0.0 mm 0.00 in0.0 mm
06:52 AM 55.7°F13.2°C 28.3°F-2.1°C 35% 6.0 mph W9.7 kmh W -- 30.22 in1023.4 mb 0.00 in0.0 mm 0.00 in0.0 mm 0.00 in0.0 mm
06:53 AM 55.9°F13.3°C 28.5°F-1.9°C 35% 3.0 mph WNW4.8 kmh WNW -- 30.22 in1023.4 mb 0.00 in0.0 mm 0.00 in0.0 mm 0.00 in0.0 mm
06:54 AM 56.0°F13.3°C 28.5°F-1.9°C 35% 3.0 mph W4.8 kmh W -- 30.22 in1023.4 mb 0.00 in0.0 mm 0.00 in0.0 mm 0.00 in0.0 mm
06:55 AM 56.5°F13.6°C 29.0°F-1.7°C 35% 3.0 mph WNW4.8 kmh WNW -- 30.22 in1023.4 mb 0.00 in0.0 mm 0.00 in0.0 mm 0.00 in0.0 mm
06:56 AM 56.7°F13.7°C 29.1°F-1.6°C 35% 3.0 mph NW4.8 kmh NW -- 30.22 in1023.4 mb 0.00 in0.0 mm 0.00 in0.0 mm 0.00 in0.0 mm
06:57 AM 57.2°F14.0°C 29.6°F-1.3°C 35% 3.0 mph W4.8 kmh W -- 30.22 in1023.4 mb 0.00 in0.0 mm 0.00 in0.0 mm 0.00 in0.0 mm
06:58 AM 57.7°F14.3°C 30.1°F-1.1°C 35% 3.0 mph W4.8 kmh W -- 30.23 in1023.7 mb 0.00 in0.0 mm 0.00 in0.0 mm 0.00 in0.0 mm
06:59 AM 58.0°F14.4°C 30.3°F-0.9°C 35% 4.0 mph W6.4 kmh W -- 30.22 in1023.4 mb 0.00 in0.0 mm 0.00 in0.0 mm 0.00 in0.0 mm
07:00 AM 58.2°F14.6°C 30.6°F-0.8°C 35% 4.0 mph WNW6.4 kmh WNW -- 30.22 in1023.4 mb 0.00 in0.0 mm 0.00 in0.0 mm 0.00 in0.0 mm
07:01 AM 58.5°F14.7°C 30.7°F-0.7°C 35% 5.0 mph NW8.0 kmh NW -- 30.23 in1023.7 mb 0.00 in0.0 mm 0.00 in0.0 mm 0.00 in0.0 mm
07:02 AM 59.0°F15.0°C 31.2°F-0.4°C 35% 5.0 mph NW8.0 kmh NW -- 30.23 in1023.7 mb 0.00 in0.0 mm 0.00 in0.0 mm 0.00 in0.0 mm
07:03 AM 59.0°F15.0°C 31.2°F-0.4°C 35% 5.0 mph NNW8.0 kmh NNW -- 30.22 in1023.4 mb 0.00 in0.0 mm 0.00 in0.0 mm 0.00 in0.0 mm
07:04 AM 59.3°F15.2°C 31.5°F-0.3°C 35% 4.0 mph 6.4 kmh -- 30.22 in1023.4 mb 0.00 in0.0 mm 0.00 in0.0 mm 0.00 in0.0 mm
07:05 AM 59.3°F15.2°C 31.5°F-0.3°C 35% 5.0 mph NNW8.0 kmh NNW -- 30.22 in1023.4 mb 0.00 in0.0 mm 0.00 in0.0 mm 0.00 in0.0 mm
07:06 AM 59.7°F15.4°C 31.1°F-0.5°C 34% 7.0 mph NW11.3 kmh NW -- 30.22 in1023.4 mb 0.00 in0.0 mm 0.00 in0.0 mm 0.00 in0.0 mm
07:07 AM 60.0°F15.6°C 31.5°F-0.3°C 34% 5.0 mph WNW8.0 kmh WNW -- 30.22 in1023.4 mb 0.00 in0.0 mm 0.00 in0.0 mm 0.00 in0.0 mm
07:08 AM 60.2°F15.7°C 30.1°F-1.1°C 32% 4.0 mph NNW6.4 kmh NNW -- 30.22 in1023.4 mb 0.00 in0.0 mm 0.00 in0.0 mm 0.00 in0.0 mm
07:09 AM 60.5°F15.8°C 29.5°F-1.4°C 31% 4.0 mph NNW6.4 kmh NNW -- 30.22 in1023.4 mb 0.00 in0.0 mm 0.00 in0.0 mm 0.00 in0.0 mm
07:11 AM 60.7°F15.9°C 29.7°F-1.3°C 31% 6.0 mph NNW9.7 kmh NNW -- 30.22 in1023.4 mb 0.00 in0.0 mm 0.00 in0.0 mm 0.00 in0.0 mm
07:12 AM 60.7°F15.9°C 29.7°F-1.3°C 31% 5.0 mph NNW8.0 kmh NNW -- 30.22 in1023.4 mb 0.00 in0.0 mm 0.00 in0.0 mm 0.00 in0.0 mm
07:13 AM 60.7°F15.9°C 29.7°F-1.3°C 31% 4.0 mph WNW6.4 kmh WNW -- 30.22 in1023.4 mb 0.00 in0.0 mm 0.00 in0.0 mm 0.00 in0.0 mm
07:14 AM 60.7°F15.9°C 29.7°F-1.3°C 31% 5.0 mph NNW8.0 kmh NNW -- 30.23 in1023.7 mb 0.00 in0.0 mm 0.00 in0.0 mm 0.00 in0.0 mm
07:15 AM 61.0°F16.1°C 30.0°F-1.1°C 31% 4.0 mph 6.4 kmh -- 30.22 in1023.4 mb 0.00 in0.0 mm 0.00 in0.0 mm 0.00 in0.0 mm
07:16 AM 61.0°F16.1°C 30.0°F-1.1°C 31% 5.0 mph WNW8.0 kmh WNW -- 30.22 in1023.4 mb 0.00 in0.0 mm 0.00 in0.0 mm 0.00 in0.0 mm
07:17 AM 61.0°F16.1°C 30.0°F-1.1°C 31% 4.0 mph NW6.4 kmh NW -- 30.22 in1023.4 mb 0.00 in0.0 mm 0.00 in0.0 mm 0.00 in0.0 mm
07:18 AM 61.1°F16.2°C 30.9°F-0.6°C 32% 5.0 mph NW8.0 kmh NW -- 30.22 in1023.4 mb 0.00 in0.0 mm 0.00 in0.0 mm 0.00 in0.0 mm
07:19 AM 61.3°F16.3°C 31.1°F-0.5°C 32% 6.0 mph NNE9.7 kmh NNE -- 30.22 in1023.4 mb 0.00 in0.0 mm 0.00 in0.0 mm 0.00 in0.0 mm
07:20 AM 61.3°F16.3°C 30.3°F-0.9°C 31% 6.0 mph NW9.7 kmh NW -- 30.22 in1023.4 mb 0.00 in0.0 mm 0.00 in0.0 mm 0.00 in0.0 mm
07:21 AM 61.3°F16.3°C 30.3°F-0.9°C 31% 5.0 mph 8.0 kmh -- 30.22 in1023.4 mb 0.00 in0.0 mm 0.00 in0.0 mm 0.00 in0.0 mm
07:22 AM 61.3°F16.3°C 30.3°F-0.9°C 31% 7.0 mph NNE11.3 kmh NNE -- 30.23 in1023.7 mb 0.00 in0.0 mm 0.00 in0.0 mm 0.00 in0.0 mm
07:23 AM 61.3°F16.3°C 30.3°F-0.9°C 31% 6.0 mph NNW9.7 kmh NNW -- 30.23 in1023.7 mb 0.00 in0.0 mm 0.00 in0.0 mm 0.00 in0.0 mm
07:24 AM 61.3°F16.3°C 30.3°F-0.9°C 31% 6.0 mph 9.7 kmh -- 30.23 in1023.7 mb 0.00 in0.0 mm 0.00 in0.0 mm 0.00 in0.0 mm
07:25 AM 61.1°F16.2°C 30.9°F-0.6°C 32% 7.0 mph NNW11.3 kmh NNW -- 30.23 in1023.7 mb 0.00 in0.0 mm 0.00 in0.0 mm 0.00 in0.0 mm
07:26 AM 61.0°F16.1°C 30.8°F-0.7°C 32% 8.0 mph NNW12.9 kmh NNW -- 30.23 in1023.7 mb 0.00 in0.0 mm 0.00 in0.0 mm 0.00 in0.0 mm
07:27 AM 61.1°F16.2°C 30.9°F-0.6°C 32% 9.0 mph NW14.5 kmh NW -- 30.23 in1023.7 mb 0.00 in0.0 mm 0.00 in0.0 mm 0.00 in0.0 mm
07:28 AM 61.0°F16.1°C 30.8°F-0.7°C 32% 8.0 mph NNW12.9 kmh NNW -- 30.23 in1023.7 mb 0.00 in0.0 mm 0.00 in0.0 mm 0.00 in0.0 mm
07:29 AM 61.0°F16.1°C 30.0°F-1.1°C 31% 7.0 mph NNW11.3 kmh NNW -- 30.23 in1023.7 mb 0.00 in0.0 mm 0.00 in0.0 mm 0.00 in0.0 mm
07:30 AM 61.0°F16.1°C 30.8°F-0.7°C 32% 6.0 mph NNW9.7 kmh NNW -- 30.23 in1023.7 mb 0.00 in0.0 mm 0.00 in0.0 mm 0.00 in0.0 mm
07:31 AM 61.0°F16.1°C 30.8°F-0.7°C 32% 6.0 mph 9.7 kmh -- 30.23 in1023.7 mb 0.00 in0.0 mm 0.00 in0.0 mm 0.00 in0.0 mm
07:32 AM 61.0°F16.1°C 30.8°F-0.7°C 32% 7.0 mph 11.3 kmh -- 30.23 in1023.7 mb 0.00 in0.0 mm 0.00 in0.0 mm 0.00 in0.0 mm
07:33 AM 61.0°F16.1°C 30.8°F-0.7°C 32% 9.0 mph NW14.5 kmh NW -- 30.23 in1023.7 mb 0.00 in0.0 mm 0.00 in0.0 mm 0.00 in0.0 mm
07:34 AM 61.0°F16.1°C 30.8°F-0.7°C 32% 7.0 mph 11.3 kmh -- 30.23 in1023.7 mb 0.00 in0.0 mm 0.00 in0.0 mm 0.00 in0.0 mm
07:35 AM 61.0°F16.1°C 30.8°F-0.7°C 32% 7.0 mph NNW11.3 kmh NNW -- 30.23 in1023.7 mb 0.00 in0.0 mm 0.00 in0.0 mm 0.00 in0.0 mm
07:36 AM 61.0°F16.1°C 30.8°F-0.7°C 32% 8.0 mph NW12.9 kmh NW -- 30.23 in1023.7 mb 0.00 in0.0 mm 0.00 in0.0 mm 0.00 in0.0 mm
07:37 AM 61.1°F16.2°C 30.9°F-0.6°C 32% 7.0 mph 11.3 kmh -- 30.23 in1023.7 mb 0.00 in0.0 mm 0.00 in0.0 mm 0.00 in0.0 mm
07:38 AM 61.3°F16.3°C 31.1°F-0.5°C 32% 6.0 mph NNW9.7 kmh NNW -- 30.23 in1023.7 mb 0.00 in0.0 mm 0.00 in0.0 mm 0.00 in0.0 mm
07:39 AM 61.3°F16.3°C 31.1°F-0.5°C 32% 9.0 mph 14.5 kmh -- 30.23 in1023.7 mb 0.00 in0.0 mm 0.00 in0.0 mm 0.00 in0.0 mm
07:40 AM 61.3°F16.3°C 31.1°F-0.5°C 32% 6.0 mph 9.7 kmh -- 30.23 in1023.7 mb 0.00 in0.0 mm 0.00 in0.0 mm 0.00 in0.0 mm
07:41 AM 61.3°F16.3°C 31.1°F-0.5°C 32% 6.0 mph NNW9.7 kmh NNW -- 30.23 in1023.7 mb 0.00 in0.0 mm 0.00 in0.0 mm 0.00 in0.0 mm
07:42 AM 61.3°F16.3°C 31.1°F-0.5°C 32% 6.0 mph NW9.7 kmh NW -- 30.23 in1023.7 mb 0.00 in0.0 mm 0.00 in0.0 mm 0.00 in0.0 mm
07:43 AM 61.3°F16.3°C 32.6°F0.3°C 34% 7.0 mph 11.3 kmh -- 30.23 in1023.7 mb 0.00 in0.0 mm 0.00 in0.0 mm 0.00 in0.0 mm
07:44 AM 61.7°F16.5°C 32.9°F0.5°C 34% 7.0 mph NW11.3 kmh NW -- 30.23 in1023.7 mb 0.00 in0.0 mm 0.00 in0.0 mm 0.00 in0.0 mm
07:45 AM 61.9°F16.6°C 33.1°F0.6°C 34% 8.0 mph 12.9 kmh -- 30.23 in1023.7 mb 0.00 in0.0 mm 0.00 in0.0 mm 0.00 in0.0 mm
07:46 AM 61.9°F16.6°C 33.1°F0.6°C 34% 5.0 mph NNW8.0 kmh NNW -- 30.23 in1023.7 mb 0.00 in0.0 mm 0.00 in0.0 mm 0.00 in0.0 mm
07:47 AM 61.9°F16.6°C 33.1°F0.6°C 34% 7.0 mph NW11.3 kmh NW -- 30.23 in1023.7 mb 0.00 in0.0 mm 0.00 in0.0 mm 0.00 in0.0 mm
07:48 AM 62.1°F16.7°C 33.2°F0.7°C 34% 6.0 mph 9.7 kmh -- 30.23 in1023.7 mb 0.00 in0.0 mm 0.00 in0.0 mm 0.00 in0.0 mm
07:49 AM 62.2°F16.8°C 34.1°F1.2°C 35% 7.0 mph WNW11.3 kmh WNW -- 30.23 in1023.7 mb 0.00 in0.0 mm 0.00 in0.0 mm 0.00 in0.0 mm
07:50 AM 62.4°F16.9°C 33.5°F0.8°C 34% 8.0 mph 12.9 kmh -- 30.23 in1023.7 mb 0.00 in0.0 mm 0.00 in0.0 mm 0.00 in0.0 mm
07:51 AM 62.5°F16.9°C 32.0°F0.0°C 32% 5.0 mph NNW8.0 kmh NNW -- 30.23 in1023.7 mb 0.00 in0.0 mm 0.00 in0.0 mm 0.00 in0.0 mm
07:52 AM 62.7°F17.1°C 32.3°F0.2°C 32% 6.0 mph W9.7 kmh W -- 30.23 in1023.7 mb 0.00 in0.0 mm 0.00 in0.0 mm 0.00 in0.0 mm
07:53 AM 63.0°F17.2°C 31.7°F-0.2°C 31% 9.0 mph NNW14.5 kmh NNW -- 30.23 in1023.7 mb 0.00 in0.0 mm 0.00 in0.0 mm 0.00 in0.0 mm
07:54 AM 63.0°F17.2°C 30.9°F-0.6°C 30% 5.0 mph 8.0 kmh -- 30.23 in1023.7 mb 0.00 in0.0 mm 0.00 in0.0 mm 0.00 in0.0 mm
07:55 AM 63.4°F17.4°C 31.2°F-0.4°C 30% 7.0 mph 11.3 kmh -- 30.23 in1023.7 mb 0.00 in0.0 mm 0.00 in0.0 mm 0.00 in0.0 mm
07:56 AM 63.4°F17.4°C 31.2°F-0.4°C 30% 8.0 mph 12.9 kmh -- 30.23 in1023.7 mb 0.00 in0.0 mm 0.00 in0.0 mm 0.00 in0.0 mm
07:57 AM 63.6°F17.6°C 31.5°F-0.3°C 30% 6.0 mph 9.7 kmh -- 30.23 in1023.7 mb 0.00 in0.0 mm 0.00 in0.0 mm 0.00 in0.0 mm
07:58 AM 63.9°F17.7°C 31.7°F-0.2°C 30% 9.0 mph NNE14.5 kmh NNE -- 30.23 in1023.7 mb 0.00 in0.0 mm 0.00 in0.0 mm 0.00 in0.0 mm
07:59 AM 63.9°F17.7°C 31.7°F-0.2°C 30% 8.0 mph NNE12.9 kmh NNE -- 30.23 in1023.7 mb 0.00 in0.0 mm 0.00 in0.0 mm 0.00 in0.0 mm
08:00 AM 64.1°F17.8°C 31.8°F-0.1°C 30% 8.0 mph NNW12.9 kmh NNW -- 30.23 in1023.7 mb 0.00 in0.0 mm 0.00 in0.0 mm 0.00 in0.0 mm
08:01 AM 64.4°F18.0°C 32.2°F0.1°C 30% 6.0 mph NW9.7 kmh NW -- 30.22 in1023.4 mb 0.00 in0.0 mm 0.00 in0.0 mm 0.00 in0.0 mm
08:02 AM 64.6°F18.1°C 32.3°F0.2°C 30% 6.0 mph NNW9.7 kmh NNW -- 30.23 in1023.7 mb 0.00 in0.0 mm 0.00 in0.0 mm 0.00 in0.0 mm
08:03 AM 64.8°F18.2°C 32.5°F0.3°C 30% 8.0 mph NNW12.9 kmh NNW -- 30.22 in1023.4 mb 0.00 in0.0 mm 0.00 in0.0 mm 0.00 in0.0 mm
08:05 AM 64.8°F18.2°C 32.5°F0.3°C 30% 10.0 mph 16.1 kmh -- 30.23 in1023.7 mb 0.00 in0.0 mm 0.00 in0.0 mm 0.00 in0.0 mm
08:06 AM 64.8°F18.2°C 32.5°F0.3°C 30% 7.0 mph NNE11.3 kmh NNE -- 30.23 in1023.7 mb 0.00 in0.0 mm 0.00 in0.0 mm 0.00 in0.0 mm
08:07 AM 64.8°F18.2°C 32.5°F0.3°C 30% 7.0 mph NE11.3 kmh NE -- 30.23 in1023.7 mb 0.00 in0.0 mm 0.00 in0.0 mm 0.00 in0.0 mm
08:08 AM 64.9°F18.3°C 32.6°F0.3°C 30% 9.0 mph WNW14.5 kmh WNW -- 30.23 in1023.7 mb 0.00 in0.0 mm 0.00 in0.0 mm 0.00 in0.0 mm
08:09 AM 65.0°F18.3°C 31.8°F-0.1°C 29% 9.0 mph NNW14.5 kmh NNW -- 30.23 in1023.7 mb 0.00 in0.0 mm 0.00 in0.0 mm 0.00 in0.0 mm
08:10 AM 65.0°F18.3°C 31.8°F-0.1°C 29% 10.0 mph NNW16.1 kmh NNW -- 30.23 in1023.7 mb 0.00 in0.0 mm 0.00 in0.0 mm 0.00 in0.0 mm
08:11 AM 65.0°F18.3°C 30.0°F-1.1°C 27% 9.0 mph NNW14.5 kmh NNW -- 30.22 in1023.4 mb 0.00 in0.0 mm 0.00 in0.0 mm 0.00 in0.0 mm
08:12 AM 65.2°F18.4°C 31.9°F-0.1°C 29% 6.0 mph WNW9.7 kmh WNW -- 30.22 in1023.4 mb 0.00 in0.0 mm 0.00 in0.0 mm 0.00 in0.0 mm
08:13 AM 65.2°F18.4°C 31.9°F-0.1°C 29% 7.0 mph 11.3 kmh -- 30.22 in1023.4 mb 0.00 in0.0 mm 0.00 in0.0 mm 0.00 in0.0 mm
08:14 AM 65.2°F18.4°C 31.9°F-0.1°C 29% 6.0 mph NNW9.7 kmh NNW -- 30.23 in1023.7 mb 0.00 in0.0 mm 0.00 in0.0 mm 0.00 in0.0 mm
08:15 AM 65.2°F18.4°C 31.9°F-0.1°C 29% 10.0 mph 16.1 kmh -- 30.23 in1023.7 mb 0.00 in0.0 mm 0.00 in0.0 mm 0.00 in0.0 mm
08:16 AM 64.9°F18.3°C 31.8°F-0.1°C 29% 8.0 mph NNW12.9 kmh NNW -- 30.23 in1023.7 mb 0.00 in0.0 mm 0.00 in0.0 mm 0.00 in0.0 mm
08:17 AM 64.8°F18.2°C 31.6°F-0.2°C 29% 12.0 mph NNW19.3 kmh NNW -- 30.23 in1023.7 mb 0.00 in0.0 mm 0.00 in0.0 mm 0.00 in0.0 mm
08:18 AM 64.6°F18.1°C 31.5°F-0.3°C 29% 8.0 mph 12.9 kmh -- 30.23 in1023.7 mb 0.00 in0.0 mm 0.00 in0.0 mm 0.00 in0.0 mm
08:19 AM 64.1°F17.8°C 31.0°F-0.6°C 29% 10.0 mph NW16.1 kmh NW -- 30.23 in1023.7 mb 0.00 in0.0 mm 0.00 in0.0 mm 0.00 in0.0 mm
08:20 AM 64.1°F17.8°C 31.8°F-0.1°C 30% 7.0 mph NNE11.3 kmh NNE -- 30.23 in1023.7 mb 0.00 in0.0 mm 0.00 in0.0 mm 0.00 in0.0 mm
08:21 AM 63.9°F17.7°C 31.7°F-0.2°C 30% 9.0 mph NNE14.5 kmh NNE -- 30.23 in1023.7 mb 0.00 in0.0 mm 0.00 in0.0 mm 0.00 in0.0 mm
08:22 AM 63.9°F17.7°C 30.8°F-0.7°C 29% 9.0 mph NW14.5 kmh NW -- 30.23 in1023.7 mb 0.00 in0.0 mm 0.00 in0.0 mm 0.00 in0.0 mm
08:23 AM 63.9°F17.7°C 31.7°F-0.2°C 30% 5.0 mph 8.0 kmh -- 30.23 in1023.7 mb 0.00 in0.0 mm 0.00 in0.0 mm 0.00 in0.0 mm
08:24 AM 63.6°F17.6°C 31.5°F-0.3°C 30% 9.0 mph NNW14.5 kmh NNW -- 30.23 in1023.7 mb 0.00 in0.0 mm 0.00 in0.0 mm 0.00 in0.0 mm
08:25 AM 63.6°F17.6°C 30.7°F-0.7°C 29% 11.0 mph NNW17.7 kmh NNW -- 30.23 in1023.7 mb 0.00 in0.0 mm 0.00 in0.0 mm 0.00 in0.0 mm
08:26 AM 63.6°F17.6°C 30.7°F-0.7°C 29% 10.0 mph NNE16.1 kmh NNE -- 30.23 in1023.7 mb 0.00 in0.0 mm 0.00 in0.0 mm 0.00 in0.0 mm
08:27 AM 63.6°F17.6°C 31.5°F-0.3°C 30% 5.0 mph NW8.0 kmh NW -- 30.23 in1023.7 mb 0.00 in0.0 mm 0.00 in0.0 mm 0.00 in0.0 mm
08:28 AM 63.6°F17.6°C 30.7°F-0.7°C 29% 10.0 mph NNW16.1 kmh NNW -- 30.23 in1023.7 mb 0.00 in0.0 mm 0.00 in0.0 mm 0.00 in0.0 mm
08:29 AM 63.6°F17.6°C 30.7°F-0.7°C 29% 6.0 mph NNW9.7 kmh NNW -- 30.23 in1023.7 mb 0.00 in0.0 mm 0.00 in0.0 mm 0.00 in0.0 mm
08:30 AM 63.6°F17.6°C 31.5°F-0.3°C 30% 6.0 mph 9.7 kmh -- 30.23 in1023.7 mb 0.00 in0.0 mm 0.00 in0.0 mm 0.00 in0.0 mm
08:31 AM 63.9°F17.7°C 30.8°F-0.7°C 29% 8.0 mph NW12.9 kmh NW -- 30.23 in1023.7 mb 0.00 in0.0 mm 0.00 in0.0 mm 0.00 in0.0 mm
08:32 AM 64.1°F17.8°C 29.2°F-1.6°C 27% 10.0 mph NNE16.1 kmh NNE -- 30.23 in1023.7 mb 0.00 in0.0 mm 0.00 in0.0 mm 0.00 in0.0 mm
08:33 AM 64.6°F18.1°C 29.7°F-1.3°C 27% 8.0 mph 12.9 kmh -- 30.23 in1023.7 mb 0.00 in0.0 mm 0.00 in0.0 mm 0.00 in0.0 mm
08:34 AM 64.6°F18.1°C 29.7°F-1.3°C 27% 13.0 mph WNW20.9 kmh WNW -- 30.23 in1023.7 mb 0.00 in0.0 mm 0.00 in0.0 mm 0.00 in0.0 mm
08:35 AM 64.6°F18.1°C 29.7°F-1.3°C 27% 12.0 mph NNE19.3 kmh NNE -- 30.23 in1023.7 mb 0.00 in0.0 mm 0.00 in0.0 mm 0.00 in0.0 mm
08:36 AM 64.6°F18.1°C 29.7°F-1.3°C 27% 7.0 mph 11.3 kmh -- 30.23 in1023.7 mb 0.00 in0.0 mm 0.00 in0.0 mm 0.00 in0.0 mm
08:37 AM 64.6°F18.1°C 29.7°F-1.3°C 27% 9.0 mph W14.5 kmh W -- 30.23 in1023.7 mb 0.00 in0.0 mm 0.00 in0.0 mm 0.00 in0.0 mm
08:38 AM 64.6°F18.1°C 29.7°F-1.3°C 27% 10.0 mph NNW16.1 kmh NNW -- 30.23 in1023.7 mb 0.00 in0.0 mm 0.00 in0.0 mm 0.00 in0.0 mm
08:39 AM 64.8°F18.2°C 29.9°F-1.2°C 27% 6.0 mph NW9.7 kmh NW -- 30.23 in1023.7 mb 0.00 in0.0 mm 0.00 in0.0 mm 0.00 in0.0 mm
08:40 AM 64.9°F18.3°C 30.0°F-1.1°C 27% 10.0 mph WNW16.1 kmh WNW -- 30.23 in1023.7 mb 0.00 in0.0 mm 0.00 in0.0 mm 0.00 in0.0 mm
08:41 AM 64.9°F18.3°C 30.0°F-1.1°C 27% 10.0 mph NNW16.1 kmh NNW -- 30.23 in1023.7 mb 0.00 in0.0 mm 0.00 in0.0 mm 0.00 in0.0 mm
08:42 AM 64.9°F18.3°C 30.0°F-1.1°C 27% 10.0 mph NW16.1 kmh NW -- 30.23 in1023.7 mb 0.00 in0.0 mm 0.00 in0.0 mm 0.00 in0.0 mm
08:43 AM 64.9°F18.3°C 30.0°F-1.1°C 27% 8.0 mph NNW12.9 kmh NNW -- 30.23 in1023.7 mb 0.00 in0.0 mm 0.00 in0.0 mm 0.00 in0.0 mm
08:44 AM 65.0°F18.3°C 30.0°F-1.1°C 27% 12.0 mph NNW19.3 kmh NNW -- 30.23 in1023.7 mb 0.00 in0.0 mm 0.00 in0.0 mm 0.00 in0.0 mm
08:45 AM 65.0°F18.3°C 30.0°F-1.1°C 27% 9.0 mph NNW14.5 kmh NNW -- 30.23 in1023.7 mb 0.00 in0.0 mm 0.00 in0.0 mm 0.00 in0.0 mm
08:46 AM 65.0°F18.3°C 28.1°F-2.2°C 25% 12.0 mph NNW19.3 kmh NNW -- 30.23 in1023.7 mb 0.00 in0.0 mm 0.00 in0.0 mm 0.00 in0.0 mm
08:47 AM 65.2°F18.4°C 28.3°F-2.1°C 25% 11.0 mph NW17.7 kmh NW -- 30.23 in1023.7 mb 0.00 in0.0 mm 0.00 in0.0 mm 0.00 in0.0 mm
08:48 AM 65.2°F18.4°C 30.2°F-1.0°C 27% 11.0 mph 17.7 kmh -- 30.23 in1023.7 mb 0.00 in0.0 mm 0.00 in0.0 mm 0.00 in0.0 mm
08:49 AM 65.2°F18.4°C 30.2°F-1.0°C 27% 8.0 mph NW12.9 kmh NW -- 30.23 in1023.7 mb 0.00 in0.0 mm 0.00 in0.0 mm 0.00 in0.0 mm
08:50 AM 65.5°F18.6°C 30.5°F-0.8°C 27% 11.0 mph 17.7 kmh -- 30.23 in1023.7 mb 0.00 in0.0 mm 0.00 in0.0 mm 0.00 in0.0 mm
08:51 AM 65.5°F18.6°C 30.5°F-0.8°C 27% 7.0 mph 11.3 kmh -- 30.23 in1023.7 mb 0.00 in0.0 mm 0.00 in0.0 mm 0.00 in0.0 mm
08:52 AM 65.8°F18.8°C 30.8°F-0.7°C 27% 7.0 mph NW11.3 kmh NW -- 30.23 in1023.7 mb 0.00 in0.0 mm 0.00 in0.0 mm 0.00 in0.0 mm
08:53 AM 65.8°F18.8°C 30.8°F-0.7°C 27% 9.0 mph NNW14.5 kmh NNW -- 30.22 in1023.4 mb 0.00 in0.0 mm 0.00 in0.0 mm 0.00 in0.0 mm
08:54 AM 66.1°F18.9°C 31.0°F-0.6°C 27% 12.0 mph NW19.3 kmh NW -- 30.23 in1023.7 mb 0.00 in0.0 mm 0.00 in0.0 mm 0.00 in0.0 mm
08:55 AM 66.1°F18.9°C 31.0°F-0.6°C 27% 12.0 mph NNW19.3 kmh NNW -- 30.23 in1023.7 mb 0.00 in0.0 mm 0.00 in0.0 mm 0.00 in0.0 mm
08:56 AM 66.1°F18.9°C 31.0°F-0.6°C 27% 10.0 mph 16.1 kmh -- 30.23 in1023.7 mb 0.00 in0.0 mm 0.00 in0.0 mm 0.00 in0.0 mm
08:57 AM 66.4°F19.1°C 31.3°F-0.4°C 27% 6.0 mph NW9.7 kmh NW -- 30.23 in1023.7 mb 0.00 in0.0 mm 0.00 in0.0 mm 0.00 in0.0 mm
08:58 AM 66.5°F19.2°C 31.4°F-0.3°C 27% 6.0 mph 9.7 kmh -- 30.23 in1023.7 mb 0.00 in0.0 mm 0.00 in0.0 mm 0.00 in0.0 mm
08:59 AM 66.6°F19.2°C 33.2°F0.7°C 29% 10.0 mph NNE16.1 kmh NNE -- 30.23 in1023.7 mb 0.00 in0.0 mm 0.00 in0.0 mm 0.00 in0.0 mm
09:00 AM 67.1°F19.5°C 31.9°F-0.1°C 27% 9.0 mph NE14.5 kmh NE -- 30.23 in1023.7 mb 0.00 in0.0 mm 0.00 in0.0 mm 0.00 in0.0 mm
09:01 AM 67.3°F19.6°C 32.0°F0.0°C 27% 8.0 mph NNW12.9 kmh NNW -- 30.23 in1023.7 mb 0.00 in0.0 mm 0.00 in0.0 mm 0.00 in0.0 mm
09:02 AM 67.3°F19.6°C 32.0°F0.0°C 27% 4.0 mph NNE6.4 kmh NNE -- 30.23 in1023.7 mb 0.00 in0.0 mm 0.00 in0.0 mm 0.00 in0.0 mm
09:03 AM 67.5°F19.7°C 32.2°F0.1°C 27% 12.0 mph NNW19.3 kmh NNW -- 30.23 in1023.7 mb 0.00 in0.0 mm 0.00 in0.0 mm 0.00 in0.0 mm
09:04 AM 67.3°F19.6°C 32.0°F0.0°C 27% 8.0 mph NNW12.9 kmh NNW -- 30.23 in1023.7 mb 0.00 in0.0 mm 0.00 in0.0 mm 0.00 in0.0 mm
09:05 AM 67.3°F19.6°C 32.0°F0.0°C 27% 10.0 mph NNE16.1 kmh NNE -- 30.23 in1023.7 mb 0.00 in0.0 mm 0.00 in0.0 mm 0.00 in0.0 mm
09:06 AM 67.3°F19.6°C 32.0°F0.0°C 27% 10.0 mph NNW16.1 kmh NNW -- 30.23 in1023.7 mb 0.00 in0.0 mm 0.00 in0.0 mm 0.00 in0.0 mm
09:07 AM 67.1°F19.5°C 31.9°F-0.1°C 27% 11.0 mph NNW17.7 kmh NNW -- 30.23 in1023.7 mb 0.00 in0.0 mm 0.00 in0.0 mm 0.00 in0.0 mm
09:08 AM 67.1°F19.5°C 31.9°F-0.1°C 27% 8.0 mph NNW12.9 kmh NNW -- 30.23 in1023.7 mb 0.00 in0.0 mm 0.00 in0.0 mm 0.00 in0.0 mm
09:09 AM 67.1°F19.5°C 31.9°F-0.1°C 27% 9.0 mph 14.5 kmh -- 30.22 in1023.4 mb 0.00 in0.0 mm 0.00 in0.0 mm 0.00 in0.0 mm
09:10 AM 67.1°F19.5°C 31.9°F-0.1°C 27% 11.0 mph NNW17.7 kmh NNW -- 30.23 in1023.7 mb 0.00 in0.0 mm 0.00 in0.0 mm 0.00 in0.0 mm
09:11 AM 67.1°F19.5°C 31.9°F-0.1°C 27% 11.0 mph 17.7 kmh -- 30.23 in1023.7 mb 0.00 in0.0 mm 0.00 in0.0 mm 0.00 in0.0 mm
09:12 AM 67.5°F19.7°C 32.2°F0.1°C 27% 13.0 mph NW20.9 kmh NW -- 30.23 in1023.7 mb 0.00 in0.0 mm 0.00 in0.0 mm 0.00 in0.0 mm
09:13 AM 67.5°F19.7°C 32.2°F0.1°C 27% 10.0 mph 16.1 kmh -- 30.23 in1023.7 mb 0.00 in0.0 mm 0.00 in0.0 mm 0.00 in0.0 mm
09:14 AM 67.3°F19.6°C 30.2°F-1.0°C 25% 8.0 mph 12.9 kmh -- 30.23 in1023.7 mb 0.00 in0.0 mm 0.00 in0.0 mm 0.00 in0.0 mm
09:15 AM 67.3°F19.6°C 30.2°F-1.0°C 25% 12.0 mph 19.3 kmh -- 30.23 in1023.7 mb 0.00 in0.0 mm 0.00 in0.0 mm 0.00 in0.0 mm
09:16 AM 67.5°F19.7°C 30.3°F-0.9°C 25% 8.0 mph WNW12.9 kmh WNW -- 30.23 in1023.7 mb 0.00 in0.0 mm 0.00 in0.0 mm 0.00 in0.0 mm
09:17 AM 67.5°F19.7°C 30.3°F-0.9°C 25% 9.0 mph NNW14.5 kmh NNW -- 30.23 in1023.7 mb 0.00 in0.0 mm 0.00 in0.0 mm 0.00 in0.0 mm
09:18 AM 67.5°F19.7°C 30.3°F-0.9°C 25% 6.0 mph NNE9.7 kmh NNE -- 30.23 in1023.7 mb 0.00 in0.0 mm 0.00 in0.0 mm 0.00 in0.0 mm
09:19 AM 67.6°F19.8°C 30.5°F-0.8°C 25% 11.0 mph NNW17.7 kmh NNW -- 30.23 in1023.7 mb 0.00 in0.0 mm 0.00 in0.0 mm 0.00 in0.0 mm
09:20 AM 67.8°F19.9°C 32.5°F0.3°C 27% 7.0 mph NW11.3 kmh NW -- 30.23 in1023.7 mb 0.00 in0.0 mm 0.00 in0.0 mm 0.00 in0.0 mm
09:21 AM 68.0°F20.0°C 30.8°F-0.7°C 25% 8.0 mph NNE12.9 kmh NNE -- 30.23 in1023.7 mb 0.00 in0.0 mm 0.00 in0.0 mm 0.00 in0.0 mm
09:22 AM 68.0°F20.0°C 30.8°F-0.7°C 25% 10.0 mph NNW16.1 kmh NNW -- 30.23 in1023.7 mb 0.00 in0.0 mm 0.00 in0.0 mm 0.00 in0.0 mm
09:23 AM 68.1°F20.1°C 30.9°F-0.6°C 25% 12.0 mph NNE19.3 kmh NNE -- 30.23 in1023.7 mb 0.00 in0.0 mm 0.00 in0.0 mm 0.00 in0.0 mm
09:24 AM 68.1°F20.1°C 30.9°F-0.6°C 25% 10.0 mph NNW16.1 kmh NNW -- 30.23 in1023.7 mb 0.00 in0.0 mm 0.00 in0.0 mm 0.00 in0.0 mm
09:25 AM 68.0°F20.0°C 30.8°F-0.7°C 25% 10.0 mph 16.1 kmh -- 30.23 in1023.7 mb 0.00 in0.0 mm 0.00 in0.0 mm 0.00 in0.0 mm
09:26 AM 68.0°F20.0°C 30.8°F-0.7°C 25% 11.0 mph 17.7 kmh -- 30.23 in1023.7 mb 0.00 in0.0 mm 0.00 in0.0 mm 0.00 in0.0 mm
09:27 AM 68.1°F20.1°C 30.9°F-0.6°C 25% 13.0 mph NNW20.9 kmh NNW -- 30.22 in1023.4 mb 0.00 in0.0 mm 0.00 in0.0 mm 0.00 in0.0 mm
09:28 AM 68.1°F20.1°C 29.9°F-1.2°C 24% 10.0 mph NW16.1 kmh NW -- 30.22 in1023.4 mb 0.00 in0.0 mm 0.00 in0.0 mm 0.00 in0.0 mm
09:29 AM 68.1°F20.1°C 30.9°F-0.6°C 25% 6.0 mph WNW9.7 kmh WNW -- 30.22 in1023.4 mb 0.00 in0.0 mm 0.00 in0.0 mm 0.00 in0.0 mm
09:30 AM 68.4°F20.2°C 31.1°F-0.5°C 25% 11.0 mph NNW17.7 kmh NNW -- 30.22 in1023.4 mb 0.00 in0.0 mm 0.00 in0.0 mm 0.00 in0.0 mm
09:31 AM 68.6°F20.3°C 31.2°F-0.4°C 25% 6.0 mph NW9.7 kmh NW -- 30.22 in1023.4 mb 0.00 in0.0 mm 0.00 in0.0 mm 0.00 in0.0 mm
09:32 AM 68.9°F20.5°C 31.5°F-0.3°C 25% 9.0 mph W14.5 kmh W -- 30.22 in1023.4 mb 0.00 in0.0 mm 0.00 in0.0 mm 0.00 in0.0 mm
09:33 AM 69.0°F20.6°C 31.7°F-0.2°C 25% 8.0 mph NNW12.9 kmh NNW -- 30.22 in1023.4 mb 0.00 in0.0 mm 0.00 in0.0 mm 0.00 in0.0 mm
09:34 AM 69.0°F20.6°C 31.7°F-0.2°C 25% 10.0 mph NW16.1 kmh NW -- 30.22 in1023.4 mb 0.00 in0.0 mm 0.00 in0.0 mm 0.00 in0.0 mm
09:35 AM 68.9°F20.5°C 31.5°F-0.3°C 25% 10.0 mph WNW16.1 kmh WNW -- 30.22 in1023.4 mb 0.00 in0.0 mm 0.00 in0.0 mm 0.00 in0.0 mm
09:36 AM 68.9°F20.5°C 31.5°F-0.3°C 25% 11.0 mph W17.7 kmh W -- 30.22 in1023.4 mb 0.00 in0.0 mm 0.00 in0.0 mm 0.00 in0.0 mm
09:37 AM 68.4°F20.2°C 31.1°F-0.5°C 25% 10.0 mph W16.1 kmh W -- 30.22 in1023.4 mb 0.00 in0.0 mm 0.00 in0.0 mm 0.00 in0.0 mm
09:38 AM 68.4°F20.2°C 31.1°F-0.5°C 25% 12.0 mph 19.3 kmh -- 30.22 in1023.4 mb 0.00 in0.0 mm 0.00 in0.0 mm 0.00 in0.0 mm
09:39 AM 68.4°F20.2°C 31.1°F-0.5°C 25% 9.0 mph NNW14.5 kmh NNW -- 30.22 in1023.4 mb 0.00 in0.0 mm 0.00 in0.0 mm 0.00 in0.0 mm
09:40 AM 68.4°F20.2°C 31.1°F-0.5°C 25% 11.0 mph NNW17.7 kmh NNW -- 30.22 in1023.4 mb 0.00 in0.0 mm 0.00 in0.0 mm 0.00 in0.0 mm
09:41 AM 68.4°F20.2°C 31.1°F-0.5°C 25% 10.0 mph 16.1 kmh -- 30.22 in1023.4 mb 0.00 in0.0 mm 0.00 in0.0 mm 0.00 in0.0 mm
09:42 AM 68.4°F20.2°C 30.1°F-1.1°C 24% 10.0 mph NW16.1 kmh NW -- 30.22 in1023.4 mb 0.00 in0.0 mm 0.00 in0.0 mm 0.00 in0.0 mm
09:43 AM 68.4°F20.2°C 30.1°F-1.1°C 24% 9.0 mph NNE14.5 kmh NNE -- 30.22 in1023.4 mb 0.00 in0.0 mm 0.00 in0.0 mm 0.00 in0.0 mm
09:44 AM 68.4°F20.2°C 30.1°F-1.1°C 24% 8.0 mph NE12.9 kmh NE -- 30.22 in1023.4 mb 0.00 in0.0 mm 0.00 in0.0 mm 0.00 in0.0 mm
09:45 AM 68.4°F20.2°C 30.1°F-1.1°C 24% 12.0 mph NNW19.3 kmh NNW -- 30.22 in1023.4 mb 0.00 in0.0 mm 0.00 in0.0 mm 0.00 in0.0 mm
09:46 AM 68.4°F20.2°C 28.0°F-2.2°C 22% 9.0 mph 14.5 kmh -- 30.22 in1023.4 mb 0.00 in0.0 mm 0.00 in0.0 mm 0.00 in0.0 mm
09:47 AM 68.4°F20.2°C 28.0°F-2.2°C 22% 10.0 mph NNW16.1 kmh NNW -- 30.22 in1023.4 mb 0.00 in0.0 mm 0.00 in0.0 mm 0.00 in0.0 mm
09:48 AM 68.4°F20.2°C 28.0°F-2.2°C 22% 9.0 mph NNE14.5 kmh NNE -- 30.22 in1023.4 mb 0.00 in0.0 mm 0.00 in0.0 mm 0.00 in0.0 mm
09:49 AM 68.6°F20.3°C 30.2°F-1.0°C 24% 5.0 mph WNW8.0 kmh WNW -- 30.22 in1023.4 mb 0.00 in0.0 mm 0.00 in0.0 mm 0.00 in0.0 mm
09:50 AM 69.3°F20.7°C 30.8°F-0.7°C 24% 7.0 mph W11.3 kmh W -- 30.22 in1023.4 mb 0.00 in0.0 mm 0.00 in0.0 mm 0.00 in0.0 mm
09:51 AM 69.4°F20.8°C 31.0°F-0.6°C 24% 10.0 mph NNW16.1 kmh NNW -- 30.22 in1023.4 mb 0.00 in0.0 mm 0.00 in0.0 mm 0.00 in0.0 mm
09:52 AM 69.4°F20.8°C 28.9°F-1.7°C 22% 12.0 mph NW19.3 kmh NW -- 30.22 in1023.4 mb 0.00 in0.0 mm 0.00 in0.0 mm 0.00 in0.0 mm
09:53 AM 69.4°F20.8°C 28.9°F-1.7°C 22% 6.0 mph NNW9.7 kmh NNW -- 30.22 in1023.4 mb 0.00 in0.0 mm 0.00 in0.0 mm 0.00 in0.0 mm
09:54 AM 69.4°F20.8°C 28.9°F-1.7°C 22% 6.0 mph NW9.7 kmh NW -- 30.22 in1023.4 mb 0.00 in0.0 mm 0.00 in0.0 mm 0.00 in0.0 mm
09:55 AM 69.8°F21.0°C 29.2°F-1.6°C 22% 10.0 mph NW16.1 kmh NW -- 30.22 in1023.4 mb 0.00 in0.0 mm 0.00 in0.0 mm 0.00 in0.0 mm
09:56 AM 69.8°F21.0°C 29.2°F-1.6°C 22% 7.0 mph NNW11.3 kmh NNW -- 30.22 in1023.4 mb 0.00 in0.0 mm 0.00 in0.0 mm 0.00 in0.0 mm
09:57 AM 70.0°F21.1°C 29.3°F-1.5°C 22% 6.0 mph NW9.7 kmh NW -- 30.22 in1023.4 mb 0.00 in0.0 mm 0.00 in0.0 mm 0.00 in0.0 mm
09:58 AM 69.8°F21.0°C 29.2°F-1.6°C 22% 6.0 mph NNW9.7 kmh NNW -- 30.22 in1023.4 mb 0.00 in0.0 mm 0.00 in0.0 mm 0.00 in0.0 mm
09:59 AM 70.0°F21.1°C 29.3°F-1.5°C 22% 7.0 mph NNW11.3 kmh NNW -- 30.22 in1023.4 mb 0.00 in0.0 mm 0.00 in0.0 mm 0.00 in0.0 mm
10:00 AM 70.0°F21.1°C 27.0°F-2.8°C 20% 8.0 mph NNW12.9 kmh NNW -- 30.22 in1023.4 mb 0.00 in0.0 mm 0.00 in0.0 mm 0.00 in0.0 mm
10:01 AM 69.6°F20.9°C 26.7°F-2.9°C 20% 12.0 mph NNW19.3 kmh NNW -- 30.22 in1023.4 mb 0.00 in0.0 mm 0.00 in0.0 mm 0.00 in0.0 mm
10:02 AM 69.8°F21.0°C 29.2°F-1.6°C 22% 9.0 mph NNW14.5 kmh NNW -- 30.22 in1023.4 mb 0.00 in0.0 mm 0.00 in0.0 mm 0.00 in0.0 mm
10:03 AM 70.0°F21.1°C 29.3°F-1.5°C 22% 6.0 mph NNW9.7 kmh NNW -- 30.22 in1023.4 mb 0.00 in0.0 mm 0.00 in0.0 mm 0.00 in0.0 mm
10:04 AM 70.1°F21.2°C 29.5°F-1.4°C 22% 9.0 mph 14.5 kmh -- 30.22 in1023.4 mb 0.00 in0.0 mm 0.00 in0.0 mm 0.00 in0.0 mm
10:05 AM 70.0°F21.1°C 29.3°F-1.5°C 22% 7.0 mph NNE11.3 kmh NNE -- 30.22 in1023.4 mb 0.00 in0.0 mm 0.00 in0.0 mm 0.00 in0.0 mm
10:06 AM 70.1°F21.2°C 29.5°F-1.4°C 22% 9.0 mph 14.5 kmh -- 30.22 in1023.4 mb 0.00 in0.0 mm 0.00 in0.0 mm 0.00 in0.0 mm
10:07 AM 70.1°F21.2°C 29.5°F-1.4°C 22% 8.0 mph NNW12.9 kmh NNW -- 30.21 in1023.0 mb 0.00 in0.0 mm 0.00 in0.0 mm 0.00 in0.0 mm
10:08 AM 70.1°F21.2°C 29.5°F-1.4°C 22% 6.0 mph 9.7 kmh -- 30.21 in1023.0 mb 0.00 in0.0 mm 0.00 in0.0 mm 0.00 in0.0 mm
10:09 AM 70.3°F21.3°C 29.6°F-1.3°C 22% 12.0 mph 19.3 kmh -- 30.21 in1023.0 mb 0.00 in0.0 mm 0.00 in0.0 mm 0.00 in0.0 mm
10:10 AM 70.5°F21.4°C 29.8°F-1.2°C 22% 10.0 mph NNW16.1 kmh NNW -- 30.21 in1023.0 mb 0.00 in0.0 mm 0.00 in0.0 mm 0.00 in0.0 mm
10:11 AM 70.5°F21.4°C 29.8°F-1.2°C 22% 13.0 mph NNW20.9 kmh NNW -- 30.22 in1023.4 mb 0.00 in0.0 mm 0.00 in0.0 mm 0.00 in0.0 mm
10:12 AM 70.3°F21.3°C 29.6°F-1.3°C 22% 10.0 mph WNW16.1 kmh WNW -- 30.22 in1023.4 mb 0.00 in0.0 mm 0.00 in0.0 mm 0.00 in0.0 mm
10:13 AM 70.3°F21.3°C 29.6°F-1.3°C 22% 6.0 mph NNW9.7 kmh NNW -- 30.21 in1023.0 mb 0.00 in0.0 mm 0.00 in0.0 mm 0.00 in0.0 mm
10:14 AM 70.5°F21.4°C 29.8°F-1.2°C 22% 4.0 mph WNW6.4 kmh WNW -- 30.21 in1023.0 mb 0.00 in0.0 mm 0.00 in0.0 mm 0.00 in0.0 mm
10:15 AM 70.5°F21.4°C 29.8°F-1.2°C 22% 7.0 mph NW11.3 kmh NW -- 30.21 in1023.0 mb 0.00 in0.0 mm 0.00 in0.0 mm 0.00 in0.0 mm
10:16 AM 70.3°F21.3°C 27.3°F-2.6°C 20% 6.0 mph NNE9.7 kmh NNE -- 30.21 in1023.0 mb 0.00 in0.0 mm 0.00 in0.0 mm 0.00 in0.0 mm
10:17 AM 70.3°F21.3°C 29.6°F-1.3°C 22% 6.0 mph NW9.7 kmh NW -- 30.21 in1023.0 mb 0.00 in0.0 mm 0.00 in0.0 mm 0.00 in0.0 mm
10:18 AM 70.9°F21.6°C 30.1°F-1.1°C 22% 5.0 mph WNW8.0 kmh WNW -- 30.21 in1023.0 mb 0.00 in0.0 mm 0.00 in0.0 mm 0.00 in0.0 mm
10:19 AM 71.4°F21.9°C 30.5°F-0.8°C 22% 9.0 mph NW14.5 kmh NW -- 30.21 in1023.0 mb 0.00 in0.0 mm 0.00 in0.0 mm 0.00 in0.0 mm
10:21 AM 71.4°F21.9°C 28.2°F-2.1°C 20% 6.0 mph W9.7 kmh W -- 30.21 in1023.0 mb 0.00 in0.0 mm 0.00 in0.0 mm 0.00 in0.0 mm
10:22 AM 71.1°F21.7°C 27.9°F-2.3°C 20% 4.0 mph W6.4 kmh W -- 30.21 in1023.0 mb 0.00 in0.0 mm 0.00 in0.0 mm 0.00 in0.0 mm
10:23 AM 71.4°F21.9°C 30.5°F-0.8°C 22% 10.0 mph W16.1 kmh W -- 30.21 in1023.0 mb 0.00 in0.0 mm 0.00 in0.0 mm 0.00 in0.0 mm
10:24 AM 71.5°F21.9°C 30.5°F-0.8°C 22% 9.0 mph NW14.5 kmh NW -- 30.21 in1023.0 mb 0.00 in0.0 mm 0.00 in0.0 mm 0.00 in0.0 mm
10:25 AM 71.5°F21.9°C 28.2°F-2.1°C 20% 12.0 mph NNW19.3 kmh NNW -- 30.21 in1023.0 mb 0.00 in0.0 mm 0.00 in0.0 mm 0.00 in0.0 mm
10:26 AM 71.1°F21.7°C 27.9°F-2.3°C 20% 6.0 mph NNW9.7 kmh NNW -- 30.21 in1023.0 mb 0.00 in0.0 mm 0.00 in0.0 mm 0.00 in0.0 mm
10:27 AM 70.9°F21.6°C 30.1°F-1.1°C 22% 4.0 mph NNW6.4 kmh NNW -- 30.21 in1023.0 mb 0.00 in0.0 mm 0.00 in0.0 mm 0.00 in0.0 mm
10:28 AM 70.9°F21.6°C 30.1°F-1.1°C 22% 6.0 mph NNE9.7 kmh NNE -- 30.21 in1023.0 mb 0.00 in0.0 mm 0.00 in0.0 mm 0.00 in0.0 mm
10:29 AM 70.9°F21.6°C 27.8°F-2.3°C 20% 8.0 mph WNW12.9 kmh WNW -- 30.21 in1023.0 mb 0.00 in0.0 mm 0.00 in0.0 mm 0.00 in0.0 mm
10:30 AM 71.0°F21.7°C 27.9°F-2.3°C 20% 14.0 mph NNW22.5 kmh NNW -- 30.21 in1023.0 mb 0.00 in0.0 mm 0.00 in0.0 mm 0.00 in0.0 mm
10:31 AM 71.0°F21.7°C 27.9°F-2.3°C 20% 9.0 mph 14.5 kmh -- 30.21 in1023.0 mb 0.00 in0.0 mm 0.00 in0.0 mm 0.00 in0.0 mm
10:32 AM 70.6°F21.4°C 29.8°F-1.2°C 22% 8.0 mph NNW12.9 kmh NNW -- 30.21 in1023.0 mb 0.00 in0.0 mm 0.00 in0.0 mm 0.00 in0.0 mm
10:33 AM 71.0°F21.7°C 30.2°F-1.0°C 22% 13.0 mph NNW20.9 kmh NNW -- 30.21 in1023.0 mb 0.00 in0.0 mm 0.00 in0.0 mm 0.00 in0.0 mm
10:34 AM 71.0°F21.7°C 30.2°F-1.0°C 22% 11.0 mph NNW17.7 kmh NNW -- 30.21 in1023.0 mb 0.00 in0.0 mm 0.00 in0.0 mm 0.00 in0.0 mm
10:35 AM 70.9°F21.6°C 30.1°F-1.1°C 22% 12.0 mph NW19.3 kmh NW -- 30.21 in1023.0 mb 0.00 in0.0 mm 0.00 in0.0 mm 0.00 in0.0 mm
10:36 AM 70.6°F21.4°C 29.8°F-1.2°C 22% 9.0 mph NW14.5 kmh NW -- 30.21 in1023.0 mb 0.00 in0.0 mm 0.00 in0.0 mm 0.00 in0.0 mm
10:37 AM 70.6°F21.4°C 29.8°F-1.2°C 22% 6.0 mph NNW9.7 kmh NNW -- 30.21 in1023.0 mb 0.00 in0.0 mm 0.00 in0.0 mm 0.00 in0.0 mm
10:38 AM 71.0°F21.7°C 30.2°F-1.0°C 22% 11.0 mph 17.7 kmh -- 30.21 in1023.0 mb 0.00 in0.0 mm 0.00 in0.0 mm 0.00 in0.0 mm
10:39 AM 71.1°F21.7°C 30.2°F-1.0°C 22% 13.0 mph NNE20.9 kmh NNE -- 30.21 in1023.0 mb 0.00 in0.0 mm 0.00 in0.0 mm 0.00 in0.0 mm
10:40 AM 71.1°F21.7°C 30.2°F-1.0°C 22% 10.0 mph NNE16.1 kmh NNE -- 30.21 in1023.0 mb 0.00 in0.0 mm 0.00 in0.0 mm 0.00 in0.0 mm
10:41 AM 71.0°F21.7°C 30.2°F-1.0°C 22% 12.0 mph E19.3 kmh E -- 30.21 in1023.0 mb 0.00 in0.0 mm 0.00 in0.0 mm 0.00 in0.0 mm
10:42 AM 71.4°F21.9°C 30.5°F-0.8°C 22% 9.0 mph NW14.5 kmh NW -- 30.21 in1023.0 mb 0.00 in0.0 mm 0.00 in0.0 mm 0.00 in0.0 mm
10:43 AM 71.4°F21.9°C 30.5°F-0.8°C 22% 11.0 mph NNE17.7 kmh NNE -- 30.21 in1023.0 mb 0.00 in0.0 mm 0.00 in0.0 mm 0.00 in0.0 mm
10:44 AM 71.1°F21.7°C 30.2°F-1.0°C 22% 10.0 mph NW16.1 kmh NW -- 30.21 in1023.0 mb 0.00 in0.0 mm 0.00 in0.0 mm 0.00 in0.0 mm
10:45 AM 71.4°F21.9°C 30.5°F-0.8°C 22% 7.0 mph NNW11.3 kmh NNW -- 30.21 in1023.0 mb 0.00 in0.0 mm 0.00 in0.0 mm 0.00 in0.0 mm
10:46 AM 71.4°F21.9°C 30.5°F-0.8°C 22% 10.0 mph NNE16.1 kmh NNE -- 30.21 in1023.0 mb 0.00 in0.0 mm 0.00 in0.0 mm 0.00 in0.0 mm
10:47 AM 71.4°F21.9°C 30.5°F-0.8°C 22% 11.0 mph NNW17.7 kmh NNW -- 30.21 in1023.0 mb 0.00 in0.0 mm 0.00 in0.0 mm 0.00 in0.0 mm
10:48 AM 71.4°F21.9°C 30.5°F-0.8°C 22% 15.0 mph NNW24.1 kmh NNW -- 30.21 in1023.0 mb 0.00 in0.0 mm 0.00 in0.0 mm 0.00 in0.0 mm
10:49 AM 71.1°F21.7°C 30.2°F-1.0°C 22% 11.0 mph NNW17.7 kmh NNW -- 30.21 in1023.0 mb 0.00 in0.0 mm 0.00 in0.0 mm 0.00 in0.0 mm
10:50 AM 70.9°F21.6°C 30.1°F-1.1°C 22% 8.0 mph NNW12.9 kmh NNW -- 30.21 in1023.0 mb 0.00 in0.0 mm 0.00 in0.0 mm 0.00 in0.0 mm
10:51 AM 70.6°F21.4°C 29.8°F-1.2°C 22% 11.0 mph NW17.7 kmh NW -- 30.21 in1023.0 mb 0.00 in0.0 mm 0.00 in0.0 mm 0.00 in0.0 mm
10:53 AM 70.6°F21.4°C 29.8°F-1.2°C 22% 10.0 mph 16.1 kmh -- 30.21 in1023.0 mb 0.00 in0.0 mm 0.00 in0.0 mm 0.00 in0.0 mm
10:54 AM 70.9°F21.6°C 30.1°F-1.1°C 22% 12.0 mph NW19.3 kmh NW -- 30.21 in1023.0 mb 0.00 in0.0 mm 0.00 in0.0 mm 0.00 in0.0 mm
10:55 AM 70.9°F21.6°C 30.1°F-1.1°C 22% 11.0 mph NW17.7 kmh NW -- 30.21 in1023.0 mb 0.00 in0.0 mm 0.00 in0.0 mm 0.00 in0.0 mm
10:56 AM 71.1°F21.7°C 32.4°F0.2°C 24% 5.0 mph WNW8.0 kmh WNW -- 30.21 in1023.0 mb 0.00 in0.0 mm 0.00 in0.0 mm 0.00 in0.0 mm
10:57 AM 71.4°F21.9°C 32.7°F0.4°C 24% 8.0 mph NW12.9 kmh NW -- 30.21 in1023.0 mb 0.00 in0.0 mm 0.00 in0.0 mm 0.00 in0.0 mm
10:58 AM 71.5°F21.9°C 30.5°F-0.8°C 22% 12.0 mph NNE19.3 kmh NNE -- 30.21 in1023.0 mb 0.00 in0.0 mm 0.00 in0.0 mm 0.00 in0.0 mm
10:59 AM 71.5°F21.9°C 30.5°F-0.8°C 22% 16.0 mph 25.7 kmh -- 30.21 in1023.0 mb 0.00 in0.0 mm 0.00 in0.0 mm 0.00 in0.0 mm
11:00 AM 71.4°F21.9°C 30.5°F-0.8°C 22% 10.0 mph NNE16.1 kmh NNE -- 30.21 in1023.0 mb 0.00 in0.0 mm 0.00 in0.0 mm 0.00 in0.0 mm
11:01 AM 71.1°F21.7°C 30.2°F-1.0°C 22% 8.0 mph NNW12.9 kmh NNW -- 30.21 in1023.0 mb 0.00 in0.0 mm 0.00 in0.0 mm 0.00 in0.0 mm
11:02 AM 71.4°F21.9°C 30.5°F-0.8°C 22% 13.0 mph 20.9 kmh -- 30.21 in1023.0 mb 0.00 in0.0 mm 0.00 in0.0 mm 0.00 in0.0 mm
11:03 AM 71.5°F21.9°C 30.5°F-0.8°C 22% 8.0 mph WNW12.9 kmh WNW -- 30.21 in1023.0 mb 0.00 in0.0 mm 0.00 in0.0 mm 0.00 in0.0 mm
11:04 AM 71.5°F21.9°C 28.2°F-2.1°C 20% 10.0 mph 16.1 kmh -- 30.21 in1023.0 mb 0.00 in0.0 mm 0.00 in0.0 mm 0.00 in0.0 mm
11:05 AM 71.5°F21.9°C 28.2°F-2.1°C 20% 4.0 mph NNW6.4 kmh NNW -- 30.21 in1023.0 mb 0.00 in0.0 mm 0.00 in0.0 mm 0.00 in0.0 mm
11:06 AM 71.4°F21.9°C 30.5°F-0.8°C 22% 6.0 mph NW9.7 kmh NW -- 30.21 in1023.0 mb 0.00 in0.0 mm 0.00 in0.0 mm 0.00 in0.0 mm
11:07 AM 71.8°F22.1°C 30.8°F-0.7°C 22% 6.0 mph NNW9.7 kmh NNW -- 30.21 in1023.0 mb 0.00 in0.0 mm 0.00 in0.0 mm 0.00 in0.0 mm
11:08 AM 72.5°F22.5°C 31.5°F-0.3°C 22% 8.0 mph NW12.9 kmh NW -- 30.21 in1023.0 mb 0.00 in0.0 mm 0.00 in0.0 mm 0.00 in0.0 mm
11:09 AM 72.5°F22.5°C 31.5°F-0.3°C 22% 9.0 mph 14.5 kmh -- 30.21 in1023.0 mb 0.00 in0.0 mm 0.00 in0.0 mm 0.00 in0.0 mm
11:10 AM 72.5°F22.5°C 31.5°F-0.3°C 22% 6.0 mph NNW9.7 kmh NNW -- 30.21 in1023.0 mb 0.00 in0.0 mm 0.00 in0.0 mm 0.00 in0.0 mm
11:11 AM 72.5°F22.5°C 31.5°F-0.3°C 22% 9.0 mph NW14.5 kmh NW -- 30.21 in1023.0 mb 0.00 in0.0 mm 0.00 in0.0 mm 0.00 in0.0 mm
11:12 AM 72.5°F22.5°C 31.5°F-0.3°C 22% 11.0 mph NNW17.7 kmh NNW -- 30.21 in1023.0 mb 0.00 in0.0 mm 0.00 in0.0 mm 0.00 in0.0 mm
11:13 AM 72.3°F22.4°C 31.3°F-0.4°C 22% 11.0 mph NNW17.7 kmh NNW -- 30.21 in1023.0 mb 0.00 in0.0 mm 0.00 in0.0 mm 0.00 in0.0 mm
11:14 AM 72.1°F22.3°C 28.8°F-1.8°C 20% 11.0 mph W17.7 kmh W -- 30.21 in1023.0 mb 0.00 in0.0 mm 0.00 in0.0 mm 0.00 in0.0 mm
11:15 AM 72.1°F22.3°C 28.8°F-1.8°C 20% 9.0 mph WNW14.5 kmh WNW -- 30.21 in1023.0 mb 0.00 in0.0 mm 0.00 in0.0 mm 0.00 in0.0 mm
11:16 AM 72.1°F22.3°C 28.8°F-1.8°C 20% 14.0 mph WNW22.5 kmh WNW -- 30.21 in1023.0 mb 0.00 in0.0 mm 0.00 in0.0 mm 0.00 in0.0 mm
11:17 AM 72.1°F22.3°C 28.8°F-1.8°C 20% 9.0 mph WNW14.5 kmh WNW -- 30.21 in1023.0 mb 0.00 in0.0 mm 0.00 in0.0 mm 0.00 in0.0 mm
11:18 AM 72.3°F22.4°C 29.0°F-1.7°C 20% 10.0 mph NNW16.1 kmh NNW -- 30.21 in1023.0 mb 0.00 in0.0 mm 0.00 in0.0 mm 0.00 in0.0 mm
11:19 AM 72.3°F22.4°C 29.0°F-1.7°C 20% 10.0 mph 16.1 kmh -- 30.21 in1023.0 mb 0.00 in0.0 mm 0.00 in0.0 mm 0.00 in0.0 mm
11:20 AM 72.5°F22.5°C 29.1°F-1.6°C 20% 13.0 mph NNW20.9 kmh NNW -- 30.21 in1023.0 mb 0.00 in0.0 mm 0.00 in0.0 mm 0.00 in0.0 mm
11:21 AM 72.3°F22.4°C 29.0°F-1.7°C 20% 7.0 mph NNE11.3 kmh NNE -- 30.21 in1023.0 mb 0.00 in0.0 mm 0.00 in0.0 mm 0.00 in0.0 mm
11:22 AM 72.3°F22.4°C 29.0°F-1.7°C 20% 10.0 mph NW16.1 kmh NW -- 30.21 in1023.0 mb 0.00 in0.0 mm 0.00 in0.0 mm 0.00 in0.0 mm
11:23 AM 72.1°F22.3°C 28.8°F-1.8°C 20% 10.0 mph NNE16.1 kmh NNE -- 30.21 in1023.0 mb 0.00 in0.0 mm 0.00 in0.0 mm 0.00 in0.0 mm
11:24 AM 72.1°F22.3°C 28.8°F-1.8°C 20% 10.0 mph NW16.1 kmh NW -- 30.21 in1023.0 mb 0.00 in0.0 mm 0.00 in0.0 mm 0.00 in0.0 mm
11:25 AM 72.1°F22.3°C 28.8°F-1.8°C 20% 8.0 mph NNE12.9 kmh NNE -- 30.21 in1023.0 mb 0.00 in0.0 mm 0.00 in0.0 mm 0.00 in0.0 mm
11:26 AM 72.3°F22.4°C 29.0°F-1.7°C 20% 8.0 mph NNW12.9 kmh NNW -- 30.21 in1023.0 mb 0.00 in0.0 mm 0.00 in0.0 mm 0.00 in0.0 mm
11:27 AM 72.3°F22.4°C 29.0°F-1.7°C 20% 7.0 mph W11.3 kmh W -- 30.21 in1023.0 mb 0.00 in0.0 mm 0.00 in0.0 mm 0.00 in0.0 mm
11:28 AM 72.5°F22.5°C 31.5°F-0.3°C 22% 7.0 mph NNW11.3 kmh NNW -- 30.21 in1023.0 mb 0.00 in0.0 mm 0.00 in0.0 mm 0.00 in0.0 mm
11:29 AM 72.3°F22.4°C 31.3°F-0.4°C 22% 5.0 mph NW8.0 kmh NW -- 30.20 in1022.7 mb 0.00 in0.0 mm 0.00 in0.0 mm 0.00 in0.0 mm
11:30 AM 72.5°F22.5°C 31.5°F-0.3°C 22% 9.0 mph 14.5 kmh -- 30.20 in1022.7 mb 0.00 in0.0 mm 0.00 in0.0 mm 0.00 in0.0 mm
11:31 AM 72.1°F22.3°C 28.8°F-1.8°C 20% 8.0 mph 12.9 kmh -- 30.21 in1023.0 mb 0.00 in0.0 mm 0.00 in0.0 mm 0.00 in0.0 mm
11:32 AM 72.1°F22.3°C 28.8°F-1.8°C 20% 18.0 mph NNW29.0 kmh NNW -- 30.20 in1022.7 mb 0.00 in0.0 mm 0.00 in0.0 mm 0.00 in0.0 mm
11:33 AM 71.9°F22.2°C 28.7°F-1.8°C 20% 10.0 mph NNE16.1 kmh NNE -- 30.21 in1023.0 mb 0.00 in0.0 mm 0.00 in0.0 mm 0.00 in0.0 mm
11:34 AM 71.4°F21.9°C 30.5°F-0.8°C 22% 5.0 mph NNE8.0 kmh NNE -- 30.21 in1023.0 mb 0.00 in0.0 mm 0.00 in0.0 mm 0.00 in0.0 mm
11:35 AM 71.8°F22.1°C 30.8°F-0.7°C 22% 12.0 mph NNE19.3 kmh NNE -- 30.20 in1022.7 mb 0.00 in0.0 mm 0.00 in0.0 mm 0.00 in0.0 mm
11:36 AM 71.8°F22.1°C 30.8°F-0.7°C 22% 9.0 mph NE14.5 kmh NE -- 30.20 in1022.7 mb 0.00 in0.0 mm 0.00 in0.0 mm 0.00 in0.0 mm
11:37 AM 71.9°F22.2°C 31.0°F-0.6°C 22% 11.0 mph 17.7 kmh -- 30.20 in1022.7 mb 0.00 in0.0 mm 0.00 in0.0 mm 0.00 in0.0 mm
11:38 AM 72.1°F22.3°C 28.8°F-1.8°C 20% 11.0 mph NNE17.7 kmh NNE -- 30.20 in1022.7 mb 0.00 in0.0 mm 0.00 in0.0 mm 0.00 in0.0 mm
11:39 AM 71.9°F22.2°C 31.0°F-0.6°C 22% 8.0 mph 12.9 kmh -- 30.20 in1022.7 mb 0.00 in0.0 mm 0.00 in0.0 mm 0.00 in0.0 mm
11:40 AM 72.3°F22.4°C 31.3°F-0.4°C 22% 15.0 mph NNE24.1 kmh NNE -- 30.20 in1022.7 mb 0.00 in0.0 mm 0.00 in0.0 mm 0.00 in0.0 mm
11:41 AM 72.1°F22.3°C 31.1°F-0.5°C 22% 13.0 mph NNW20.9 kmh NNW -- 30.20 in1022.7 mb 0.00 in0.0 mm 0.00 in0.0 mm 0.00 in0.0 mm
11:42 AM 71.8°F22.1°C 30.8°F-0.7°C 22% 11.0 mph 17.7 kmh -- 30.21 in1023.0 mb 0.00 in0.0 mm 0.00 in0.0 mm 0.00 in0.0 mm
11:43 AM 71.5°F21.9°C 30.5°F-0.8°C 22% 8.0 mph NW12.9 kmh NW -- 30.20 in1022.7 mb 0.00 in0.0 mm 0.00 in0.0 mm 0.00 in0.0 mm
11:44 AM 71.5°F21.9°C 30.5°F-0.8°C 22% 6.0 mph NE9.7 kmh NE -- 30.20 in1022.7 mb 0.00 in0.0 mm 0.00 in0.0 mm 0.00 in0.0 mm
11:45 AM 71.5°F21.9°C 30.5°F-0.8°C 22% 9.0 mph 14.5 kmh -- 30.21 in1023.0 mb 0.00 in0.0 mm 0.00 in0.0 mm 0.00 in0.0 mm
11:46 AM 71.9°F22.2°C 31.0°F-0.6°C 22% 8.0 mph 12.9 kmh -- 30.21 in1023.0 mb 0.00 in0.0 mm 0.00 in0.0 mm 0.00 in0.0 mm
11:47 AM 72.1°F22.3°C 31.1°F-0.5°C 22% 10.0 mph 16.1 kmh -- 30.21 in1023.0 mb 0.00 in0.0 mm 0.00 in0.0 mm 0.00 in0.0 mm
11:48 AM 71.9°F22.2°C 31.0°F-0.6°C 22% 16.0 mph 25.7 kmh -- 30.21 in1023.0 mb 0.00 in0.0 mm 0.00 in0.0 mm 0.00 in0.0 mm
11:49 AM 72.1°F22.3°C 31.1°F-0.5°C 22% 9.0 mph SSW14.5 kmh SSW -- 30.21 in1023.0 mb 0.00 in0.0 mm 0.00 in0.0 mm 0.00 in0.0 mm
11:50 AM 72.3°F22.4°C 31.3°F-0.4°C 22% 8.0 mph NNE12.9 kmh NNE -- 30.20 in1022.7 mb 0.00 in0.0 mm 0.00 in0.0 mm 0.00 in0.0 mm
11:51 AM 72.3°F22.4°C 31.3°F-0.4°C 22% 12.0 mph 19.3 kmh -- 30.20 in1022.7 mb 0.00 in0.0 mm 0.00 in0.0 mm 0.00 in0.0 mm
11:52 AM 72.5°F22.5°C 31.5°F-0.3°C 22% 10.0 mph NNE16.1 kmh NNE -- 30.20 in1022.7 mb 0.00 in0.0 mm 0.00 in0.0 mm 0.00 in0.0 mm
11:53 AM 72.5°F22.5°C 31.5°F-0.3°C 22% 8.0 mph NW12.9 kmh NW -- 30.21 in1023.0 mb 0.00 in0.0 mm 0.00 in0.0 mm 0.00 in0.0 mm
11:54 AM 72.6°F22.6°C 31.6°F-0.2°C 22% 11.0 mph 17.7 kmh -- 30.21 in1023.0 mb 0.00 in0.0 mm 0.00 in0.0 mm 0.00 in0.0 mm
11:55 AM 72.5°F22.5°C 31.5°F-0.3°C 22% 18.0 mph 29.0 kmh -- 30.21 in1023.0 mb 0.00 in0.0 mm 0.00 in0.0 mm 0.00 in0.0 mm
11:56 AM 71.9°F22.2°C 31.0°F-0.6°C 22% 10.0 mph NNW16.1 kmh NNW -- 30.20 in1022.7 mb 0.00 in0.0 mm 0.00 in0.0 mm 0.00 in0.0 mm
11:57 AM 71.9°F22.2°C 31.0°F-0.6°C 22% 13.0 mph NNW20.9 kmh NNW -- 30.21 in1023.0 mb 0.00 in0.0 mm 0.00 in0.0 mm 0.00 in0.0 mm
11:58 AM 71.5°F21.9°C 30.5°F-0.8°C 22% 9.0 mph WNW14.5 kmh WNW -- 30.21 in1023.0 mb 0.00 in0.0 mm 0.00 in0.0 mm 0.00 in0.0 mm
11:59 AM 71.5°F21.9°C 30.5°F-0.8°C 22% 11.0 mph NNW17.7 kmh NNW -- 30.20 in1022.7 mb 0.00 in0.0 mm 0.00 in0.0 mm 0.00 in0.0 mm
12:00 PM 71.5°F21.9°C 30.5°F-0.8°C 22% 12.0 mph NNW19.3 kmh NNW -- 30.20 in1022.7 mb 0.00 in0.0 mm 0.00 in0.0 mm 0.00 in0.0 mm
12:01 PM 71.8°F22.1°C 30.8°F-0.7°C 22% 7.0 mph NNW11.3 kmh NNW -- 30.20 in1022.7 mb 0.00 in0.0 mm 0.00 in0.0 mm 0.00 in0.0 mm
12:02 PM 71.9°F22.2°C 31.0°F-0.6°C 22% 9.0 mph 14.5 kmh -- 30.20 in1022.7 mb 0.00 in0.0 mm 0.00 in0.0 mm 0.00 in0.0 mm
12:03 PM 72.1°F22.3°C 31.1°F-0.5°C 22% 9.0 mph 14.5 kmh -- 30.21 in1023.0 mb 0.00 in0.0 mm 0.00 in0.0 mm 0.00 in0.0 mm
12:04 PM 72.3°F22.4°C 31.3°F-0.4°C 22% 7.0 mph NE11.3 kmh NE -- 30.21 in1023.0 mb 0.00 in0.0 mm 0.00 in0.0 mm 0.00 in0.0 mm
12:05 PM 72.5°F22.5°C 31.5°F-0.3°C 22% 10.0 mph NNE16.1 kmh NNE -- 30.21 in1023.0 mb 0.00 in0.0 mm 0.00 in0.0 mm 0.00 in0.0 mm
12:06 PM 72.8°F22.7°C 31.8°F-0.1°C 22% 10.0 mph NNE16.1 kmh NNE -- 30.21 in1023.0 mb 0.00 in0.0 mm 0.00 in0.0 mm 0.00 in0.0 mm
12:07 PM 73.1°F22.8°C 31.9°F-0.1°C 22% 11.0 mph WNW17.7 kmh WNW -- 30.21 in1023.0 mb 0.00 in0.0 mm 0.00 in0.0 mm 0.00 in0.0 mm
12:08 PM 73.1°F22.8°C 31.9°F-0.1°C 22% 12.0 mph NNE19.3 kmh NNE -- 30.21 in1023.0 mb 0.00 in0.0 mm 0.00 in0.0 mm 0.00 in0.0 mm
12:09 PM 72.8°F22.7°C 29.4°F-1.4°C 20% 7.0 mph 11.3 kmh -- 30.20 in1022.7 mb 0.00 in0.0 mm 0.00 in0.0 mm 0.00 in0.0 mm
12:10 PM 72.8°F22.7°C 31.8°F-0.1°C 22% 7.0 mph NE11.3 kmh NE -- 30.21 in1023.0 mb 0.00 in0.0 mm 0.00 in0.0 mm 0.00 in0.0 mm
12:11 PM 73.0°F22.8°C 31.9°F-0.1°C 22% 10.0 mph NW16.1 kmh NW -- 30.20 in1022.7 mb 0.00 in0.0 mm 0.00 in0.0 mm 0.00 in0.0 mm
12:12 PM 72.8°F22.7°C 31.8°F-0.1°C 22% 7.0 mph E11.3 kmh E -- 30.20 in1022.7 mb 0.00 in0.0 mm 0.00 in0.0 mm 0.00 in0.0 mm
12:13 PM 72.8°F22.7°C 31.8°F-0.1°C 22% 8.0 mph NE12.9 kmh NE -- 30.20 in1022.7 mb 0.00 in0.0 mm 0.00 in0.0 mm 0.00 in0.0 mm
12:14 PM 72.8°F22.7°C 33.9°F1.1°C 24% 10.0 mph ENE16.1 kmh ENE -- 30.20 in1022.7 mb 0.00 in0.0 mm 0.00 in0.0 mm 0.00 in0.0 mm
12:15 PM 73.4°F23.0°C 34.4°F1.3°C 24% 9.0 mph NNE14.5 kmh NNE -- 30.20 in1022.7 mb 0.00 in0.0 mm 0.00 in0.0 mm 0.00 in0.0 mm
12:16 PM 73.4°F23.0°C 34.4°F1.3°C 24% 10.0 mph ENE16.1 kmh ENE -- 30.20 in1022.7 mb 0.00 in0.0 mm 0.00 in0.0 mm 0.00 in0.0 mm
12:17 PM 73.4°F23.0°C 32.2°F0.1°C 22% 6.0 mph 9.7 kmh -- 30.20 in1022.7 mb 0.00 in0.0 mm 0.00 in0.0 mm 0.00 in0.0 mm
12:18 PM 73.4°F23.0°C 32.2°F0.1°C 22% 11.0 mph 17.7 kmh -- 30.20 in1022.7 mb 0.00 in0.0 mm 0.00 in0.0 mm 0.00 in0.0 mm
12:19 PM 73.1°F22.8°C 31.9°F-0.1°C 22% 7.0 mph NNE11.3 kmh NNE -- 30.20 in1022.7 mb 0.00 in0.0 mm 0.00 in0.0 mm 0.00 in0.0 mm
12:20 PM 73.1°F22.8°C 31.9°F-0.1°C 22% 7.0 mph NE11.3 kmh NE -- 30.21 in1023.0 mb 0.00 in0.0 mm 0.00 in0.0 mm 0.00 in0.0 mm
12:21 PM 73.5°F23.1°C 32.4°F0.2°C 22% 8.0 mph ENE12.9 kmh ENE -- 30.20 in1022.7 mb 0.00 in0.0 mm 0.00 in0.0 mm 0.00 in0.0 mm
12:22 PM 73.4°F23.0°C 32.2°F0.1°C 22% 9.0 mph ENE14.5 kmh ENE -- 30.20 in1022.7 mb 0.00 in0.0 mm 0.00 in0.0 mm 0.00 in0.0 mm
12:23 PM 73.1°F22.8°C 31.9°F-0.1°C 22% 6.0 mph NE9.7 kmh NE -- 30.20 in1022.7 mb 0.00 in0.0 mm 0.00 in0.0 mm 0.00 in0.0 mm
12:24 PM 73.4°F23.0°C 32.2°F0.1°C 22% 11.0 mph WNW17.7 kmh WNW -- 30.20 in1022.7 mb 0.00 in0.0 mm 0.00 in0.0 mm 0.00 in0.0 mm
12:25 PM 73.4°F23.0°C 32.2°F0.1°C 22% 7.0 mph NNW11.3 kmh NNW -- 30.20 in1022.7 mb 0.00 in0.0 mm 0.00 in0.0 mm 0.00 in0.0 mm
12:26 PM 73.1°F22.8°C 31.9°F-0.1°C 22% 9.0 mph NW14.5 kmh NW -- 30.20 in1022.7 mb 0.00 in0.0 mm 0.00 in0.0 mm 0.00 in0.0 mm
12:27 PM 73.1°F22.8°C 31.9°F-0.1°C 22% 8.0 mph NNE12.9 kmh NNE -- 30.20 in1022.7 mb 0.00 in0.0 mm 0.00 in0.0 mm 0.00 in0.0 mm
12:28 PM 73.0°F22.8°C 31.9°F-0.1°C 22% 6.0 mph NNE9.7 kmh NNE -- 30.20 in1022.7 mb 0.00 in0.0 mm 0.00 in0.0 mm 0.00 in0.0 mm
12:29 PM 73.4°F23.0°C 32.2°F0.1°C 22% 6.0 mph 9.7 kmh -- 30.20 in1022.7 mb 0.00 in0.0 mm 0.00 in0.0 mm 0.00 in0.0 mm
12:30 PM 73.9°F23.3°C 32.7°F0.4°C 22% 8.0 mph NNE12.9 kmh NNE -- 30.20 in1022.7 mb 0.00 in0.0 mm 0.00 in0.0 mm 0.00 in0.0 mm
12:31 PM 73.8°F23.2°C 32.5°F0.3°C 22% 8.0 mph NNW12.9 kmh NNW -- 30.20 in1022.7 mb 0.00 in0.0 mm 0.00 in0.0 mm 0.00 in0.0 mm
12:32 PM 73.8°F23.2°C 32.5°F0.3°C 22% 11.0 mph 17.7 kmh -- 30.20 in1022.7 mb 0.00 in0.0 mm 0.00 in0.0 mm 0.00 in0.0 mm
12:33 PM 73.5°F23.1°C 32.4°F0.2°C 22% 11.0 mph WNW17.7 kmh WNW -- 30.20 in1022.7 mb 0.00 in0.0 mm 0.00 in0.0 mm 0.00 in0.0 mm
12:34 PM 73.1°F22.8°C 31.9°F-0.1°C 22% 9.0 mph ENE14.5 kmh ENE -- 30.20 in1022.7 mb 0.00 in0.0 mm 0.00 in0.0 mm 0.00 in0.0 mm
12:35 PM 73.4°F23.0°C 32.2°F0.1°C 22% 10.0 mph NNE16.1 kmh NNE -- 30.20 in1022.7 mb 0.00 in0.0 mm 0.00 in0.0 mm 0.00 in0.0 mm
12:36 PM 73.4°F23.0°C 32.2°F0.1°C 22% 8.0 mph NW12.9 kmh NW -- 30.20 in1022.7 mb 0.00 in0.0 mm 0.00 in0.0 mm 0.00 in0.0 mm
12:37 PM 73.0°F22.8°C 29.6°F-1.3°C 20% 6.0 mph NNE9.7 kmh NNE -- 30.20 in1022.7 mb 0.00 in0.0 mm 0.00 in0.0 mm 0.00 in0.0 mm
12:38 PM 72.8°F22.7°C 29.4°F-1.4°C 20% 6.0 mph E9.7 kmh E -- 30.20 in1022.7 mb 0.00 in0.0 mm 0.00 in0.0 mm 0.00 in0.0 mm
12:39 PM 73.0°F22.8°C 29.6°F-1.3°C 20% 6.0 mph NW9.7 kmh NW -- 30.20 in1022.7 mb 0.00 in0.0 mm 0.00 in0.0 mm 0.00 in0.0 mm
12:40 PM 73.1°F22.8°C 31.9°F-0.1°C 22% 11.0 mph WNW17.7 kmh WNW -- 30.20 in1022.7 mb 0.00 in0.0 mm 0.00 in0.0 mm 0.00 in0.0 mm
12:41 PM 73.5°F23.1°C 32.4°F0.2°C 22% 15.0 mph NE24.1 kmh NE -- 30.20 in1022.7 mb 0.00 in0.0 mm 0.00 in0.0 mm 0.00 in0.0 mm
12:42 PM 73.5°F23.1°C 32.4°F0.2°C 22% 9.0 mph WSW14.5 kmh WSW -- 30.20 in1022.7 mb 0.00 in0.0 mm 0.00 in0.0 mm 0.00 in0.0 mm
12:43 PM 73.1°F22.8°C 31.9°F-0.1°C 22% 11.0 mph NW17.7 kmh NW -- 30.20 in1022.7 mb 0.00 in0.0 mm 0.00 in0.0 mm 0.00 in0.0 mm
12:44 PM 73.1°F22.8°C 31.9°F-0.1°C 22% 13.0 mph NNE20.9 kmh NNE -- 30.20 in1022.7 mb 0.00 in0.0 mm 0.00 in0.0 mm 0.00 in0.0 mm
12:45 PM 73.0°F22.8°C 31.9°F-0.1°C 22% 5.0 mph NNE8.0 kmh NNE -- 30.20 in1022.7 mb 0.00 in0.0 mm 0.00 in0.0 mm 0.00 in0.0 mm
12:46 PM 73.1°F22.8°C 34.1°F1.2°C 24% 6.0 mph NNE9.7 kmh NNE -- 30.20 in1022.7 mb 0.00 in0.0 mm 0.00 in0.0 mm 0.00 in0.0 mm
12:47 PM 73.4°F23.0°C 34.4°F1.3°C 24% 4.0 mph NNE6.4 kmh NNE -- 30.20 in1022.7 mb 0.00 in0.0 mm 0.00 in0.0 mm 0.00 in0.0 mm
12:48 PM 73.8°F23.2°C 32.5°F0.3°C 22% 11.0 mph NNW17.7 kmh NNW -- 30.20 in1022.7 mb 0.00 in0.0 mm 0.00 in0.0 mm 0.00 in0.0 mm
12:49 PM 73.8°F23.2°C 32.5°F0.3°C 22% 9.0 mph NNE14.5 kmh NNE -- 30.20 in1022.7 mb 0.00 in0.0 mm 0.00 in0.0 mm 0.00 in0.0 mm
12:50 PM 73.8°F23.2°C 32.5°F0.3°C 22% 12.0 mph NE19.3 kmh NE -- 30.20 in1022.7 mb 0.00 in0.0 mm 0.00 in0.0 mm 0.00 in0.0 mm
12:51 PM 73.8°F23.2°C 32.5°F0.3°C 22% 11.0 mph NNE17.7 kmh NNE -- 30.20 in1022.7 mb 0.00 in0.0 mm 0.00 in0.0 mm 0.00 in0.0 mm
12:52 PM 73.9°F23.3°C 32.7°F0.4°C 22% 7.0 mph 11.3 kmh -- 30.20 in1022.7 mb 0.00 in0.0 mm 0.00 in0.0 mm 0.00 in0.0 mm
12:53 PM 73.5°F23.1°C 32.4°F0.2°C 22% 9.0 mph NNW14.5 kmh NNW -- 30.20 in1022.7 mb 0.00 in0.0 mm 0.00 in0.0 mm 0.00 in0.0 mm
12:54 PM 73.8°F23.2°C 32.5°F0.3°C 22% 9.0 mph NNE14.5 kmh NNE -- 30.20 in1022.7 mb 0.00 in0.0 mm 0.00 in0.0 mm 0.00 in0.0 mm
12:55 PM 74.0°F23.3°C 32.7°F0.4°C 22% 10.0 mph WNW16.1 kmh WNW -- 30.20 in1022.7 mb 0.00 in0.0 mm 0.00 in0.0 mm 0.00 in0.0 mm
12:56 PM 74.3°F23.5°C 33.0°F0.6°C 22% 10.0 mph NNW16.1 kmh NNW -- 30.20 in1022.7 mb 0.00 in0.0 mm 0.00 in0.0 mm 0.00 in0.0 mm
12:57 PM 74.3°F23.5°C 33.0°F0.6°C 22% 11.0 mph NNE17.7 kmh NNE -- 30.20 in1022.7 mb 0.00 in0.0 mm 0.00 in0.0 mm 0.00 in0.0 mm
12:58 PM 73.9°F23.3°C 32.7°F0.4°C 22% 9.0 mph NW14.5 kmh NW -- 30.20 in1022.7 mb 0.00 in0.0 mm 0.00 in0.0 mm 0.00 in0.0 mm
12:59 PM 73.9°F23.3°C 32.7°F0.4°C 22% 16.0 mph NNW25.7 kmh NNW -- 30.20 in1022.7 mb 0.00 in0.0 mm 0.00 in0.0 mm 0.00 in0.0 mm
01:00 PM 73.8°F23.2°C 32.5°F0.3°C 22% 12.0 mph ENE19.3 kmh ENE -- 30.20 in1022.7 mb 0.00 in0.0 mm 0.00 in0.0 mm 0.00 in0.0 mm
01:01 PM 73.5°F23.1°C 32.4°F0.2°C 22% 9.0 mph 14.5 kmh -- 30.20 in1022.7 mb 0.00 in0.0 mm 0.00 in0.0 mm 0.00 in0.0 mm
01:02 PM 73.5°F23.1°C 32.4°F0.2°C 22% 6.0 mph NNE9.7 kmh NNE -- 30.20 in1022.7 mb 0.00 in0.0 mm 0.00 in0.0 mm 0.00 in0.0 mm
01:03 PM 73.9°F23.3°C 32.7°F0.4°C 22% 5.0 mph NNW8.0 kmh NNW -- 30.19 in1022.4 mb 0.00 in0.0 mm 0.00 in0.0 mm 0.00 in0.0 mm
01:04 PM 74.0°F23.3°C 32.7°F0.4°C 22% 5.0 mph 8.0 kmh -- 30.19 in1022.4 mb 0.00 in0.0 mm 0.00 in0.0 mm 0.00 in0.0 mm
01:05 PM 74.4°F23.6°C 33.1°F0.6°C 22% 7.0 mph NNW11.3 kmh NNW -- 30.20 in1022.7 mb 0.00 in0.0 mm 0.00 in0.0 mm 0.00 in0.0 mm
01:06 PM 74.4°F23.6°C 33.1°F0.6°C 22% 17.0 mph NNE27.4 kmh NNE -- 30.20 in1022.7 mb 0.00 in0.0 mm 0.00 in0.0 mm 0.00 in0.0 mm
01:07 PM 74.3°F23.5°C 33.0°F0.6°C 22% 10.0 mph NNE16.1 kmh NNE -- 30.20 in1022.7 mb 0.00 in0.0 mm 0.00 in0.0 mm 0.00 in0.0 mm
01:08 PM 74.0°F23.3°C 32.7°F0.4°C 22% 14.0 mph NW22.5 kmh NW -- 30.19 in1022.4 mb 0.00 in0.0 mm 0.00 in0.0 mm 0.00 in0.0 mm
01:09 PM 74.0°F23.3°C 32.7°F0.4°C 22% 11.0 mph NNW17.7 kmh NNW -- 30.20 in1022.7 mb 0.00 in0.0 mm 0.00 in0.0 mm 0.00 in0.0 mm
01:10 PM 74.0°F23.3°C 32.7°F0.4°C 22% 12.0 mph NNW19.3 kmh NNW -- 30.20 in1022.7 mb 0.00 in0.0 mm 0.00 in0.0 mm 0.00 in0.0 mm
01:11 PM 74.0°F23.3°C 32.7°F0.4°C 22% 10.0 mph NNW16.1 kmh NNW -- 30.20 in1022.7 mb 0.00 in0.0 mm 0.00 in0.0 mm 0.00 in0.0 mm
01:12 PM 74.0°F23.3°C 32.7°F0.4°C 22% 9.0 mph NNW14.5 kmh NNW -- 30.19 in1022.4 mb 0.00 in0.0 mm 0.00 in0.0 mm 0.00 in0.0 mm
01:13 PM 73.9°F23.3°C 32.7°F0.4°C 22% 11.0 mph NNW17.7 kmh NNW -- 30.19 in1022.4 mb 0.00 in0.0 mm 0.00 in0.0 mm 0.00 in0.0 mm
01:14 PM 73.5°F23.1°C 32.4°F0.2°C 22% 9.0 mph NW14.5 kmh NW -- 30.19 in1022.4 mb 0.00 in0.0 mm 0.00 in0.0 mm 0.00 in0.0 mm
01:15 PM 73.5°F23.1°C 32.4°F0.2°C 22% 8.0 mph NNW12.9 kmh NNW -- 30.19 in1022.4 mb 0.00 in0.0 mm 0.00 in0.0 mm 0.00 in0.0 mm
01:16 PM 73.5°F23.1°C 32.4°F0.2°C 22% 7.0 mph W11.3 kmh W -- 30.19 in1022.4 mb 0.00 in0.0 mm 0.00 in0.0 mm 0.00 in0.0 mm
01:17 PM 73.8°F23.2°C 32.5°F0.3°C 22% 6.0 mph ENE9.7 kmh ENE -- 30.19 in1022.4 mb 0.00 in0.0 mm 0.00 in0.0 mm 0.00 in0.0 mm
01:18 PM 73.9°F23.3°C 34.8°F1.6°C 24% 11.0 mph 17.7 kmh -- 30.19 in1022.4 mb 0.00 in0.0 mm 0.00 in0.0 mm 0.00 in0.0 mm
01:19 PM 74.0°F23.3°C 32.7°F0.4°C 22% 18.0 mph NNW29.0 kmh NNW -- 30.19 in1022.4 mb 0.00 in0.0 mm 0.00 in0.0 mm 0.00 in0.0 mm
01:20 PM 73.8°F23.2°C 32.5°F0.3°C 22% 13.0 mph NNW20.9 kmh NNW -- 30.19 in1022.4 mb 0.00 in0.0 mm 0.00 in0.0 mm 0.00 in0.0 mm
01:21 PM 73.4°F23.0°C 32.2°F0.1°C 22% 13.0 mph 20.9 kmh -- 30.19 in1022.4 mb 0.00 in0.0 mm 0.00 in0.0 mm 0.00 in0.0 mm
01:22 PM 73.1°F22.8°C 31.9°F-0.1°C 22% 14.0 mph 22.5 kmh -- 30.19 in1022.4 mb 0.00 in0.0 mm 0.00 in0.0 mm 0.00 in0.0 mm
01:23 PM 73.0°F22.8°C 31.9°F-0.1°C 22% 11.0 mph 17.7 kmh -- 30.19 in1022.4 mb 0.00 in0.0 mm 0.00 in0.0 mm 0.00 in0.0 mm
01:24 PM 73.0°F22.8°C 31.9°F-0.1°C 22% 13.0 mph NNW20.9 kmh NNW -- 30.19 in1022.4 mb 0.00 in0.0 mm 0.00 in0.0 mm 0.00 in0.0 mm
01:25 PM 72.8°F22.7°C 31.8°F-0.1°C 22% 12.0 mph NNE19.3 kmh NNE -- 30.19 in1022.4 mb 0.00 in0.0 mm 0.00 in0.0 mm 0.00 in0.0 mm
01:26 PM 72.8°F22.7°C 33.9°F1.1°C 24% 9.0 mph NNW14.5 kmh NNW -- 30.19 in1022.4 mb 0.00 in0.0 mm 0.00 in0.0 mm 0.00 in0.0 mm
01:27 PM 73.0°F22.8°C 34.1°F1.2°C 24% 12.0 mph NNW19.3 kmh NNW -- 30.19 in1022.4 mb 0.00 in0.0 mm 0.00 in0.0 mm 0.00 in0.0 mm
01:28 PM 73.0°F22.8°C 34.1°F1.2°C 24% 13.0 mph NNW20.9 kmh NNW -- 30.19 in1022.4 mb 0.00 in0.0 mm 0.00 in0.0 mm 0.00 in0.0 mm
01:29 PM 73.1°F22.8°C 34.1°F1.2°C 24% 9.0 mph ENE14.5 kmh ENE -- 30.19 in1022.4 mb 0.00 in0.0 mm 0.00 in0.0 mm 0.00 in0.0 mm
01:30 PM 73.9°F23.3°C 34.8°F1.6°C 24% 10.0 mph 16.1 kmh -- 30.19 in1022.4 mb 0.00 in0.0 mm 0.00 in0.0 mm 0.00 in0.0 mm
01:31 PM 73.9°F23.3°C 34.8°F1.6°C 24% 8.0 mph NNW12.9 kmh NNW -- 30.19 in1022.4 mb 0.00 in0.0 mm 0.00 in0.0 mm 0.00 in0.0 mm
01:32 PM 74.0°F23.3°C 34.8°F1.6°C 24% 14.0 mph WNW22.5 kmh WNW -- 30.19 in1022.4 mb 0.00 in0.0 mm 0.00 in0.0 mm 0.00 in0.0 mm
01:33 PM 73.9°F23.3°C 32.7°F0.4°C 22% 10.0 mph NNE16.1 kmh NNE -- 30.19 in1022.4 mb 0.00 in0.0 mm 0.00 in0.0 mm 0.00 in0.0 mm
01:34 PM 73.8°F23.2°C 34.7°F1.5°C 24% 10.0 mph NNE16.1 kmh NNE -- 30.19 in1022.4 mb 0.00 in0.0 mm 0.00 in0.0 mm 0.00 in0.0 mm
01:35 PM 73.9°F23.3°C 34.8°F1.6°C 24% 12.0 mph NNE19.3 kmh NNE -- 30.19 in1022.4 mb 0.00 in0.0 mm 0.00 in0.0 mm 0.00 in0.0 mm
01:36 PM 73.9°F23.3°C 34.8°F1.6°C 24% 7.0 mph ENE11.3 kmh ENE -- 30.19 in1022.4 mb 0.00 in0.0 mm 0.00 in0.0 mm 0.00 in0.0 mm
01:37 PM 74.4°F23.6°C 35.3°F1.8°C 24% 9.0 mph 14.5 kmh -- 30.19 in1022.4 mb 0.00 in0.0 mm 0.00 in0.0 mm 0.00 in0.0 mm
01:38 PM 74.6°F23.7°C 35.4°F1.9°C 24% 13.0 mph 20.9 kmh -- 30.19 in1022.4 mb 0.00 in0.0 mm 0.00 in0.0 mm 0.00 in0.0 mm
01:39 PM 74.4°F23.6°C 33.1°F0.6°C 22% 11.0 mph NNW17.7 kmh NNW -- 30.19 in1022.4 mb 0.00 in0.0 mm 0.00 in0.0 mm 0.00 in0.0 mm
01:40 PM 74.4°F23.6°C 33.1°F0.6°C 22% 9.0 mph NNW14.5 kmh NNW -- 30.19 in1022.4 mb 0.00 in0.0 mm 0.00 in0.0 mm 0.00 in0.0 mm
01:41 PM 74.4°F23.6°C 33.1°F0.6°C 22% 9.0 mph NW14.5 kmh NW -- 30.18 in1022.0 mb 0.00 in0.0 mm 0.00 in0.0 mm 0.00 in0.0 mm
01:42 PM 74.4°F23.6°C 33.1°F0.6°C 22% 5.0 mph 8.0 kmh -- 30.18 in1022.0 mb 0.00 in0.0 mm 0.00 in0.0 mm 0.00 in0.0 mm
01:43 PM 74.6°F23.7°C 35.4°F1.9°C 24% 12.0 mph NW19.3 kmh NW -- 30.18 in1022.0 mb 0.00 in0.0 mm 0.00 in0.0 mm 0.00 in0.0 mm
01:44 PM 74.6°F23.7°C 33.3°F0.7°C 22% 16.0 mph NNW25.7 kmh NNW -- 30.19 in1022.4 mb 0.00 in0.0 mm 0.00 in0.0 mm 0.00 in0.0 mm
01:45 PM 74.0°F23.3°C 32.7°F0.4°C 22% 13.0 mph NNW20.9 kmh NNW -- 30.19 in1022.4 mb 0.00 in0.0 mm 0.00 in0.0 mm 0.00 in0.0 mm
01:46 PM 73.9°F23.3°C 32.7°F0.4°C 22% 10.0 mph 16.1 kmh -- 30.19 in1022.4 mb 0.00 in0.0 mm 0.00 in0.0 mm 0.00 in0.0 mm
01:47 PM 74.0°F23.3°C 32.7°F0.4°C 22% 10.0 mph WNW16.1 kmh WNW -- 30.19 in1022.4 mb 0.00 in0.0 mm 0.00 in0.0 mm 0.00 in0.0 mm
01:48 PM 74.3°F23.5°C 33.0°F0.6°C 22% 9.0 mph NNE14.5 kmh NNE -- 30.19 in1022.4 mb 0.00 in0.0 mm 0.00 in0.0 mm 0.00 in0.0 mm
01:49 PM 74.3°F23.5°C 35.1°F1.7°C 24% 8.0 mph NW12.9 kmh NW -- 30.19 in1022.4 mb 0.00 in0.0 mm 0.00 in0.0 mm 0.00 in0.0 mm
01:50 PM 74.6°F23.7°C 35.4°F1.9°C 24% 7.0 mph NNE11.3 kmh NNE -- 30.19 in1022.4 mb 0.00 in0.0 mm 0.00 in0.0 mm 0.00 in0.0 mm
01:51 PM 74.6°F23.7°C 36.5°F2.5°C 25% 5.0 mph NNW8.0 kmh NNW -- 30.18 in1022.0 mb 0.00 in0.0 mm 0.00 in0.0 mm 0.00 in0.0 mm
01:52 PM 74.8°F23.8°C 36.6°F2.6°C 25% 8.0 mph NE12.9 kmh NE -- 30.18 in1022.0 mb 0.00 in0.0 mm 0.00 in0.0 mm 0.00 in0.0 mm
01:53 PM 75.1°F23.9°C 35.8°F2.1°C 24% 13.0 mph NNW20.9 kmh NNW -- 30.18 in1022.0 mb 0.00 in0.0 mm 0.00 in0.0 mm 0.00 in0.0 mm
01:54 PM 75.0°F23.9°C 33.6°F0.9°C 22% 9.0 mph 14.5 kmh -- 30.18 in1022.0 mb 0.00 in0.0 mm 0.00 in0.0 mm 0.00 in0.0 mm
01:55 PM 75.0°F23.9°C 33.6°F0.9°C 22% 8.0 mph 12.9 kmh -- 30.18 in1022.0 mb 0.00 in0.0 mm 0.00 in0.0 mm 0.00 in0.0 mm
01:56 PM 74.8°F23.8°C 35.6°F2.0°C 24% 7.0 mph 11.3 kmh -- 30.18 in1022.0 mb 0.00 in0.0 mm 0.00 in0.0 mm 0.00 in0.0 mm
01:57 PM 74.8°F23.8°C 35.6°F2.0°C 24% 11.0 mph E17.7 kmh E -- 30.18 in1022.0 mb 0.00 in0.0 mm 0.00 in0.0 mm 0.00 in0.0 mm
01:58 PM 74.6°F23.7°C 35.4°F1.9°C 24% 17.0 mph ENE27.4 kmh ENE -- 30.18 in1022.0 mb 0.00 in0.0 mm 0.00 in0.0 mm 0.00 in0.0 mm
01:59 PM 74.8°F23.8°C 35.6°F2.0°C 24% 15.0 mph NNW24.1 kmh NNW -- 30.18 in1022.0 mb 0.00 in0.0 mm 0.00 in0.0 mm 0.00 in0.0 mm
02:00 PM 74.6°F23.7°C 35.4°F1.9°C 24% 9.0 mph NNW14.5 kmh NNW -- 30.18 in1022.0 mb 0.00 in0.0 mm 0.00 in0.0 mm 0.00 in0.0 mm
02:01 PM 74.6°F23.7°C 35.4°F1.9°C 24% 10.0 mph NW16.1 kmh NW -- 30.18 in1022.0 mb 0.00 in0.0 mm 0.00 in0.0 mm 0.00 in0.0 mm
02:02 PM 74.4°F23.6°C 35.3°F1.8°C 24% 14.0 mph NNW22.5 kmh NNW -- 30.18 in1022.0 mb 0.00 in0.0 mm 0.00 in0.0 mm 0.00 in0.0 mm
02:03 PM 74.3°F23.5°C 35.1°F1.7°C 24% 10.0 mph 16.1 kmh -- 30.18 in1022.0 mb 0.00 in0.0 mm 0.00 in0.0 mm 0.00 in0.0 mm
02:04 PM 74.3°F23.5°C 35.1°F1.7°C 24% 11.0 mph NNE17.7 kmh NNE -- 30.18 in1022.0 mb 0.00 in0.0 mm 0.00 in0.0 mm 0.00 in0.0 mm
02:05 PM 74.0°F23.3°C 34.8°F1.6°C 24% 11.0 mph NNW17.7 kmh NNW -- 30.18 in1022.0 mb 0.00 in0.0 mm 0.00 in0.0 mm 0.00 in0.0 mm
02:06 PM 74.0°F23.3°C 34.8°F1.6°C 24% 10.0 mph NNE16.1 kmh NNE -- 30.18 in1022.0 mb 0.00 in0.0 mm 0.00 in0.0 mm 0.00 in0.0 mm
02:07 PM 74.0°F23.3°C 34.8°F1.6°C 24% 8.0 mph NNW12.9 kmh NNW -- 30.18 in1022.0 mb 0.00 in0.0 mm 0.00 in0.0 mm 0.00 in0.0 mm
02:08 PM 74.4°F23.6°C 35.3°F1.8°C 24% 10.0 mph NW16.1 kmh NW -- 30.18 in1022.0 mb 0.00 in0.0 mm 0.00 in0.0 mm 0.00 in0.0 mm
02:09 PM 74.3°F23.5°C 35.1°F1.7°C 24% 13.0 mph 20.9 kmh -- 30.18 in1022.0 mb 0.00 in0.0 mm 0.00 in0.0 mm 0.00 in0.0 mm
02:10 PM 74.0°F23.3°C 34.8°F1.6°C 24% 8.0 mph 12.9 kmh -- 30.18 in1022.0 mb 0.00 in0.0 mm 0.00 in0.0 mm 0.00 in0.0 mm
02:11 PM 74.3°F23.5°C 36.2°F2.3°C 25% 13.0 mph NNW20.9 kmh NNW -- 30.18 in1022.0 mb 0.00 in0.0 mm 0.00 in0.0 mm 0.00 in0.0 mm
02:12 PM 74.4°F23.6°C 35.3°F1.8°C 24% 12.0 mph NNE19.3 kmh NNE -- 30.18 in1022.0 mb 0.00 in0.0 mm 0.00 in0.0 mm 0.00 in0.0 mm
02:13 PM 74.6°F23.7°C 35.4°F1.9°C 24% 10.0 mph 16.1 kmh -- 30.18 in1022.0 mb 0.00 in0.0 mm 0.00 in0.0 mm 0.00 in0.0 mm
02:14 PM 74.8°F23.8°C 36.6°F2.6°C 25% 11.0 mph NNW17.7 kmh NNW -- 30.18 in1022.0 mb 0.00 in0.0 mm 0.00 in0.0 mm 0.00 in0.0 mm
02:15 PM 74.8°F23.8°C 35.6°F2.0°C 24% 8.0 mph NW12.9 kmh NW -- 30.18 in1022.0 mb 0.00 in0.0 mm 0.00 in0.0 mm 0.00 in0.0 mm
02:16 PM 74.6°F23.7°C 35.4°F1.9°C 24% 11.0 mph NNW17.7 kmh NNW -- 30.18 in1022.0 mb 0.00 in0.0 mm 0.00 in0.0 mm 0.00 in0.0 mm
02:17 PM 74.6°F23.7°C 35.4°F1.9°C 24% 6.0 mph NNW9.7 kmh NNW -- 30.18 in1022.0 mb 0.00 in0.0 mm 0.00 in0.0 mm 0.00 in0.0 mm
02:18 PM 74.6°F23.7°C 35.4°F1.9°C 24% 10.0 mph NNE16.1 kmh NNE -- 30.18 in1022.0 mb 0.00 in0.0 mm 0.00 in0.0 mm 0.00 in0.0 mm
02:19 PM 74.6°F23.7°C 35.4°F1.9°C 24% 13.0 mph NNW20.9 kmh NNW -- 30.18 in1022.0 mb 0.00 in0.0 mm 0.00 in0.0 mm 0.00 in0.0 mm
02:20 PM 74.4°F23.6°C 35.3°F1.8°C 24% 15.0 mph NNW24.1 kmh NNW -- 30.18 in1022.0 mb 0.00 in0.0 mm 0.00 in0.0 mm 0.00 in0.0 mm
02:21 PM 74.3°F23.5°C 35.1°F1.7°C 24% 13.0 mph NE20.9 kmh NE -- 30.18 in1022.0 mb 0.00 in0.0 mm 0.00 in0.0 mm 0.00 in0.0 mm
02:22 PM 74.0°F23.3°C 34.8°F1.6°C 24% 15.0 mph NNE24.1 kmh NNE -- 30.18 in1022.0 mb 0.00 in0.0 mm 0.00 in0.0 mm 0.00 in0.0 mm
02:23 PM 73.9°F23.3°C 34.8°F1.6°C 24% 8.0 mph 12.9 kmh -- 30.18 in1022.0 mb 0.00 in0.0 mm 0.00 in0.0 mm 0.00 in0.0 mm
02:24 PM 73.9°F23.3°C 34.8°F1.6°C 24% 6.0 mph NNW9.7 kmh NNW -- 30.18 in1022.0 mb 0.00 in0.0 mm 0.00 in0.0 mm 0.00 in0.0 mm
02:25 PM 74.3°F23.5°C 36.2°F2.3°C 25% 7.0 mph NNE11.3 kmh NNE -- 30.18 in1022.0 mb 0.00 in0.0 mm 0.00 in0.0 mm 0.00 in0.0 mm
02:26 PM 74.4°F23.6°C 36.3°F2.4°C 25% 7.0 mph NW11.3 kmh NW -- 30.18 in1022.0 mb 0.00 in0.0 mm 0.00 in0.0 mm 0.00 in0.0 mm
02:27 PM 75.0°F23.9°C 36.8°F2.7°C 25% 9.0 mph NW14.5 kmh NW -- 30.18 in1022.0 mb 0.00 in0.0 mm 0.00 in0.0 mm 0.00 in0.0 mm
02:28 PM 75.0°F23.9°C 36.8°F2.7°C 25% 9.0 mph NNW14.5 kmh NNW -- 30.18 in1022.0 mb 0.00 in0.0 mm 0.00 in0.0 mm 0.00 in0.0 mm
02:29 PM 75.1°F23.9°C 36.8°F2.7°C 25% 13.0 mph 20.9 kmh -- 30.18 in1022.0 mb 0.00 in0.0 mm 0.00 in0.0 mm 0.00 in0.0 mm
02:30 PM 74.6°F23.7°C 36.5°F2.5°C 25% 18.0 mph NNW29.0 kmh NNW -- 30.18 in1022.0 mb 0.00 in0.0 mm 0.00 in0.0 mm 0.00 in0.0 mm
02:31 PM 74.3°F23.5°C 36.2°F2.3°C 25% 12.0 mph ENE19.3 kmh ENE -- 30.18 in1022.0 mb 0.00 in0.0 mm 0.00 in0.0 mm 0.00 in0.0 mm
02:32 PM 74.0°F23.3°C 35.9°F2.2°C 25% 8.0 mph NNE12.9 kmh NNE -- 30.18 in1022.0 mb 0.00 in0.0 mm 0.00 in0.0 mm 0.00 in0.0 mm
02:33 PM 73.8°F23.2°C 35.7°F2.1°C 25% 6.0 mph W9.7 kmh W -- 30.18 in1022.0 mb 0.00 in0.0 mm 0.00 in0.0 mm 0.00 in0.0 mm
02:34 PM 73.9°F23.3°C 35.9°F2.2°C 25% 7.0 mph NW11.3 kmh NW -- 30.18 in1022.0 mb 0.00 in0.0 mm 0.00 in0.0 mm 0.00 in0.0 mm
02:35 PM 74.3°F23.5°C 36.2°F2.3°C 25% 7.0 mph WNW11.3 kmh WNW -- 30.18 in1022.0 mb 0.00 in0.0 mm 0.00 in0.0 mm 0.00 in0.0 mm
02:36 PM 74.4°F23.6°C 38.3°F3.5°C 27% 6.0 mph NNE9.7 kmh NNE -- 30.18 in1022.0 mb 0.00 in0.0 mm 0.00 in0.0 mm 0.00 in0.0 mm
02:37 PM 74.8°F23.8°C 36.6°F2.6°C 25% 9.0 mph 14.5 kmh -- 30.18 in1022.0 mb 0.00 in0.0 mm 0.00 in0.0 mm 0.00 in0.0 mm
02:38 PM 74.8°F23.8°C 36.6°F2.6°C 25% 11.0 mph NNW17.7 kmh NNW -- 30.18 in1022.0 mb 0.00 in0.0 mm 0.00 in0.0 mm 0.00 in0.0 mm
02:39 PM 74.6°F23.7°C 36.5°F2.5°C 25% 7.0 mph S11.3 kmh S -- 30.18 in1022.0 mb 0.00 in0.0 mm 0.00 in0.0 mm 0.00 in0.0 mm
02:40 PM 74.6°F23.7°C 38.4°F3.6°C 27% 7.0 mph NNE11.3 kmh NNE -- 30.18 in1022.0 mb 0.00 in0.0 mm 0.00 in0.0 mm 0.00 in0.0 mm
02:41 PM 75.0°F23.9°C 36.8°F2.7°C 25% 6.0 mph NNE9.7 kmh NNE -- 30.18 in1022.0 mb 0.00 in0.0 mm 0.00 in0.0 mm 0.00 in0.0 mm
02:42 PM 74.6°F23.7°C 36.5°F2.5°C 25% 8.0 mph WNW12.9 kmh WNW -- 30.18 in1022.0 mb 0.00 in0.0 mm 0.00 in0.0 mm 0.00 in0.0 mm
02:43 PM 74.4°F23.6°C 36.3°F2.4°C 25% 6.0 mph W9.7 kmh W -- 30.18 in1022.0 mb 0.00 in0.0 mm 0.00 in0.0 mm 0.00 in0.0 mm
02:44 PM 74.6°F23.7°C 36.5°F2.5°C 25% 9.0 mph WNW14.5 kmh WNW -- 30.18 in1022.0 mb 0.00 in0.0 mm 0.00 in0.0 mm 0.00 in0.0 mm
02:45 PM 74.4°F23.6°C 36.3°F2.4°C 25% 5.0 mph ENE8.0 kmh ENE -- 30.18 in1022.0 mb 0.00 in0.0 mm 0.00 in0.0 mm 0.00 in0.0 mm
02:46 PM 74.8°F23.8°C 36.6°F2.6°C 25% 8.0 mph 12.9 kmh -- 30.18 in1022.0 mb 0.00 in0.0 mm 0.00 in0.0 mm 0.00 in0.0 mm
02:47 PM 75.0°F23.9°C 36.8°F2.7°C 25% 11.0 mph NNE17.7 kmh NNE -- 30.18 in1022.0 mb 0.00 in0.0 mm 0.00 in0.0 mm 0.00 in0.0 mm
02:48 PM 75.0°F23.9°C 36.8°F2.7°C 25% 5.0 mph NE8.0 kmh NE -- 30.18 in1022.0 mb 0.00 in0.0 mm 0.00 in0.0 mm 0.00 in0.0 mm
02:49 PM 74.6°F23.7°C 36.5°F2.5°C 25% 9.0 mph ENE14.5 kmh ENE -- 30.18 in1022.0 mb 0.00 in0.0 mm 0.00 in0.0 mm 0.00 in0.0 mm
02:50 PM 74.4°F23.6°C 36.3°F2.4°C 25% 11.0 mph ENE17.7 kmh ENE -- 30.18 in1022.0 mb 0.00 in0.0 mm 0.00 in0.0 mm 0.00 in0.0 mm
02:51 PM 74.3°F23.5°C 36.2°F2.3°C 25% 11.0 mph NE17.7 kmh NE -- 30.18 in1022.0 mb 0.00 in0.0 mm 0.00 in0.0 mm 0.00 in0.0 mm
02:52 PM 74.0°F23.3°C 35.9°F2.2°C 25% 10.0 mph ENE16.1 kmh ENE -- 30.18 in1022.0 mb 0.00 in0.0 mm 0.00 in0.0 mm 0.00 in0.0 mm
02:53 PM 73.9°F23.3°C 35.9°F2.2°C 25% 11.0 mph 17.7 kmh -- 30.17 in1021.7 mb 0.00 in0.0 mm 0.00 in0.0 mm 0.00 in0.0 mm
02:54 PM 73.9°F23.3°C 37.8°F3.2°C 27% 15.0 mph ENE24.1 kmh ENE -- 30.17 in1021.7 mb 0.00 in0.0 mm 0.00 in0.0 mm 0.00 in0.0 mm
02:55 PM 74.0°F23.3°C 37.8°F3.2°C 27% 9.0 mph ENE14.5 kmh ENE -- 30.18 in1022.0 mb 0.00 in0.0 mm 0.00 in0.0 mm 0.00 in0.0 mm
02:56 PM 74.3°F23.5°C 38.1°F3.4°C 27% 9.0 mph NNE14.5 kmh NNE -- 30.18 in1022.0 mb 0.00 in0.0 mm 0.00 in0.0 mm 0.00 in0.0 mm
02:57 PM 74.0°F23.3°C 37.8°F3.2°C 27% 8.0 mph NNW12.9 kmh NNW -- 30.18 in1022.0 mb 0.00 in0.0 mm 0.00 in0.0 mm 0.00 in0.0 mm
02:58 PM 74.0°F23.3°C 37.8°F3.2°C 27% 7.0 mph NNE11.3 kmh NNE -- 30.17 in1021.7 mb 0.00 in0.0 mm 0.00 in0.0 mm 0.00 in0.0 mm
02:59 PM 74.0°F23.3°C 37.8°F3.2°C 27% 6.0 mph E9.7 kmh E -- 30.17 in1021.7 mb 0.00 in0.0 mm 0.00 in0.0 mm 0.00 in0.0 mm
03:00 PM 73.9°F23.3°C 37.8°F3.2°C 27% 13.0 mph NE20.9 kmh NE -- 30.18 in1022.0 mb 0.00 in0.0 mm 0.00 in0.0 mm 0.00 in0.0 mm
03:01 PM 74.0°F23.3°C 37.8°F3.2°C 27% 10.0 mph ENE16.1 kmh ENE -- 30.18 in1022.0 mb 0.00 in0.0 mm 0.00 in0.0 mm 0.00 in0.0 mm
03:02 PM 74.0°F23.3°C 37.8°F3.2°C 27% 9.0 mph ESE14.5 kmh ESE -- 30.18 in1022.0 mb 0.00 in0.0 mm 0.00 in0.0 mm 0.00 in0.0 mm
03:03 PM 73.9°F23.3°C 37.8°F3.2°C 27% 10.0 mph NE16.1 kmh NE -- 30.18 in1022.0 mb 0.00 in0.0 mm 0.00 in0.0 mm 0.00 in0.0 mm
03:04 PM 73.9°F23.3°C 37.8°F3.2°C 27% 10.0 mph ENE16.1 kmh ENE -- 30.18 in1022.0 mb 0.00 in0.0 mm 0.00 in0.0 mm 0.00 in0.0 mm
03:05 PM 73.9°F23.3°C 35.9°F2.2°C 25% 10.0 mph NNE16.1 kmh NNE -- 30.18 in1022.0 mb 0.00 in0.0 mm 0.00 in0.0 mm 0.00 in0.0 mm
03:06 PM 73.9°F23.3°C 37.8°F3.2°C 27% 9.0 mph ENE14.5 kmh ENE -- 30.18 in1022.0 mb 0.00 in0.0 mm 0.00 in0.0 mm 0.00 in0.0 mm
03:07 PM 74.3°F23.5°C 38.1°F3.4°C 27% 8.0 mph NE12.9 kmh NE -- 30.18 in1022.0 mb 0.00 in0.0 mm 0.00 in0.0 mm 0.00 in0.0 mm
03:08 PM 74.4°F23.6°C 38.3°F3.5°C 27% 6.0 mph ENE9.7 kmh ENE -- 30.18 in1022.0 mb 0.00 in0.0 mm 0.00 in0.0 mm 0.00 in0.0 mm
03:09 PM 74.6°F23.7°C 38.4°F3.6°C 27% 8.0 mph NE12.9 kmh NE -- 30.18 in1022.0 mb 0.00 in0.0 mm 0.00 in0.0 mm 0.00 in0.0 mm
03:10 PM 74.4°F23.6°C 38.3°F3.5°C 27% 9.0 mph NNE14.5 kmh NNE -- 30.18 in1022.0 mb 0.00 in0.0 mm 0.00 in0.0 mm 0.00 in0.0 mm
03:11 PM 74.4°F23.6°C 38.3°F3.5°C 27% 8.0 mph NNE12.9 kmh NNE -- 30.18 in1022.0 mb 0.00 in0.0 mm 0.00 in0.0 mm 0.00 in0.0 mm
03:12 PM 74.3°F23.5°C 38.1°F3.4°C 27% 8.0 mph E12.9 kmh E -- 30.18 in1022.0 mb 0.00 in0.0 mm 0.00 in0.0 mm 0.00 in0.0 mm
03:13 PM 74.0°F23.3°C 35.9°F2.2°C 25% 8.0 mph NE12.9 kmh NE -- 30.18 in1022.0 mb 0.00 in0.0 mm 0.00 in0.0 mm 0.00 in0.0 mm
03:14 PM 74.0°F23.3°C 35.9°F2.2°C 25% 5.0 mph E8.0 kmh E -- 30.18 in1022.0 mb 0.00 in0.0 mm 0.00 in0.0 mm 0.00 in0.0 mm
03:15 PM 74.3°F23.5°C 36.2°F2.3°C 25% 7.0 mph ESE11.3 kmh ESE -- 30.18 in1022.0 mb 0.00 in0.0 mm 0.00 in0.0 mm 0.00 in0.0 mm
03:16 PM 74.6°F23.7°C 38.4°F3.6°C 27% 16.0 mph ENE25.7 kmh ENE -- 30.18 in1022.0 mb 0.00 in0.0 mm 0.00 in0.0 mm 0.00 in0.0 mm
03:17 PM 74.6°F23.7°C 38.4°F3.6°C 27% 10.0 mph 16.1 kmh -- 30.18 in1022.0 mb 0.00 in0.0 mm 0.00 in0.0 mm 0.00 in0.0 mm
03:18 PM 74.3°F23.5°C 38.1°F3.4°C 27% 12.0 mph NNE19.3 kmh NNE -- 30.18 in1022.0 mb 0.00 in0.0 mm 0.00 in0.0 mm 0.00 in0.0 mm
03:19 PM 74.0°F23.3°C 37.8°F3.2°C 27% 10.0 mph NE16.1 kmh NE -- 30.18 in1022.0 mb 0.00 in0.0 mm 0.00 in0.0 mm 0.00 in0.0 mm
03:20 PM 74.3°F23.5°C 38.1°F3.4°C 27% 9.0 mph ENE14.5 kmh ENE -- 30.18 in1022.0 mb 0.00 in0.0 mm 0.00 in0.0 mm 0.00 in0.0 mm
03:21 PM 73.9°F23.3°C 37.8°F3.2°C 27% 9.0 mph ENE14.5 kmh ENE -- 30.18 in1022.0 mb 0.00 in0.0 mm 0.00 in0.0 mm 0.00 in0.0 mm
03:22 PM 73.8°F23.2°C 37.6°F3.1°C 27% 12.0 mph NE19.3 kmh NE -- 30.18 in1022.0 mb 0.00 in0.0 mm 0.00 in0.0 mm 0.00 in0.0 mm
03:23 PM 73.4°F23.0°C 37.3°F2.9°C 27% 13.0 mph NE20.9 kmh NE -- 30.19 in1022.4 mb 0.00 in0.0 mm 0.00 in0.0 mm 0.00 in0.0 mm
03:24 PM 72.8°F22.7°C 38.7°F3.7°C 29% 8.0 mph NNE12.9 kmh NNE -- 30.19 in1022.4 mb 0.00 in0.0 mm 0.00 in0.0 mm 0.00 in0.0 mm
03:25 PM 73.0°F22.8°C 38.8°F3.8°C 29% 5.0 mph NE8.0 kmh NE -- 30.18 in1022.0 mb 0.00 in0.0 mm 0.00 in0.0 mm 0.00 in0.0 mm
03:26 PM 73.0°F22.8°C 37.0°F2.8°C 27% 5.0 mph E8.0 kmh E -- 30.18 in1022.0 mb 0.00 in0.0 mm 0.00 in0.0 mm 0.00 in0.0 mm
03:27 PM 73.5°F23.1°C 37.5°F3.1°C 27% 12.0 mph NNE19.3 kmh NNE -- 30.18 in1022.0 mb 0.00 in0.0 mm 0.00 in0.0 mm 0.00 in0.0 mm
03:28 PM 73.5°F23.1°C 37.5°F3.1°C 27% 12.0 mph NE19.3 kmh NE -- 30.18 in1022.0 mb 0.00 in0.0 mm 0.00 in0.0 mm 0.00 in0.0 mm
03:29 PM 73.5°F23.1°C 37.5°F3.1°C 27% 7.0 mph W11.3 kmh W -- 30.18 in1022.0 mb 0.00 in0.0 mm 0.00 in0.0 mm 0.00 in0.0 mm
03:30 PM 73.9°F23.3°C 37.8°F3.2°C 27% 10.0 mph E16.1 kmh E -- 30.18 in1022.0 mb 0.00 in0.0 mm 0.00 in0.0 mm 0.00 in0.0 mm
03:31 PM 73.8°F23.2°C 37.6°F3.1°C 27% 10.0 mph NNE16.1 kmh NNE -- 30.18 in1022.0 mb 0.00 in0.0 mm 0.00 in0.0 mm 0.00 in0.0 mm
03:32 PM 73.8°F23.2°C 37.6°F3.1°C 27% 15.0 mph NNE24.1 kmh NNE -- 30.18 in1022.0 mb 0.00 in0.0 mm 0.00 in0.0 mm 0.00 in0.0 mm
03:33 PM 73.8°F23.2°C 37.6°F3.1°C 27% 11.0 mph 17.7 kmh -- 30.18 in1022.0 mb 0.00 in0.0 mm 0.00 in0.0 mm 0.00 in0.0 mm
03:34 PM 73.5°F23.1°C 37.5°F3.1°C 27% 10.0 mph NNE16.1 kmh NNE -- 30.18 in1022.0 mb 0.00 in0.0 mm 0.00 in0.0 mm 0.00 in0.0 mm
03:35 PM 73.5°F23.1°C 37.5°F3.1°C 27% 12.0 mph NNE19.3 kmh NNE -- 30.18 in1022.0 mb 0.00 in0.0 mm 0.00 in0.0 mm 0.00 in0.0 mm
03:36 PM 73.1°F22.8°C 38.8°F3.8°C 29% 10.0 mph NE16.1 kmh NE -- 30.18 in1022.0 mb 0.00 in0.0 mm 0.00 in0.0 mm 0.00 in0.0 mm
03:37 PM 73.4°F23.0°C 37.3°F2.9°C 27% 8.0 mph E12.9 kmh E -- 30.18 in1022.0 mb 0.00 in0.0 mm 0.00 in0.0 mm 0.00 in0.0 mm
03:38 PM 73.1°F22.8°C 37.0°F2.8°C 27% 5.0 mph NE8.0 kmh NE -- 30.18 in1022.0 mb 0.00 in0.0 mm 0.00 in0.0 mm 0.00 in0.0 mm
03:39 PM 73.5°F23.1°C 37.5°F3.1°C 27% 10.0 mph NNE16.1 kmh NNE -- 30.18 in1022.0 mb 0.00 in0.0 mm 0.00 in0.0 mm 0.00 in0.0 mm
03:40 PM 73.9°F23.3°C 39.6°F4.2°C 29% 10.0 mph NNE16.1 kmh NNE -- 30.18 in1022.0 mb 0.00 in0.0 mm 0.00 in0.0 mm 0.00 in0.0 mm
03:41 PM 73.8°F23.2°C 37.6°F3.1°C 27% 6.0 mph NNE9.7 kmh NNE -- 30.18 in1022.0 mb 0.00 in0.0 mm 0.00 in0.0 mm 0.00 in0.0 mm
03:42 PM 73.5°F23.1°C 37.5°F3.1°C 27% 13.0 mph ESE20.9 kmh ESE -- 30.18 in1022.0 mb 0.00 in0.0 mm 0.00 in0.0 mm 0.00 in0.0 mm
03:43 PM 73.1°F22.8°C 37.0°F2.8°C 27% 8.0 mph E12.9 kmh E -- 30.18 in1022.0 mb 0.00 in0.0 mm 0.00 in0.0 mm 0.00 in0.0 mm
03:44 PM 73.1°F22.8°C 37.0°F2.8°C 27% 7.0 mph NW11.3 kmh NW -- 30.18 in1022.0 mb 0.00 in0.0 mm 0.00 in0.0 mm 0.00 in0.0 mm
03:45 PM 73.0°F22.8°C 38.8°F3.8°C 29% 9.0 mph ENE14.5 kmh ENE -- 30.18 in1022.0 mb 0.00 in0.0 mm 0.00 in0.0 mm 0.00 in0.0 mm
03:46 PM 73.0°F22.8°C 38.8°F3.8°C 29% 7.0 mph NNE11.3 kmh NNE -- 30.18 in1022.0 mb 0.00 in0.0 mm 0.00 in0.0 mm 0.00 in0.0 mm
03:47 PM 73.0°F22.8°C 38.8°F3.8°C 29% 14.0 mph NNE22.5 kmh NNE -- 30.18 in1022.0 mb 0.00 in0.0 mm 0.00 in0.0 mm 0.00 in0.0 mm
03:48 PM 72.8°F22.7°C 38.7°F3.7°C 29% 9.0 mph ENE14.5 kmh ENE -- 30.18 in1022.0 mb 0.00 in0.0 mm 0.00 in0.0 mm 0.00 in0.0 mm
03:49 PM 72.6°F22.6°C 38.5°F3.6°C 29% 14.0 mph NE22.5 kmh NE -- 30.18 in1022.0 mb 0.00 in0.0 mm 0.00 in0.0 mm 0.00 in0.0 mm
03:50 PM 72.3°F22.4°C 38.2°F3.4°C 29% 10.0 mph ENE16.1 kmh ENE -- 30.18 in1022.0 mb 0.00 in0.0 mm 0.00 in0.0 mm 0.00 in0.0 mm
03:51 PM 72.5°F22.5°C 38.4°F3.6°C 29% 9.0 mph ENE14.5 kmh ENE -- 30.18 in1022.0 mb 0.00 in0.0 mm 0.00 in0.0 mm 0.00 in0.0 mm
03:52 PM 72.6°F22.6°C 38.5°F3.6°C 29% 9.0 mph NE14.5 kmh NE -- 30.18 in1022.0 mb 0.00 in0.0 mm 0.00 in0.0 mm 0.00 in0.0 mm
03:53 PM 72.6°F22.6°C 39.4°F4.1°C 30% 8.0 mph NE12.9 kmh NE -- 30.18 in1022.0 mb 0.00 in0.0 mm 0.00 in0.0 mm 0.00 in0.0 mm
03:54 PM 73.0°F22.8°C 38.8°F3.8°C 29% 6.0 mph ENE9.7 kmh ENE -- 30.18 in1022.0 mb 0.00 in0.0 mm 0.00 in0.0 mm 0.00 in0.0 mm
03:55 PM 73.0°F22.8°C 38.8°F3.8°C 29% 6.0 mph 9.7 kmh -- 30.18 in1022.0 mb 0.00 in0.0 mm 0.00 in0.0 mm 0.00 in0.0 mm
03:56 PM 73.1°F22.8°C 37.0°F2.8°C 27% 15.0 mph NNE24.1 kmh NNE -- 30.18 in1022.0 mb 0.00 in0.0 mm 0.00 in0.0 mm 0.00 in0.0 mm
03:57 PM 73.1°F22.8°C 37.0°F2.8°C 27% 10.0 mph NNE16.1 kmh NNE -- 30.18 in1022.0 mb 0.00 in0.0 mm 0.00 in0.0 mm 0.00 in0.0 mm
03:58 PM 73.0°F22.8°C 38.8°F3.8°C 29% 10.0 mph NW16.1 kmh NW -- 30.18 in1022.0 mb 0.00 in0.0 mm 0.00 in0.0 mm 0.00 in0.0 mm
03:59 PM 73.0°F22.8°C 38.8°F3.8°C 29% 14.0 mph NNW22.5 kmh NNW -- 30.18 in1022.0 mb 0.00 in0.0 mm 0.00 in0.0 mm 0.00 in0.0 mm
04:00 PM 72.6°F22.6°C 38.5°F3.6°C 29% 12.0 mph NNW19.3 kmh NNW -- 30.18 in1022.0 mb 0.00 in0.0 mm 0.00 in0.0 mm 0.00 in0.0 mm
04:01 PM 72.8°F22.7°C 38.7°F3.7°C 29% 9.0 mph NNW14.5 kmh NNW -- 30.18 in1022.0 mb 0.00 in0.0 mm 0.00 in0.0 mm 0.00 in0.0 mm
04:02 PM 73.4°F23.0°C 39.2°F4.0°C 29% 11.0 mph 17.7 kmh -- 30.18 in1022.0 mb 0.00 in0.0 mm 0.00 in0.0 mm 0.00 in0.0 mm
04:03 PM 73.4°F23.0°C 39.2°F4.0°C 29% 9.0 mph NNW14.5 kmh NNW -- 30.18 in1022.0 mb 0.00 in0.0 mm 0.00 in0.0 mm 0.00 in0.0 mm
04:04 PM 73.5°F23.1°C 39.3°F4.1°C 29% 7.0 mph NNE11.3 kmh NNE -- 30.18 in1022.0 mb 0.00 in0.0 mm 0.00 in0.0 mm 0.00 in0.0 mm
04:05 PM 73.5°F23.1°C 39.3°F4.1°C 29% 8.0 mph NE12.9 kmh NE -- 30.18 in1022.0 mb 0.00 in0.0 mm 0.00 in0.0 mm 0.00 in0.0 mm
04:06 PM 73.5°F23.1°C 39.3°F4.1°C 29% 7.0 mph NE11.3 kmh NE -- 30.18 in1022.0 mb 0.00 in0.0 mm 0.00 in0.0 mm 0.00 in0.0 mm
04:07 PM 73.5°F23.1°C 37.5°F3.1°C 27% 6.0 mph NE9.7 kmh NE -- 30.19 in1022.4 mb 0.00 in0.0 mm 0.00 in0.0 mm 0.00 in0.0 mm
04:08 PM 73.1°F22.8°C 37.0°F2.8°C 27% 9.0 mph NNE14.5 kmh NNE -- 30.19 in1022.4 mb 0.00 in0.0 mm 0.00 in0.0 mm 0.00 in0.0 mm
04:09 PM 73.0°F22.8°C 37.0°F2.8°C 27% 8.0 mph NNE12.9 kmh NNE -- 30.19 in1022.4 mb 0.00 in0.0 mm 0.00 in0.0 mm 0.00 in0.0 mm
04:10 PM 72.6°F22.6°C 38.5°F3.6°C 29% 8.0 mph NW12.9 kmh NW -- 30.18 in1022.0 mb 0.00 in0.0 mm 0.00 in0.0 mm 0.00 in0.0 mm
04:11 PM 72.5°F22.5°C 38.4°F3.6°C 29% 9.0 mph NE14.5 kmh NE -- 30.18 in1022.0 mb 0.00 in0.0 mm 0.00 in0.0 mm 0.00 in0.0 mm
04:12 PM 72.6°F22.6°C 38.5°F3.6°C 29% 12.0 mph NE19.3 kmh NE -- 30.18 in1022.0 mb 0.00 in0.0 mm 0.00 in0.0 mm 0.00 in0.0 mm
04:13 PM 72.3°F22.4°C 38.2°F3.4°C 29% 12.0 mph NNE19.3 kmh NNE -- 30.18 in1022.0 mb 0.00 in0.0 mm 0.00 in0.0 mm 0.00 in0.0 mm
04:14 PM 72.5°F22.5°C 39.2°F4.0°C 30% 7.0 mph ENE11.3 kmh ENE -- 30.19 in1022.4 mb 0.00 in0.0 mm 0.00 in0.0 mm 0.00 in0.0 mm
04:15 PM 72.6°F22.6°C 39.4°F4.1°C 30% 8.0 mph NE12.9 kmh NE -- 30.19 in1022.4 mb 0.00 in0.0 mm 0.00 in0.0 mm 0.00 in0.0 mm
04:16 PM 72.8°F22.7°C 39.6°F4.2°C 30% 7.0 mph ENE11.3 kmh ENE -- 30.19 in1022.4 mb 0.00 in0.0 mm 0.00 in0.0 mm 0.00 in0.0 mm
04:17 PM 73.0°F22.8°C 39.7°F4.3°C 30% 8.0 mph E12.9 kmh E -- 30.18 in1022.0 mb 0.00 in0.0 mm 0.00 in0.0 mm 0.00 in0.0 mm
04:18 PM 72.8°F22.7°C 39.6°F4.2°C 30% 16.0 mph NNE25.7 kmh NNE -- 30.18 in1022.0 mb 0.00 in0.0 mm 0.00 in0.0 mm 0.00 in0.0 mm
04:19 PM 72.8°F22.7°C 38.7°F3.7°C 29% 13.0 mph NNW20.9 kmh NNW -- 30.18 in1022.0 mb 0.00 in0.0 mm 0.00 in0.0 mm 0.00 in0.0 mm
04:20 PM 72.8°F22.7°C 38.7°F3.7°C 29% 12.0 mph NNW19.3 kmh NNW -- 30.18 in1022.0 mb 0.00 in0.0 mm 0.00 in0.0 mm 0.00 in0.0 mm
04:21 PM 72.6°F22.6°C 38.5°F3.6°C 29% 9.0 mph NNE14.5 kmh NNE -- 30.18 in1022.0 mb 0.00 in0.0 mm 0.00 in0.0 mm 0.00 in0.0 mm
04:22 PM 72.5°F22.5°C 38.4°F3.6°C 29% 9.0 mph NW14.5 kmh NW -- 30.18 in1022.0 mb 0.00 in0.0 mm 0.00 in0.0 mm 0.00 in0.0 mm
04:23 PM 72.3°F22.4°C 38.2°F3.4°C 29% 12.0 mph NE19.3 kmh NE -- 30.18 in1022.0 mb 0.00 in0.0 mm 0.00 in0.0 mm 0.00 in0.0 mm
04:24 PM 72.1°F22.3°C 38.9°F3.8°C 30% 10.0 mph 16.1 kmh -- 30.18 in1022.0 mb 0.00 in0.0 mm 0.00 in0.0 mm 0.00 in0.0 mm
04:25 PM 72.1°F22.3°C 38.9°F3.8°C 30% 14.0 mph E22.5 kmh E -- 30.18 in1022.0 mb 0.00 in0.0 mm 0.00 in0.0 mm 0.00 in0.0 mm
04:26 PM 71.9°F22.2°C 38.8°F3.8°C 30% 8.0 mph NNW12.9 kmh NNW -- 30.18 in1022.0 mb 0.00 in0.0 mm 0.00 in0.0 mm 0.00 in0.0 mm
04:27 PM 71.9°F22.2°C 38.8°F3.8°C 30% 12.0 mph 19.3 kmh -- 30.18 in1022.0 mb 0.00 in0.0 mm 0.00 in0.0 mm 0.00 in0.0 mm
04:28 PM 71.8°F22.1°C 38.6°F3.7°C 30% 7.0 mph WNW11.3 kmh WNW -- 30.18 in1022.0 mb 0.00 in0.0 mm 0.00 in0.0 mm 0.00 in0.0 mm
04:29 PM 71.8°F22.1°C 38.6°F3.7°C 30% 8.0 mph NE12.9 kmh NE -- 30.18 in1022.0 mb 0.00 in0.0 mm 0.00 in0.0 mm 0.00 in0.0 mm
04:30 PM 71.8°F22.1°C 38.6°F3.7°C 30% 8.0 mph ENE12.9 kmh ENE -- 30.18 in1022.0 mb 0.00 in0.0 mm 0.00 in0.0 mm 0.00 in0.0 mm
04:31 PM 71.8°F22.1°C 38.6°F3.7°C 30% 7.0 mph NNE11.3 kmh NNE -- 30.18 in1022.0 mb 0.00 in0.0 mm 0.00 in0.0 mm 0.00 in0.0 mm
04:32 PM 71.9°F22.2°C 38.8°F3.8°C 30% 9.0 mph NE14.5 kmh NE -- 30.18 in1022.0 mb 0.00 in0.0 mm 0.00 in0.0 mm 0.00 in0.0 mm
04:33 PM 71.9°F22.2°C 38.8°F3.8°C 30% 13.0 mph NNW20.9 kmh NNW -- 30.18 in1022.0 mb 0.00 in0.0 mm 0.00 in0.0 mm 0.00 in0.0 mm
04:34 PM 71.8°F22.1°C 38.6°F3.7°C 30% 17.0 mph ENE27.4 kmh ENE -- 30.19 in1022.4 mb 0.00 in0.0 mm 0.00 in0.0 mm 0.00 in0.0 mm
04:35 PM 71.5°F21.9°C 39.1°F3.9°C 31% 9.0 mph 14.5 kmh -- 30.19 in1022.4 mb 0.00 in0.0 mm 0.00 in0.0 mm 0.00 in0.0 mm
04:36 PM 71.1°F21.7°C 38.8°F3.8°C 31% 8.0 mph NNE12.9 kmh NNE -- 30.18 in1022.0 mb 0.00 in0.0 mm 0.00 in0.0 mm 0.00 in0.0 mm
04:38 PM 71.1°F21.7°C 38.8°F3.8°C 31% 8.0 mph ENE12.9 kmh ENE -- 30.18 in1022.0 mb 0.00 in0.0 mm 0.00 in0.0 mm 0.00 in0.0 mm
04:39 PM 71.1°F21.7°C 38.8°F3.8°C 31% 7.0 mph ENE11.3 kmh ENE -- 30.18 in1022.0 mb 0.00 in0.0 mm 0.00 in0.0 mm 0.00 in0.0 mm
04:40 PM 71.4°F21.9°C 39.1°F3.9°C 31% 5.0 mph NE8.0 kmh NE -- 30.18 in1022.0 mb 0.00 in0.0 mm 0.00 in0.0 mm 0.00 in0.0 mm
04:41 PM 71.9°F22.2°C 40.4°F4.7°C 32% 7.0 mph 11.3 kmh -- 30.18 in1022.0 mb 0.00 in0.0 mm 0.00 in0.0 mm 0.00 in0.0 mm
04:42 PM 72.1°F22.3°C 39.8°F4.3°C 31% 10.0 mph NNE16.1 kmh NNE -- 30.18 in1022.0 mb 0.00 in0.0 mm 0.00 in0.0 mm 0.00 in0.0 mm
04:43 PM 72.1°F22.3°C 39.8°F4.3°C 31% 11.0 mph NNE17.7 kmh NNE -- 30.19 in1022.4 mb 0.00 in0.0 mm 0.00 in0.0 mm 0.00 in0.0 mm
04:44 PM 72.3°F22.4°C 39.9°F4.4°C 31% 8.0 mph 12.9 kmh -- 30.19 in1022.4 mb 0.00 in0.0 mm 0.00 in0.0 mm 0.00 in0.0 mm
04:45 PM 72.3°F22.4°C 39.1°F3.9°C 30% 13.0 mph NE20.9 kmh NE -- 30.19 in1022.4 mb 0.00 in0.0 mm 0.00 in0.0 mm 0.00 in0.0 mm
04:46 PM 72.1°F22.3°C 38.9°F3.8°C 30% 8.0 mph ENE12.9 kmh ENE -- 30.19 in1022.4 mb 0.00 in0.0 mm 0.00 in0.0 mm 0.00 in0.0 mm
04:47 PM 71.9°F22.2°C 38.8°F3.8°C 30% 14.0 mph NW22.5 kmh NW -- 30.19 in1022.4 mb 0.00 in0.0 mm 0.00 in0.0 mm 0.00 in0.0 mm
04:48 PM 71.8°F22.1°C 38.6°F3.7°C 30% 10.0 mph WNW16.1 kmh WNW -- 30.19 in1022.4 mb 0.00 in0.0 mm 0.00 in0.0 mm 0.00 in0.0 mm
04:49 PM 71.8°F22.1°C 39.4°F4.1°C 31% 13.0 mph ENE20.9 kmh ENE -- 30.19 in1022.4 mb 0.00 in0.0 mm 0.00 in0.0 mm 0.00 in0.0 mm
04:50 PM 71.9°F22.2°C 39.6°F4.2°C 31% 8.0 mph NNE12.9 kmh NNE -- 30.19 in1022.4 mb 0.00 in0.0 mm 0.00 in0.0 mm 0.00 in0.0 mm
04:51 PM 71.9°F22.2°C 39.6°F4.2°C 31% 10.0 mph NE16.1 kmh NE -- 30.19 in1022.4 mb 0.00 in0.0 mm 0.00 in0.0 mm 0.00 in0.0 mm
04:52 PM 71.8°F22.1°C 39.4°F4.1°C 31% 14.0 mph NNE22.5 kmh NNE -- 30.19 in1022.4 mb 0.00 in0.0 mm 0.00 in0.0 mm 0.00 in0.0 mm
04:53 PM 71.5°F21.9°C 39.1°F3.9°C 31% 9.0 mph ENE14.5 kmh ENE -- 30.19 in1022.4 mb 0.00 in0.0 mm 0.00 in0.0 mm 0.00 in0.0 mm
04:54 PM 71.1°F21.7°C 38.8°F3.8°C 31% 9.0 mph NNE14.5 kmh NNE -- 30.19 in1022.4 mb 0.00 in0.0 mm 0.00 in0.0 mm 0.00 in0.0 mm
04:55 PM 71.1°F21.7°C 38.8°F3.8°C 31% 8.0 mph 12.9 kmh -- 30.19 in1022.4 mb 0.00 in0.0 mm 0.00 in0.0 mm 0.00 in0.0 mm
04:56 PM 71.0°F21.7°C 39.6°F4.2°C 32% 7.0 mph NE11.3 kmh NE -- 30.18 in1022.0 mb 0.00 in0.0 mm 0.00 in0.0 mm 0.00 in0.0 mm
04:57 PM 71.0°F21.7°C 39.6°F4.2°C 32% 8.0 mph E12.9 kmh E -- 30.19 in1022.4 mb 0.00 in0.0 mm 0.00 in0.0 mm 0.00 in0.0 mm
04:58 PM 70.9°F21.6°C 39.5°F4.2°C 32% 13.0 mph NNE20.9 kmh NNE -- 30.19 in1022.4 mb 0.00 in0.0 mm 0.00 in0.0 mm 0.00 in0.0 mm
04:59 PM 70.9°F21.6°C 39.5°F4.2°C 32% 11.0 mph NNE17.7 kmh NNE -- 30.19 in1022.4 mb 0.00 in0.0 mm 0.00 in0.0 mm 0.00 in0.0 mm
05:00 PM 70.9°F21.6°C 39.5°F4.2°C 32% 9.0 mph 14.5 kmh -- 30.19 in1022.4 mb 0.00 in0.0 mm 0.00 in0.0 mm 0.00 in0.0 mm
05:01 PM 71.0°F21.7°C 39.6°F4.2°C 32% 15.0 mph 24.1 kmh -- 30.19 in1022.4 mb 0.00 in0.0 mm 0.00 in0.0 mm 0.00 in0.0 mm
05:02 PM 71.0°F21.7°C 39.6°F4.2°C 32% 10.0 mph 16.1 kmh -- 30.19 in1022.4 mb 0.00 in0.0 mm 0.00 in0.0 mm 0.00 in0.0 mm
05:03 PM 70.9°F21.6°C 38.7°F3.7°C 31% 8.0 mph NNW12.9 kmh NNW -- 30.19 in1022.4 mb 0.00 in0.0 mm 0.00 in0.0 mm 0.00 in0.0 mm
05:04 PM 70.9°F21.6°C 38.7°F3.7°C 31% 11.0 mph NE17.7 kmh NE -- 30.19 in1022.4 mb 0.00 in0.0 mm 0.00 in0.0 mm 0.00 in0.0 mm
05:05 PM 71.0°F21.7°C 38.8°F3.8°C 31% 9.0 mph W14.5 kmh W -- 30.19 in1022.4 mb 0.00 in0.0 mm 0.00 in0.0 mm 0.00 in0.0 mm
05:06 PM 71.0°F21.7°C 39.6°F4.2°C 32% 14.0 mph NE22.5 kmh NE -- 30.19 in1022.4 mb 0.00 in0.0 mm 0.00 in0.0 mm 0.00 in0.0 mm
05:07 PM 71.1°F21.7°C 38.8°F3.8°C 31% 11.0 mph NE17.7 kmh NE -- 30.19 in1022.4 mb 0.00 in0.0 mm 0.00 in0.0 mm 0.00 in0.0 mm
05:08 PM 71.1°F21.7°C 38.8°F3.8°C 31% 15.0 mph NE24.1 kmh NE -- 30.19 in1022.4 mb 0.00 in0.0 mm 0.00 in0.0 mm 0.00 in0.0 mm
05:09 PM 71.1°F21.7°C 38.8°F3.8°C 31% 12.0 mph NE19.3 kmh NE -- 30.19 in1022.4 mb 0.00 in0.0 mm 0.00 in0.0 mm 0.00 in0.0 mm
05:10 PM 71.1°F21.7°C 38.8°F3.8°C 31% 11.0 mph NE17.7 kmh NE -- 30.19 in1022.4 mb 0.00 in0.0 mm 0.00 in0.0 mm 0.00 in0.0 mm
05:11 PM 71.1°F21.7°C 38.8°F3.8°C 31% 8.0 mph NNE12.9 kmh NNE -- 30.19 in1022.4 mb 0.00 in0.0 mm 0.00 in0.0 mm 0.00 in0.0 mm
05:12 PM 71.1°F21.7°C 38.8°F3.8°C 31% 11.0 mph NE17.7 kmh NE -- 30.19 in1022.4 mb 0.00 in0.0 mm 0.00 in0.0 mm 0.00 in0.0 mm
05:13 PM 71.1°F21.7°C 38.8°F3.8°C 31% 12.0 mph NE19.3 kmh NE -- 30.19 in1022.4 mb 0.00 in0.0 mm 0.00 in0.0 mm 0.00 in0.0 mm
05:14 PM 71.0°F21.7°C 38.8°F3.8°C 31% 13.0 mph NE20.9 kmh NE -- 30.19 in1022.4 mb 0.00 in0.0 mm 0.00 in0.0 mm 0.00 in0.0 mm
05:15 PM 71.0°F21.7°C 38.8°F3.8°C 31% 7.0 mph NE11.3 kmh NE -- 30.19 in1022.4 mb 0.00 in0.0 mm 0.00 in0.0 mm 0.00 in0.0 mm
05:16 PM 70.6°F21.4°C 39.2°F4.0°C 32% 12.0 mph NNE19.3 kmh NNE -- 30.19 in1022.4 mb 0.00 in0.0 mm 0.00 in0.0 mm 0.00 in0.0 mm
05:17 PM 70.6°F21.4°C 39.2°F4.0°C 32% 11.0 mph 17.7 kmh -- 30.19 in1022.4 mb 0.00 in0.0 mm 0.00 in0.0 mm 0.00 in0.0 mm
05:18 PM 70.6°F21.4°C 38.3°F3.5°C 31% 7.0 mph NE11.3 kmh NE -- 30.19 in1022.4 mb 0.00 in0.0 mm 0.00 in0.0 mm 0.00 in0.0 mm
05:19 PM 70.5°F21.4°C 38.3°F3.5°C 31% 7.0 mph NNE11.3 kmh NNE -- 30.19 in1022.4 mb 0.00 in0.0 mm 0.00 in0.0 mm 0.00 in0.0 mm
05:20 PM 70.1°F21.2°C 38.0°F3.3°C 31% 6.0 mph NE9.7 kmh NE -- 30.19 in1022.4 mb 0.00 in0.0 mm 0.00 in0.0 mm 0.00 in0.0 mm
05:21 PM 70.0°F21.1°C 37.9°F3.3°C 31% 10.0 mph ENE16.1 kmh ENE -- 30.19 in1022.4 mb 0.00 in0.0 mm 0.00 in0.0 mm 0.00 in0.0 mm
05:22 PM 69.8°F21.0°C 40.1°F4.5°C 34% 7.0 mph 11.3 kmh -- 30.19 in1022.4 mb 0.00 in0.0 mm 0.00 in0.0 mm 0.00 in0.0 mm
05:23 PM 69.8°F21.0°C 40.1°F4.5°C 34% 8.0 mph 12.9 kmh -- 30.19 in1022.4 mb 0.00 in0.0 mm 0.00 in0.0 mm 0.00 in0.0 mm
05:24 PM 69.6°F20.9°C 38.4°F3.6°C 32% 9.0 mph NNE14.5 kmh NNE -- 30.19 in1022.4 mb 0.00 in0.0 mm 0.00 in0.0 mm 0.00 in0.0 mm
05:25 PM 69.6°F20.9°C 39.9°F4.4°C 34% 13.0 mph WNW20.9 kmh WNW -- 30.19 in1022.4 mb 0.00 in0.0 mm 0.00 in0.0 mm 0.00 in0.0 mm
05:26 PM 69.4°F20.8°C 39.8°F4.3°C 34% 10.0 mph NE16.1 kmh NE -- 30.19 in1022.4 mb 0.00 in0.0 mm 0.00 in0.0 mm 0.00 in0.0 mm
05:27 PM 69.4°F20.8°C 39.8°F4.3°C 34% 13.0 mph NNE20.9 kmh NNE -- 30.19 in1022.4 mb 0.00 in0.0 mm 0.00 in0.0 mm 0.00 in0.0 mm
05:28 PM 69.3°F20.7°C 39.6°F4.2°C 34% 14.0 mph NNW22.5 kmh NNW -- 30.19 in1022.4 mb 0.00 in0.0 mm 0.00 in0.0 mm 0.00 in0.0 mm
05:29 PM 69.3°F20.7°C 39.6°F4.2°C 34% 8.0 mph NNE12.9 kmh NNE -- 30.19 in1022.4 mb 0.00 in0.0 mm 0.00 in0.0 mm 0.00 in0.0 mm
05:30 PM 69.0°F20.6°C 39.4°F4.1°C 34% 12.0 mph ENE19.3 kmh ENE -- 30.19 in1022.4 mb 0.00 in0.0 mm 0.00 in0.0 mm 0.00 in0.0 mm
05:31 PM 68.6°F20.3°C 39.0°F3.9°C 34% 7.0 mph NE11.3 kmh NE -- 30.20 in1022.7 mb 0.00 in0.0 mm 0.00 in0.0 mm 0.00 in0.0 mm
05:32 PM 68.6°F20.3°C 39.0°F3.9°C 34% 11.0 mph 17.7 kmh -- 30.20 in1022.7 mb 0.00 in0.0 mm 0.00 in0.0 mm 0.00 in0.0 mm
05:33 PM 68.9°F20.5°C 39.3°F4.1°C 34% 12.0 mph NNE19.3 kmh NNE -- 30.20 in1022.7 mb 0.00 in0.0 mm 0.00 in0.0 mm 0.00 in0.0 mm
05:34 PM 69.0°F20.6°C 39.4°F4.1°C 34% 11.0 mph NW17.7 kmh NW -- 30.19 in1022.4 mb 0.00 in0.0 mm 0.00 in0.0 mm 0.00 in0.0 mm
05:35 PM 69.3°F20.7°C 39.6°F4.2°C 34% 9.0 mph NNE14.5 kmh NNE -- 30.20 in1022.7 mb 0.00 in0.0 mm 0.00 in0.0 mm 0.00 in0.0 mm
05:36 PM 69.6°F20.9°C 39.9°F4.4°C 34% 8.0 mph ENE12.9 kmh ENE -- 30.20 in1022.7 mb 0.00 in0.0 mm 0.00 in0.0 mm 0.00 in0.0 mm
05:37 PM 69.8°F21.0°C 40.1°F4.5°C 34% 10.0 mph NE16.1 kmh NE -- 30.20 in1022.7 mb 0.00 in0.0 mm 0.00 in0.0 mm 0.00 in0.0 mm
05:38 PM 70.0°F21.1°C 41.0°F5.0°C 35% 7.0 mph NNE11.3 kmh NNE -- 30.20 in1022.7 mb 0.00 in0.0 mm 0.00 in0.0 mm 0.00 in0.0 mm
05:39 PM 69.8°F21.0°C 40.1°F4.5°C 34% 9.0 mph NNW14.5 kmh NNW -- 30.20 in1022.7 mb 0.00 in0.0 mm 0.00 in0.0 mm 0.00 in0.0 mm
05:40 PM 69.6°F20.9°C 39.9°F4.4°C 34% 11.0 mph NE17.7 kmh NE -- 30.20 in1022.7 mb 0.00 in0.0 mm 0.00 in0.0 mm 0.00 in0.0 mm
05:41 PM 69.6°F20.9°C 39.9°F4.4°C 34% 10.0 mph 16.1 kmh -- 30.20 in1022.7 mb 0.00 in0.0 mm 0.00 in0.0 mm 0.00 in0.0 mm
05:42 PM 69.3°F20.7°C 39.6°F4.2°C 34% 13.0 mph NNE20.9 kmh NNE -- 30.20 in1022.7 mb 0.00 in0.0 mm 0.00 in0.0 mm 0.00 in0.0 mm
05:43 PM 69.3°F20.7°C 39.6°F4.2°C 34% 11.0 mph NE17.7 kmh NE -- 30.20 in1022.7 mb 0.00 in0.0 mm 0.00 in0.0 mm 0.00 in0.0 mm
05:44 PM 69.0°F20.6°C 39.4°F4.1°C 34% 12.0 mph NE19.3 kmh NE -- 30.20 in1022.7 mb 0.00 in0.0 mm 0.00 in0.0 mm 0.00 in0.0 mm
05:45 PM 68.9°F20.5°C 40.0°F4.4°C 35% 9.0 mph NNW14.5 kmh NNW -- 30.20 in1022.7 mb 0.00 in0.0 mm 0.00 in0.0 mm 0.00 in0.0 mm
05:46 PM 68.9°F20.5°C 40.0°F4.4°C 35% 10.0 mph NNW16.1 kmh NNW -- 30.20 in1022.7 mb 0.00 in0.0 mm 0.00 in0.0 mm 0.00 in0.0 mm
05:47 PM 68.9°F20.5°C 40.0°F4.4°C 35% 10.0 mph NNE16.1 kmh NNE -- 30.20 in1022.7 mb 0.00 in0.0 mm 0.00 in0.0 mm 0.00 in0.0 mm
05:48 PM 68.6°F20.3°C 39.7°F4.3°C 35% 16.0 mph NE25.7 kmh NE -- 30.20 in1022.7 mb 0.00 in0.0 mm 0.00 in0.0 mm 0.00 in0.0 mm
05:49 PM 68.4°F20.2°C 39.5°F4.2°C 35% 9.0 mph W14.5 kmh W -- 30.20 in1022.7 mb 0.00 in0.0 mm 0.00 in0.0 mm 0.00 in0.0 mm
05:50 PM 68.4°F20.2°C 39.5°F4.2°C 35% 8.0 mph NE12.9 kmh NE -- 30.20 in1022.7 mb 0.00 in0.0 mm 0.00 in0.0 mm 0.00 in0.0 mm
05:51 PM 68.4°F20.2°C 39.5°F4.2°C 35% 13.0 mph NNW20.9 kmh NNW -- 30.20 in1022.7 mb 0.00 in0.0 mm 0.00 in0.0 mm 0.00 in0.0 mm
05:52 PM 68.1°F20.1°C 39.4°F4.1°C 35% 9.0 mph ENE14.5 kmh ENE -- 30.20 in1022.7 mb 0.00 in0.0 mm 0.00 in0.0 mm 0.00 in0.0 mm
05:53 PM 68.0°F20.0°C 39.2°F4.0°C 35% 9.0 mph NE14.5 kmh NE -- 30.20 in1022.7 mb 0.00 in0.0 mm 0.00 in0.0 mm 0.00 in0.0 mm
05:54 PM 68.0°F20.0°C 39.2°F4.0°C 35% 8.0 mph NNE12.9 kmh NNE -- 30.20 in1022.7 mb 0.00 in0.0 mm 0.00 in0.0 mm 0.00 in0.0 mm
05:55 PM 67.5°F19.7°C 38.7°F3.7°C 35% 10.0 mph NNE16.1 kmh NNE -- 30.20 in1022.7 mb 0.00 in0.0 mm 0.00 in0.0 mm 0.00 in0.0 mm
05:56 PM 67.5°F19.7°C 38.7°F3.7°C 35% 11.0 mph NNE17.7 kmh NNE -- 30.20 in1022.7 mb 0.00 in0.0 mm 0.00 in0.0 mm 0.00 in0.0 mm
05:57 PM 67.5°F19.7°C 38.7°F3.7°C 35% 10.0 mph NE16.1 kmh NE -- 30.20 in1022.7 mb 0.00 in0.0 mm 0.00 in0.0 mm 0.00 in0.0 mm
05:58 PM 67.3°F19.6°C 38.6°F3.7°C 35% 10.0 mph NNE16.1 kmh NNE -- 30.20 in1022.7 mb 0.00 in0.0 mm 0.00 in0.0 mm 0.00 in0.0 mm
05:59 PM 66.6°F19.2°C 39.4°F4.1°C 37% 12.0 mph 19.3 kmh -- 30.20 in1022.7 mb 0.00 in0.0 mm 0.00 in0.0 mm 0.00 in0.0 mm
06:00 PM 66.5°F19.2°C 40.7°F4.8°C 39% 8.0 mph NE12.9 kmh NE -- 30.20 in1022.7 mb 0.00 in0.0 mm 0.00 in0.0 mm 0.00 in0.0 mm
06:01 PM 66.5°F19.2°C 40.7°F4.8°C 39% 10.0 mph NNE16.1 kmh NNE -- 30.20 in1022.7 mb 0.00 in0.0 mm 0.00 in0.0 mm 0.00 in0.0 mm
06:02 PM 66.1°F18.9°C 40.2°F4.6°C 39% 15.0 mph NE24.1 kmh NE -- 30.20 in1022.7 mb 0.00 in0.0 mm 0.00 in0.0 mm 0.00 in0.0 mm
06:03 PM 65.8°F18.8°C 40.7°F4.8°C 40% 7.0 mph NE11.3 kmh NE -- 30.20 in1022.7 mb 0.00 in0.0 mm 0.00 in0.0 mm 0.00 in0.0 mm
06:04 PM 65.8°F18.8°C 40.7°F4.8°C 40% 11.0 mph ENE17.7 kmh ENE -- 30.20 in1022.7 mb 0.00 in0.0 mm 0.00 in0.0 mm 0.00 in0.0 mm
06:05 PM 65.6°F18.7°C 40.6°F4.8°C 40% 13.0 mph NE20.9 kmh NE -- 30.20 in1022.7 mb 0.00 in0.0 mm 0.00 in0.0 mm 0.00 in0.0 mm
06:06 PM 65.5°F18.6°C 40.4°F4.7°C 40% 10.0 mph NNE16.1 kmh NNE -- 30.20 in1022.7 mb 0.00 in0.0 mm 0.00 in0.0 mm 0.00 in0.0 mm
06:07 PM 65.2°F18.4°C 40.1°F4.5°C 40% 13.0 mph NE20.9 kmh NE -- 30.20 in1022.7 mb 0.00 in0.0 mm 0.00 in0.0 mm 0.00 in0.0 mm
06:08 PM 65.0°F18.3°C 39.9°F4.4°C 40% 14.0 mph NE22.5 kmh NE -- 30.21 in1023.0 mb 0.00 in0.0 mm 0.00 in0.0 mm 0.00 in0.0 mm
06:09 PM 65.0°F18.3°C 39.9°F4.4°C 40% 15.0 mph NNE24.1 kmh NNE -- 30.21 in1023.0 mb 0.00 in0.0 mm 0.00 in0.0 mm 0.00 in0.0 mm
06:10 PM 65.0°F18.3°C 39.9°F4.4°C 40% 14.0 mph 22.5 kmh -- 30.21 in1023.0 mb 0.00 in0.0 mm 0.00 in0.0 mm 0.00 in0.0 mm
06:11 PM 65.2°F18.4°C 40.1°F4.5°C 40% 12.0 mph NE19.3 kmh NE -- 30.21 in1023.0 mb 0.00 in0.0 mm 0.00 in0.0 mm 0.00 in0.0 mm
06:13 PM 65.2°F18.4°C 40.1°F4.5°C 40% 13.0 mph NNE20.9 kmh NNE -- 30.22 in1023.4 mb 0.00 in0.0 mm 0.00 in0.0 mm 0.00 in0.0 mm
06:14 PM 64.9°F18.3°C 39.9°F4.4°C 40% 15.0 mph NE24.1 kmh NE -- 30.22 in1023.4 mb 0.00 in0.0 mm 0.00 in0.0 mm 0.00 in0.0 mm
06:15 PM 64.8°F18.2°C 40.4°F4.7°C 41% 9.0 mph NNW14.5 kmh NNW -- 30.21 in1023.0 mb 0.00 in0.0 mm 0.00 in0.0 mm 0.00 in0.0 mm
06:16 PM 64.6°F18.1°C 40.2°F4.6°C 41% 8.0 mph NE12.9 kmh NE -- 30.21 in1023.0 mb 0.00 in0.0 mm 0.00 in0.0 mm 0.00 in0.0 mm
06:17 PM 64.1°F17.8°C 41.0°F5.0°C 43% 9.0 mph NNE14.5 kmh NNE -- 30.21 in1023.0 mb 0.00 in0.0 mm 0.00 in0.0 mm 0.00 in0.0 mm
06:18 PM 64.1°F17.8°C 41.0°F5.0°C 43% 11.0 mph E17.7 kmh E -- 30.21 in1023.0 mb 0.00 in0.0 mm 0.00 in0.0 mm 0.00 in0.0 mm
06:19 PM 64.1°F17.8°C 41.0°F5.0°C 43% 8.0 mph NNE12.9 kmh NNE -- 30.21 in1023.0 mb 0.00 in0.0 mm 0.00 in0.0 mm 0.00 in0.0 mm
06:20 PM 64.1°F17.8°C 41.0°F5.0°C 43% 9.0 mph NE14.5 kmh NE -- 30.21 in1023.0 mb 0.00 in0.0 mm 0.00 in0.0 mm 0.00 in0.0 mm
06:21 PM 64.1°F17.8°C 41.0°F5.0°C 43% 13.0 mph NE20.9 kmh NE -- 30.21 in1023.0 mb 0.00 in0.0 mm 0.00 in0.0 mm 0.00 in0.0 mm
06:22 PM 64.4°F18.0°C 41.3°F5.2°C 43% 14.0 mph NNE22.5 kmh NNE -- 30.21 in1023.0 mb 0.00 in0.0 mm 0.00 in0.0 mm 0.00 in0.0 mm
06:23 PM 64.6°F18.1°C 41.5°F5.3°C 43% 6.0 mph WNW9.7 kmh WNW -- 30.21 in1023.0 mb 0.00 in0.0 mm 0.00 in0.0 mm 0.00 in0.0 mm
06:24 PM 64.6°F18.1°C 41.5°F5.3°C 43% 11.0 mph 17.7 kmh -- 30.21 in1023.0 mb 0.00 in0.0 mm 0.00 in0.0 mm 0.00 in0.0 mm
06:25 PM 64.6°F18.1°C 41.5°F5.3°C 43% 13.0 mph NE20.9 kmh NE -- 30.21 in1023.0 mb 0.00 in0.0 mm 0.00 in0.0 mm 0.00 in0.0 mm
06:26 PM 64.6°F18.1°C 41.5°F5.3°C 43% 6.0 mph 9.7 kmh -- 30.22 in1023.4 mb 0.00 in0.0 mm 0.00 in0.0 mm 0.00 in0.0 mm
06:27 PM 64.6°F18.1°C 41.5°F5.3°C 43% 13.0 mph NE20.9 kmh NE -- 30.22 in1023.4 mb 0.00 in0.0 mm 0.00 in0.0 mm 0.00 in0.0 mm
06:28 PM 64.6°F18.1°C 41.5°F5.3°C 43% 12.0 mph NE19.3 kmh NE -- 30.22 in1023.4 mb 0.00 in0.0 mm 0.00 in0.0 mm 0.00 in0.0 mm
06:29 PM 64.4°F18.0°C 41.3°F5.2°C 43% 11.0 mph ENE17.7 kmh ENE -- 30.22 in1023.4 mb 0.00 in0.0 mm 0.00 in0.0 mm 0.00 in0.0 mm
06:30 PM 64.1°F17.8°C 41.0°F5.0°C 43% 13.0 mph NE20.9 kmh NE -- 30.22 in1023.4 mb 0.00 in0.0 mm 0.00 in0.0 mm 0.00 in0.0 mm
06:31 PM 64.4°F18.0°C 41.3°F5.2°C 43% 10.0 mph NE16.1 kmh NE -- 30.22 in1023.4 mb 0.00 in0.0 mm 0.00 in0.0 mm 0.00 in0.0 mm
06:32 PM 64.6°F18.1°C 41.5°F5.3°C 43% 11.0 mph NE17.7 kmh NE -- 30.22 in1023.4 mb 0.00 in0.0 mm 0.00 in0.0 mm 0.00 in0.0 mm
06:33 PM 64.9°F18.3°C 41.8°F5.4°C 43% 15.0 mph NE24.1 kmh NE -- 30.22 in1023.4 mb 0.00 in0.0 mm 0.00 in0.0 mm 0.00 in0.0 mm
06:34 PM 65.0°F18.3°C 41.8°F5.4°C 43% 11.0 mph ENE17.7 kmh ENE -- 30.22 in1023.4 mb 0.00 in0.0 mm 0.00 in0.0 mm 0.00 in0.0 mm
06:35 PM 65.0°F18.3°C 41.8°F5.4°C 43% 14.0 mph NE22.5 kmh NE -- 30.22 in1023.4 mb 0.00 in0.0 mm 0.00 in0.0 mm 0.00 in0.0 mm
06:36 PM 64.9°F18.3°C 40.6°F4.8°C 41% 11.0 mph NE17.7 kmh NE -- 30.22 in1023.4 mb 0.00 in0.0 mm 0.00 in0.0 mm 0.00 in0.0 mm
06:37 PM 64.8°F18.2°C 41.6°F5.3°C 43% 10.0 mph NE16.1 kmh NE -- 30.22 in1023.4 mb 0.00 in0.0 mm 0.00 in0.0 mm 0.00 in0.0 mm
06:38 PM 64.8°F18.2°C 41.6°F5.3°C 43% 12.0 mph NNE19.3 kmh NNE -- 30.22 in1023.4 mb 0.00 in0.0 mm 0.00 in0.0 mm 0.00 in0.0 mm
06:39 PM 64.4°F18.0°C 41.3°F5.2°C 43% 18.0 mph NE29.0 kmh NE -- 30.22 in1023.4 mb 0.00 in0.0 mm 0.00 in0.0 mm 0.00 in0.0 mm
06:40 PM 64.1°F17.8°C 41.6°F5.3°C 44% 15.0 mph NE24.1 kmh NE -- 30.22 in1023.4 mb 0.00 in0.0 mm 0.00 in0.0 mm 0.00 in0.0 mm
06:41 PM 64.1°F17.8°C 41.6°F5.3°C 44% 8.0 mph NNE12.9 kmh NNE -- 30.22 in1023.4 mb 0.00 in0.0 mm 0.00 in0.0 mm 0.00 in0.0 mm
06:42 PM 64.1°F17.8°C 42.2°F5.7°C 45% 14.0 mph WNW22.5 kmh WNW -- 30.22 in1023.4 mb 0.00 in0.0 mm 0.00 in0.0 mm 0.00 in0.0 mm
06:43 PM 64.1°F17.8°C 42.2°F5.7°C 45% 11.0 mph ENE17.7 kmh ENE -- 30.22 in1023.4 mb 0.00 in0.0 mm 0.00 in0.0 mm 0.00 in0.0 mm
06:44 PM 63.9°F17.7°C 42.0°F5.6°C 45% 12.0 mph NE19.3 kmh NE -- 30.22 in1023.4 mb 0.00 in0.0 mm 0.00 in0.0 mm 0.00 in0.0 mm
06:45 PM 63.9°F17.7°C 42.0°F5.6°C 45% 11.0 mph NNW17.7 kmh NNW -- 30.22 in1023.4 mb 0.00 in0.0 mm 0.00 in0.0 mm 0.00 in0.0 mm
06:46 PM 63.9°F17.7°C 42.0°F5.6°C 45% 12.0 mph NE19.3 kmh NE -- 30.22 in1023.4 mb 0.00 in0.0 mm 0.00 in0.0 mm 0.00 in0.0 mm
06:47 PM 63.9°F17.7°C 42.0°F5.6°C 45% 11.0 mph NNE17.7 kmh NNE -- 30.22 in1023.4 mb 0.00 in0.0 mm 0.00 in0.0 mm 0.00 in0.0 mm
06:48 PM 63.6°F17.6°C 41.8°F5.4°C 45% 7.0 mph E11.3 kmh E -- 30.22 in1023.4 mb 0.00 in0.0 mm 0.00 in0.0 mm 0.00 in0.0 mm
06:49 PM 63.6°F17.6°C 41.8°F5.4°C 45% 13.0 mph NNW20.9 kmh NNW -- 30.22 in1023.4 mb 0.00 in0.0 mm 0.00 in0.0 mm 0.00 in0.0 mm
06:50 PM 63.2°F17.3°C 41.3°F5.2°C 45% 11.0 mph ENE17.7 kmh ENE -- 30.22 in1023.4 mb 0.00 in0.0 mm 0.00 in0.0 mm 0.00 in0.0 mm
06:51 PM 63.2°F17.3°C 41.3°F5.2°C 45% 8.0 mph NNE12.9 kmh NNE -- 30.22 in1023.4 mb 0.00 in0.0 mm 0.00 in0.0 mm 0.00 in0.0 mm
06:52 PM 63.0°F17.2°C 41.2°F5.1°C 45% 11.0 mph E17.7 kmh E -- 30.22 in1023.4 mb 0.00 in0.0 mm 0.00 in0.0 mm 0.00 in0.0 mm
06:53 PM 63.0°F17.2°C 41.2°F5.1°C 45% 11.0 mph NNE17.7 kmh NNE -- 30.22 in1023.4 mb 0.00 in0.0 mm 0.00 in0.0 mm 0.00 in0.0 mm
06:54 PM 63.0°F17.2°C 41.7°F5.4°C 46% 8.0 mph ENE12.9 kmh ENE -- 30.23 in1023.7 mb 0.00 in0.0 mm 0.00 in0.0 mm 0.00 in0.0 mm
06:55 PM 62.5°F16.9°C 41.2°F5.1°C 46% 8.0 mph NNE12.9 kmh NNE -- 30.23 in1023.7 mb 0.00 in0.0 mm 0.00 in0.0 mm 0.00 in0.0 mm
06:56 PM 62.5°F16.9°C 41.2°F5.1°C 46% 13.0 mph NE20.9 kmh NE -- 30.23 in1023.7 mb 0.00 in0.0 mm 0.00 in0.0 mm 0.00 in0.0 mm
06:57 PM 62.4°F16.9°C 41.2°F5.1°C 46% 12.0 mph NNE19.3 kmh NNE -- 30.23 in1023.7 mb 0.00 in0.0 mm 0.00 in0.0 mm 0.00 in0.0 mm
06:58 PM 62.2°F16.8°C 41.1°F5.1°C 46% 9.0 mph NE14.5 kmh NE -- 30.23 in1023.7 mb 0.00 in0.0 mm 0.00 in0.0 mm 0.00 in0.0 mm
06:59 PM 62.2°F16.8°C 42.2°F5.7°C 48% 8.0 mph NNE12.9 kmh NNE -- 30.23 in1023.7 mb 0.00 in0.0 mm 0.00 in0.0 mm 0.00 in0.0 mm
07:00 PM 62.2°F16.8°C 42.2°F5.7°C 48% 10.0 mph ENE16.1 kmh ENE -- 30.23 in1023.7 mb 0.00 in0.0 mm 0.00 in0.0 mm 0.00 in0.0 mm
07:01 PM 62.1°F16.7°C 42.0°F5.6°C 48% 12.0 mph ENE19.3 kmh ENE -- 30.23 in1023.7 mb 0.00 in0.0 mm 0.00 in0.0 mm 0.00 in0.0 mm
07:02 PM 61.9°F16.6°C 41.8°F5.4°C 48% 12.0 mph NNE19.3 kmh NNE -- 30.23 in1023.7 mb 0.00 in0.0 mm 0.00 in0.0 mm 0.00 in0.0 mm
07:03 PM 61.9°F16.6°C 41.8°F5.4°C 48% 13.0 mph ENE20.9 kmh ENE -- 30.23 in1023.7 mb 0.00 in0.0 mm 0.00 in0.0 mm 0.00 in0.0 mm
07:04 PM 61.7°F16.5°C 42.2°F5.7°C 49% 6.0 mph NE9.7 kmh NE -- 30.24 in1024.0 mb 0.00 in0.0 mm 0.00 in0.0 mm 0.00 in0.0 mm
07:05 PM 61.7°F16.5°C 42.2°F5.7°C 49% 8.0 mph ENE12.9 kmh ENE -- 30.24 in1024.0 mb 0.00 in0.0 mm 0.00 in0.0 mm 0.00 in0.0 mm
07:06 PM 61.7°F16.5°C 42.2°F5.7°C 49% 11.0 mph NNE17.7 kmh NNE -- 30.23 in1023.7 mb 0.00 in0.0 mm 0.00 in0.0 mm 0.00 in0.0 mm
07:07 PM 61.7°F16.5°C 42.2°F5.7°C 49% 9.0 mph ENE14.5 kmh ENE -- 30.23 in1023.7 mb 0.00 in0.0 mm 0.00 in0.0 mm 0.00 in0.0 mm
07:08 PM 61.7°F16.5°C 42.2°F5.7°C 49% 9.0 mph NE14.5 kmh NE -- 30.24 in1024.0 mb 0.00 in0.0 mm 0.00 in0.0 mm 0.00 in0.0 mm
07:09 PM 61.7°F16.5°C 42.2°F5.7°C 49% 5.0 mph WNW8.0 kmh WNW -- 30.24 in1024.0 mb 0.00 in0.0 mm 0.00 in0.0 mm 0.00 in0.0 mm
07:10 PM 61.7°F16.5°C 42.2°F5.7°C 49% 8.0 mph NNE12.9 kmh NNE -- 30.24 in1024.0 mb 0.00 in0.0 mm 0.00 in0.0 mm 0.00 in0.0 mm
07:11 PM 61.7°F16.5°C 42.2°F5.7°C 49% 10.0 mph NE16.1 kmh NE -- 30.24 in1024.0 mb 0.00 in0.0 mm 0.00 in0.0 mm 0.00 in0.0 mm
07:12 PM 61.5°F16.4°C 42.6°F5.9°C 50% 8.0 mph ENE12.9 kmh ENE -- 30.24 in1024.0 mb 0.00 in0.0 mm 0.00 in0.0 mm 0.00 in0.0 mm
07:13 PM 61.3°F16.3°C 42.4°F5.8°C 50% 7.0 mph NE11.3 kmh NE -- 30.24 in1024.0 mb 0.00 in0.0 mm 0.00 in0.0 mm 0.00 in0.0 mm
07:14 PM 61.3°F16.3°C 42.4°F5.8°C 50% 10.0 mph NE16.1 kmh NE -- 30.24 in1024.0 mb 0.00 in0.0 mm 0.00 in0.0 mm 0.00 in0.0 mm
07:15 PM 61.3°F16.3°C 42.4°F5.8°C 50% 8.0 mph ENE12.9 kmh ENE -- 30.24 in1024.0 mb 0.00 in0.0 mm 0.00 in0.0 mm 0.00 in0.0 mm
07:16 PM 61.3°F16.3°C 42.4°F5.8°C 50% 12.0 mph NNE19.3 kmh NNE -- 30.24 in1024.0 mb 0.00 in0.0 mm 0.00 in0.0 mm 0.00 in0.0 mm
07:17 PM 61.3°F16.3°C 42.4°F5.8°C 50% 11.0 mph NNE17.7 kmh NNE -- 30.24 in1024.0 mb 0.00 in0.0 mm 0.00 in0.0 mm 0.00 in0.0 mm
07:18 PM 61.3°F16.3°C 42.4°F5.8°C 50% 11.0 mph E17.7 kmh E -- 30.24 in1024.0 mb 0.00 in0.0 mm 0.00 in0.0 mm 0.00 in0.0 mm
07:19 PM 61.1°F16.2°C 42.2°F5.7°C 50% 8.0 mph ENE12.9 kmh ENE -- 30.24 in1024.0 mb 0.00 in0.0 mm 0.00 in0.0 mm 0.00 in0.0 mm
07:20 PM 61.1°F16.2°C 42.2°F5.7°C 50% 5.0 mph ESE8.0 kmh ESE -- 30.24 in1024.0 mb 0.00 in0.0 mm 0.00 in0.0 mm 0.00 in0.0 mm
07:21 PM 61.1°F16.2°C 42.2°F5.7°C 50% 8.0 mph E12.9 kmh E -- 30.24 in1024.0 mb 0.00 in0.0 mm 0.00 in0.0 mm 0.00 in0.0 mm
07:22 PM 61.1°F16.2°C 42.2°F5.7°C 50% 8.0 mph NE12.9 kmh NE -- 30.24 in1024.0 mb 0.00 in0.0 mm 0.00 in0.0 mm 0.00 in0.0 mm
07:23 PM 61.1°F16.2°C 42.2°F5.7°C 50% 8.0 mph ENE12.9 kmh ENE -- 30.24 in1024.0 mb 0.00 in0.0 mm 0.00 in0.0 mm 0.00 in0.0 mm
07:24 PM 61.1°F16.2°C 42.2°F5.7°C 50% 9.0 mph ENE14.5 kmh ENE -- 30.24 in1024.0 mb 0.00 in0.0 mm 0.00 in0.0 mm 0.00 in0.0 mm
07:25 PM 61.1°F16.2°C 42.2°F5.7°C 50% 9.0 mph E14.5 kmh E -- 30.24 in1024.0 mb 0.00 in0.0 mm 0.00 in0.0 mm 0.00 in0.0 mm
07:26 PM 61.1°F16.2°C 42.2°F5.7°C 50% 12.0 mph NE19.3 kmh NE -- 30.24 in1024.0 mb 0.00 in0.0 mm 0.00 in0.0 mm 0.00 in0.0 mm
07:27 PM 61.1°F16.2°C 42.2°F5.7°C 50% 8.0 mph NE12.9 kmh NE -- 30.25 in1024.4 mb 0.00 in0.0 mm 0.00 in0.0 mm 0.00 in0.0 mm
07:29 PM 61.0°F16.1°C 42.1°F5.6°C 50% 12.0 mph NNE19.3 kmh NNE -- 30.24 in1024.0 mb 0.00 in0.0 mm 0.00 in0.0 mm 0.00 in0.0 mm
07:30 PM 60.7°F15.9°C 41.8°F5.4°C 50% 12.0 mph ENE19.3 kmh ENE -- 30.25 in1024.4 mb 0.00 in0.0 mm 0.00 in0.0 mm 0.00 in0.0 mm
07:31 PM 60.7°F15.9°C 41.8°F5.4°C 50% 9.0 mph NE14.5 kmh NE -- 30.25 in1024.4 mb 0.00 in0.0 mm 0.00 in0.0 mm 0.00 in0.0 mm
07:32 PM 60.7°F15.9°C 41.8°F5.4°C 50% 7.0 mph NE11.3 kmh NE -- 30.25 in1024.4 mb 0.00 in0.0 mm 0.00 in0.0 mm 0.00 in0.0 mm
07:33 PM 60.5°F15.8°C 41.6°F5.3°C 50% 6.0 mph NNE9.7 kmh NNE -- 30.25 in1024.4 mb 0.00 in0.0 mm 0.00 in0.0 mm 0.00 in0.0 mm
07:34 PM 60.5°F15.8°C 41.6°F5.3°C 50% 9.0 mph NE14.5 kmh NE -- 30.25 in1024.4 mb 0.00 in0.0 mm 0.00 in0.0 mm 0.00 in0.0 mm
07:35 PM 60.5°F15.8°C 41.6°F5.3°C 50% 10.0 mph 16.1 kmh -- 30.25 in1024.4 mb 0.00 in0.0 mm 0.00 in0.0 mm 0.00 in0.0 mm
07:36 PM 60.5°F15.8°C 41.6°F5.3°C 50% 8.0 mph NNW12.9 kmh NNW -- 30.25 in1024.4 mb 0.00 in0.0 mm 0.00 in0.0 mm 0.00 in0.0 mm
07:37 PM 60.3°F15.7°C 41.4°F5.2°C 50% 7.0 mph NNW11.3 kmh NNW -- 30.25 in1024.4 mb 0.00 in0.0 mm 0.00 in0.0 mm 0.00 in0.0 mm
07:38 PM 60.3°F15.7°C 41.9°F5.5°C 51% 8.0 mph NNE12.9 kmh NNE -- 30.25 in1024.4 mb 0.00 in0.0 mm 0.00 in0.0 mm 0.00 in0.0 mm
07:39 PM 60.2°F15.7°C 41.9°F5.5°C 51% 10.0 mph ENE16.1 kmh ENE -- 30.25 in1024.4 mb 0.00 in0.0 mm 0.00 in0.0 mm 0.00 in0.0 mm
07:40 PM 60.2°F15.7°C 41.9°F5.5°C 51% 6.0 mph NE9.7 kmh NE -- 30.25 in1024.4 mb 0.00 in0.0 mm 0.00 in0.0 mm 0.00 in0.0 mm
07:41 PM 59.9°F15.5°C 41.6°F5.3°C 51% 11.0 mph NE17.7 kmh NE -- 30.25 in1024.4 mb 0.00 in0.0 mm 0.00 in0.0 mm 0.00 in0.0 mm
07:42 PM 59.9°F15.5°C 41.6°F5.3°C 51% 9.0 mph ENE14.5 kmh ENE -- 30.25 in1024.4 mb 0.00 in0.0 mm 0.00 in0.0 mm 0.00 in0.0 mm
07:43 PM 59.9°F15.5°C 41.6°F5.3°C 51% 8.0 mph NNE12.9 kmh NNE -- 30.24 in1024.0 mb 0.00 in0.0 mm 0.00 in0.0 mm 0.00 in0.0 mm
07:44 PM 59.9°F15.5°C 41.6°F5.3°C 51% 8.0 mph NE12.9 kmh NE -- 30.25 in1024.4 mb 0.00 in0.0 mm 0.00 in0.0 mm 0.00 in0.0 mm
07:45 PM 59.7°F15.4°C 41.4°F5.2°C 51% 10.0 mph NNE16.1 kmh NNE -- 30.25 in1024.4 mb 0.00 in0.0 mm 0.00 in0.0 mm 0.00 in0.0 mm
07:46 PM 59.7°F15.4°C 41.4°F5.2°C 51% 8.0 mph E12.9 kmh E -- 30.25 in1024.4 mb 0.00 in0.0 mm 0.00 in0.0 mm 0.00 in0.0 mm
07:47 PM 59.4°F15.2°C 42.1°F5.6°C 53% 6.0 mph NNE9.7 kmh NNE -- 30.25 in1024.4 mb 0.00 in0.0 mm 0.00 in0.0 mm 0.00 in0.0 mm
07:48 PM 59.3°F15.2°C 42.1°F5.6°C 53% 6.0 mph NW9.7 kmh NW -- 30.25 in1024.4 mb 0.00 in0.0 mm 0.00 in0.0 mm 0.00 in0.0 mm
07:49 PM 59.3°F15.2°C 42.1°F5.6°C 53% 8.0 mph NNE12.9 kmh NNE -- 30.25 in1024.4 mb 0.00 in0.0 mm 0.00 in0.0 mm 0.00 in0.0 mm
07:50 PM 59.3°F15.2°C 42.1°F5.6°C 53% 6.0 mph ESE9.7 kmh ESE -- 30.25 in1024.4 mb 0.00 in0.0 mm 0.00 in0.0 mm 0.00 in0.0 mm
07:51 PM 59.2°F15.1°C 42.4°F5.8°C 54% 10.0 mph 16.1 kmh -- 30.25 in1024.4 mb 0.00 in0.0 mm 0.00 in0.0 mm 0.00 in0.0 mm
07:52 PM 59.0°F15.0°C 42.3°F5.7°C 54% 8.0 mph ENE12.9 kmh ENE -- 30.25 in1024.4 mb 0.00 in0.0 mm 0.00 in0.0 mm 0.00 in0.0 mm
07:53 PM 58.8°F14.9°C 42.1°F5.6°C 54% 5.0 mph ENE8.0 kmh ENE -- 30.25 in1024.4 mb 0.00 in0.0 mm 0.00 in0.0 mm 0.00 in0.0 mm
07:54 PM 58.5°F14.7°C 41.7°F5.4°C 54% 4.0 mph NE6.4 kmh NE -- 30.25 in1024.4 mb 0.00 in0.0 mm 0.00 in0.0 mm 0.00 in0.0 mm
07:55 PM 58.5°F14.7°C 41.7°F5.4°C 54% 6.0 mph NE9.7 kmh NE -- 30.25 in1024.4 mb 0.00 in0.0 mm 0.00 in0.0 mm 0.00 in0.0 mm
07:56 PM 58.4°F14.7°C 41.7°F5.4°C 54% 6.0 mph ENE9.7 kmh ENE -- 30.26 in1024.7 mb 0.00 in0.0 mm 0.00 in0.0 mm 0.00 in0.0 mm
07:57 PM 58.2°F14.6°C 42.1°F5.6°C 55% 10.0 mph NNE16.1 kmh NNE -- 30.26 in1024.7 mb 0.00 in0.0 mm 0.00 in0.0 mm 0.00 in0.0 mm
07:58 PM 58.0°F14.4°C 41.7°F5.4°C 55% 9.0 mph NNE14.5 kmh NNE -- 30.25 in1024.4 mb 0.00 in0.0 mm 0.00 in0.0 mm 0.00 in0.0 mm
07:59 PM 58.0°F14.4°C 41.7°F5.4°C 55% 9.0 mph ENE14.5 kmh ENE -- 30.25 in1024.4 mb 0.00 in0.0 mm 0.00 in0.0 mm 0.00 in0.0 mm
08:00 PM 58.0°F14.4°C 41.7°F5.4°C 55% 12.0 mph ENE19.3 kmh ENE -- 30.25 in1024.4 mb 0.00 in0.0 mm 0.00 in0.0 mm 0.00 in0.0 mm
08:01 PM 57.7°F14.3°C 41.6°F5.3°C 55% 15.0 mph NE24.1 kmh NE -- 30.26 in1024.7 mb 0.00 in0.0 mm 0.00 in0.0 mm 0.00 in0.0 mm
08:02 PM 57.7°F14.3°C 41.6°F5.3°C 55% 10.0 mph NNE16.1 kmh NNE -- 30.26 in1024.7 mb 0.00 in0.0 mm 0.00 in0.0 mm 0.00 in0.0 mm
08:03 PM 57.3°F14.1°C 41.2°F5.1°C 55% 13.0 mph NE20.9 kmh NE -- 30.25 in1024.4 mb 0.00 in0.0 mm 0.00 in0.0 mm 0.00 in0.0 mm
08:04 PM 57.3°F14.1°C 41.2°F5.1°C 55% 15.0 mph NE24.1 kmh NE -- 30.26 in1024.7 mb 0.00 in0.0 mm 0.00 in0.0 mm 0.00 in0.0 mm
08:05 PM 56.9°F13.8°C 40.7°F4.8°C 55% 10.0 mph NNE16.1 kmh NNE -- 30.27 in1025.1 mb 0.00 in0.0 mm 0.00 in0.0 mm 0.00 in0.0 mm
08:06 PM 56.9°F13.8°C 40.7°F4.8°C 55% 11.0 mph NNE17.7 kmh NNE -- 30.27 in1025.1 mb 0.00 in0.0 mm 0.00 in0.0 mm 0.00 in0.0 mm
08:07 PM 56.7°F13.7°C 41.0°F5.0°C 56% 12.0 mph NE19.3 kmh NE -- 30.26 in1024.7 mb 0.00 in0.0 mm 0.00 in0.0 mm 0.00 in0.0 mm
08:08 PM 56.7°F13.7°C 41.0°F5.0°C 56% 17.0 mph NE27.4 kmh NE -- 30.26 in1024.7 mb 0.00 in0.0 mm 0.00 in0.0 mm 0.00 in0.0 mm
08:09 PM 56.3°F13.5°C 41.6°F5.3°C 58% 11.0 mph NE17.7 kmh NE -- 30.26 in1024.7 mb 0.00 in0.0 mm 0.00 in0.0 mm 0.00 in0.0 mm
08:10 PM 56.3°F13.5°C 41.6°F5.3°C 58% 14.0 mph NNE22.5 kmh NNE -- 30.27 in1025.1 mb 0.00 in0.0 mm 0.00 in0.0 mm 0.00 in0.0 mm
08:11 PM 56.0°F13.3°C 41.3°F5.2°C 58% 15.0 mph E24.1 kmh E -- 30.26 in1024.7 mb 0.00 in0.0 mm 0.00 in0.0 mm 0.00 in0.0 mm
08:12 PM 55.9°F13.3°C 41.3°F5.2°C 58% 12.0 mph NNE19.3 kmh NNE -- 30.26 in1024.7 mb 0.00 in0.0 mm 0.00 in0.0 mm 0.00 in0.0 mm
08:13 PM 55.9°F13.3°C 41.7°F5.4°C 59% 13.0 mph NNE20.9 kmh NNE -- 30.26 in1024.7 mb 0.00 in0.0 mm 0.00 in0.0 mm 0.00 in0.0 mm
08:14 PM 55.7°F13.2°C 41.5°F5.3°C 59% 9.0 mph NE14.5 kmh NE -- 30.27 in1025.1 mb 0.00 in0.0 mm 0.00 in0.0 mm 0.00 in0.0 mm
08:15 PM 55.5°F13.1°C 41.4°F5.2°C 59% 10.0 mph NNE16.1 kmh NNE -- 30.28 in1025.4 mb 0.00 in0.0 mm 0.00 in0.0 mm 0.00 in0.0 mm
08:16 PM 55.3°F12.9°C 41.5°F5.3°C 60% 9.0 mph ENE14.5 kmh ENE -- 30.28 in1025.4 mb 0.00 in0.0 mm 0.00 in0.0 mm 0.00 in0.0 mm
08:17 PM 55.3°F12.9°C 41.5°F5.3°C 60% 11.0 mph NNW17.7 kmh NNW -- 30.27 in1025.1 mb 0.00 in0.0 mm 0.00 in0.0 mm 0.00 in0.0 mm
08:18 PM 55.1°F12.8°C 41.3°F5.2°C 60% 9.0 mph NE14.5 kmh NE -- 30.28 in1025.4 mb 0.00 in0.0 mm 0.00 in0.0 mm 0.00 in0.0 mm
08:19 PM 55.1°F12.8°C 41.3°F5.2°C 60% 11.0 mph NE17.7 kmh NE -- 30.28 in1025.4 mb 0.00 in0.0 mm 0.00 in0.0 mm 0.00 in0.0 mm
08:20 PM 55.1°F12.8°C 41.3°F5.2°C 60% 10.0 mph NE16.1 kmh NE -- 30.28 in1025.4 mb 0.00 in0.0 mm 0.00 in0.0 mm 0.00 in0.0 mm
08:21 PM 55.0°F12.8°C 41.3°F5.2°C 60% 10.0 mph NE16.1 kmh NE -- 30.27 in1025.1 mb 0.00 in0.0 mm 0.00 in0.0 mm 0.00 in0.0 mm
08:22 PM 55.0°F12.8°C 41.7°F5.4°C 61% 10.0 mph ENE16.1 kmh ENE -- 30.27 in1025.1 mb 0.00 in0.0 mm 0.00 in0.0 mm 0.00 in0.0 mm
08:23 PM 55.0°F12.8°C 41.7°F5.4°C 61% 8.0 mph NE12.9 kmh NE -- 30.27 in1025.1 mb 0.00 in0.0 mm 0.00 in0.0 mm 0.00 in0.0 mm
08:24 PM 54.9°F12.7°C 41.5°F5.3°C 61% 6.0 mph E9.7 kmh E -- 30.27 in1025.1 mb 0.00 in0.0 mm 0.00 in0.0 mm 0.00 in0.0 mm
08:25 PM 54.9°F12.7°C 41.5°F5.3°C 61% 13.0 mph NNE20.9 kmh NNE -- 30.27 in1025.1 mb 0.00 in0.0 mm 0.00 in0.0 mm 0.00 in0.0 mm
08:26 PM 54.9°F12.7°C 41.5°F5.3°C 61% 8.0 mph ESE12.9 kmh ESE -- 30.27 in1025.1 mb 0.00 in0.0 mm 0.00 in0.0 mm 0.00 in0.0 mm
08:27 PM 54.7°F12.6°C 41.4°F5.2°C 61% 9.0 mph NNE14.5 kmh NNE -- 30.27 in1025.1 mb 0.00 in0.0 mm 0.00 in0.0 mm 0.00 in0.0 mm
08:28 PM 54.7°F12.6°C 41.4°F5.2°C 61% 10.0 mph 16.1 kmh -- 30.27 in1025.1 mb 0.00 in0.0 mm 0.00 in0.0 mm 0.00 in0.0 mm
08:29 PM 54.4°F12.4°C 41.0°F5.0°C 61% 9.0 mph NNE14.5 kmh NNE -- 30.27 in1025.1 mb 0.00 in0.0 mm 0.00 in0.0 mm 0.00 in0.0 mm
08:30 PM 54.2°F12.3°C 40.9°F4.9°C 61% 9.0 mph NNE14.5 kmh NNE -- 30.27 in1025.1 mb 0.00 in0.0 mm 0.00 in0.0 mm 0.00 in0.0 mm
08:31 PM 54.2°F12.3°C 40.9°F4.9°C 61% 5.0 mph NNE8.0 kmh NNE -- 30.27 in1025.1 mb 0.00 in0.0 mm 0.00 in0.0 mm 0.00 in0.0 mm
08:32 PM